Aviation Digital Data Service (ADDS)

Output produced by METARs form (1301 UTC 20 September 2017)
found at http://aviationweather.gov/adds/metars/
 
K04V 201251Z AUTO 00000KT 10SM CLR 00/M02 A3014 RMK AO2
K04W 201254Z AUTO 00000KT 7SM OVC017 18/18 A2962 RMK AO2
K05U 201255Z AUTO 19008KT 10SM CLR 04/M05 A2998 RMK A01
K06D 201255Z AUTO 23012KT 9SM BKN002 07/07 A2958 RMK AO2
K08D 201255Z AUTO 20003KT 10SM CLR 05/05 A2961 RMK AO2
K0A9 201255Z AUTO 00000KT 10SM CLR 19/16 A3011 RMK AO2 PWINO
K0CO 201302Z AUTO 27030G47KT 10SM CLR 00/M03 A3021 RMK AO2
K0E0 201230Z AUTO 29006KT 10SM CLR 15/03 A3011 RMK AO2 T01540025
K0F2 201255Z AUTO 15008KT 10SM SCT120 24/22 A2986 RMK AO2 T02370216
K0R4 201255Z AUTO A2999 RMK AO2 PWINO TSNO
K0S9 201255Z AUTO 00000KT 10SM FEW004 BKN011 OVC065 06/06 A2965 RMK AO2
K0V4 201255Z AUTO 00000KT 10SM CLR 21/20 A3002 RMK AO1 T02090196
K0VG 201255Z AUTO 00000KT M1/4SM FG OVC002 17/17 A3013 RMK AO2
K11R 201255Z AUTO 17006KT 5SM BR OVC006 26/26 A2993 RMK AO2 T02600255
K12N 201254Z AUTO VRB04KT 21/17 A2994 RMK AO1 SLP134 T02060167
K14Y 201252Z AUTO 24007KT 10SM SCT010 SCT021 13/12 A2968 RMK AO2
K18A 201255Z AUTO 00000KT 10SM CLR 23/21 A3005 RMK AO2 T02300207
K19S 201255Z AUTO 35013KT 10SM CLR 11/02 A2992 RMK AO2 T01100017
K1A5 201245Z AUTO 00000KT 1SM BR OVC003 16/16 A3014 RMK AO2 T01600155
K1A6 201255Z AUTO 00000KT 1/2SM FG OVC002 17/17 A3011 RMK AO2 T01690169
K1A9 201255Z AUTO 00000KT 10SM CLR 20/20 A3003 RMK AO2 T02040202
K1F0 201255Z AUTO 20007KT 10SM CLR 23/20 A2985 RMK AO2 LTG DSNT W
K1H2 201255Z AUTO 12005KT 5SM BR CLR 21/21 A2998 RMK AO2 T02120212
K1J0 201111Z AUTO 00000KT 10SM BKN003 22/22 A3001 RMK AO2 T02220222 $
K1K1 201255Z AUTO 18008KT 10SM CLR 21/18 A2978 RMK AO2 T02140182
K1M4 201256Z AUTO 00000KT 1 1/2SM BR OVC002 19/19 A3008 RMK AO2 SLP196 T01940194
K1M5 201255Z AUTO 17003KT 10SM CLR 21/20 A3004 RMK A01
K1P1 201255Z AUTO 00000KT 5SM BR SCT003 16/15 A3002 RMK AO2 T01630153
K1S5 201255Z AUTO 00000KT 10SM OVC110 07/06 A2960 RMK AO2 T00700056
K1V4 201254Z AUTO 16/14 A3003 RMK AO1 SLP163 T01560144
K1YT 201258Z AUTO 00000KT 10SM FEW050 BKN095 06/02 A2958 RMK AO2 SLPNO T00550017 $
K20U 201255Z AUTO 23011G16KT 10SM CLR 06/03 A2970 RMK AO2
K20V 201254Z AUTO 00000KT 10SM SCT090 05/01 A3009 RMK AO2
K21D 201252Z AUTO 20006KT 10SM OVC020 21/19 A2967 RMK AO2
K22N 201255Z AUTO 00000KT 10SM SCT055 21/16 A2997 RMK AO2
K24A 201245Z AUTO 00000KT M1/4SM FG OVC001 15/15 A3018 RMK AO2 T01500149
K24J 201255Z AUTO 00000KT 10SM CLR 25/25 A3006 RMK A01
K28J 201255Z AUTO 00000KT 10SM CLR 23/23 A3005 RMK AO2
K2A0 201255Z AUTO 00000KT M1/4SM FG OVC002 18/18 A3007 RMK A01
K2C8 201255Z AUTO 23007KT 10SM CLR 10/09 A2957 RMK AO2
K2DP 201256Z AUTO 29009KT 10SM BKN100 23/19 A2997 RMK AO2 SLPNO T02250187 $
K2F5 201255Z AUTO 17004KT 10SM CLR 19/16 A2991 RMK AO2
K2G4 201250Z AUTO 27003KT 10SM CLR 17/15 A3009 RMK AO1
K2G9 201255Z AUTO 23006KT 10SM SCT003 14/14 A3010 RMK AO2
K2I0 201215Z AUTO 00000KT 7SM CLR 20/20 A3000 RMK AO2 T02040204
K2J9 201255Z AUTO 00000KT 10SM OVC005 24/23 A3005 RMK AO2
K2P2 201255Z AUTO 15006KT 4SM BR OVC006 17/17 A2992 RMK AO2 T01730165
K2V5 201255Z AUTO 26005KT 10SM CLR 03/00 A2998 RMK AO2
K2V6 201254Z AUTO 00000KT 10SM CLR 02/M01 A2999 RMK AO2
K2W6 201257Z AUTO 31004KT 10SM OVC100 22/18 A2997 RMK AO1
K2WX 201256Z AUTO 26008KT 05/03 A2968 RMK AO1 SLP060 T00500028
K33V 201255Z AUTO 12004KT 10SM SCT075 OVC085 01/00 A3008 RMK AO1
K36U 201255Z AUTO 11005KT 10SM CLR 00/00 A2999 RMK AO2
K3AU 201255Z AUTO 16004KT 10SM CLR 21/19 A2978 RMK AO2
K3D2 201255Z AUTO 16006KT 3SM BR OVC004 17/17 A2992 RMK AO2 T01730166
K3I2 201255Z AUTO 00000KT 7SM SCT001 21/20 A3006 RMK AO2 T02050197
K3J7 201235Z AUTO 00000KT 7SM CLR 22/20 A3002 RMK AO2
K3K3 201255Z AUTO 30007KT 10SM CLR 08/00 A2996 RMK AO2
K3L4 201235Z AUTO 19003KT 7SM SCT019 SCT025 27/26 A2998 RMK A01
K3LF 201255Z AUTO 15006KT 7SM CLR 21/20 A2993 RMK AO2 T02120201
K3N8 201255Z AUTO 26012KT 10SM SCT040 SCT055 12/10 A2966 RMK AO2 T01200100
K3R7 201255Z AUTO 14004KT 10SM CLR 25/24 A2998 RMK AO2 T02520242
K3S8 201255Z AUTO 00000KT 10SM BKN038 OVC044 14/12 A2983 RMK AO2
K3T5 201255Z AUTO 16003KT 4SM BR SCT004 SCT013 SCT021 25/25 A2991 RMK AO2 T02510250
K40B 201216Z AUTO 00000KT 13/ A3011 RMK AO1 SLP200 T0126 10128 20102 52006 60000 70000
K40J 201255Z AUTO 00000KT 7SM SCT016 OVC075 25/24 A3005 RMK AO2 T02490240
K42J 201255Z AUTO 00000KT 3SM CLR 23/23 A3006 RMK AO1 TSNO
K46D 201255Z AUTO 25009KT 10SM CLR 08/06 A2968 RMK AO2
K46U 201240Z AUTO 17005G11KT 10SM OVC055 04/M02 A2997 RMK A01
K49A 201255Z AUTO 36003KT 10SM CLR 19/19 A3011 RMK AO2 T01930193
K4A6 201235Z AUTO 00000KT 1/2SM FG VV005 18/18 A3008 RMK AO2
K4A9 201255Z AUTO 00000KT M1/4SM FG OVC001 17/16 A3006 RMK AO2
K4BM 201255Z AUTO 21010G20KT 170V230 10SM CLR 03/M05 A3023 RMK AO2
K4I3 201244Z AUTO 00000KT 1 1/2SM -RA SCT019 BKN040 OVC049 19/19 A3006 RMK AO2 P0001
K4M9 201235Z AUTO 19004KT 7SM CLR 23/23 A2994 RMK AO2 PWINO
K4MR 201258Z AUTO 25008KT 10SM CLR 19/04 A2997 RMK AO2 SLP087 T01870035 $
K4O4 201255Z AUTO 16006KT 7SM CLR 23/22 A2993 RMK AO2
K4R5 201255Z AUTO 13007KT 10SM OVC035 17/16 A2970 RMK AO2 LTG DSNT SE T01710163
K4S2 201255Z AUTO 00000KT 10SM SCT006 SCT031 OVC048 08/07 A2964 RMK AO2 P0012
K4V0 201255Z AUTO 09005KT 10SM OVC100 06/02 A2999 RMK AO2 T00620022
K54J 201255Z AUTO 00000KT 10SM CLR 24/23 A3005 RMK AO2 T02380228
K57C 201255Z AUTO 13007KT 2 1/2SM BR BKN003 18/18 A2990 RMK AO2 T01760176
K5A6 201255Z AUTO 00000KT 5SM BR CLR 21/21 A3000 RMK AO2 T02110211
K5C1 201255Z AUTO 18005KT 10SM OVC011 23/21 A2996 RMK AO1
K5H4 201255Z AUTO 22008KT 10SM CLR 06/06 A2966 RMK AO2
K5M9 201255Z AUTO 17003KT 7SM CLR 22/22 A3000 RMK AO2 T02160216
K5R8 201255Z AUTO 00000KT 3SM BR CLR 23/23 A2998 RMK AO2 T02290225
K5SM 201249Z AUTO 21012G19KT 10SM CLR 02/M02 A3022 RMK AO2
K5T9 201235Z AUTO 08006KT 7SM CLR 24/22 A2987 RMK A01
K65S 201255Z AUTO 07004KT 10SM OVC006 05/04 A2961 RMK AO2 P0001
K66R 201255Z AUTO 00000KT 3/4SM BR OVC002 24/23 A2993 RMK AO2 T02400231
K6A1 201255Z AUTO 00000KT 10SM 23/20 A3005 RMK AO2 T02310197
K6A2 201255Z AUTO 00000KT 10SM CLR 24/21 A3006 RMK AO2
K6B0 201255Z AUTO 00000KT 10SM CLR 16/15 A3003 RMK AO2 T01560147
K6B9 201255Z AUTO 00000KT 10SM CLR 19/17 A3006 RMK AO2
K6I2 201255Z AUTO 00000KT 9SM CLR 20/19 A3006 RMK AO2
K6L4 201255Z AUTO 00000KT 7SM BKN024 BKN040 OVC055 20/19 A3009 RMK AO2
K6P9 201255Z AUTO 19011G15KT 10SM OVC018 23/21 A2988 RMK AO2 T02310211
K6R3 201255Z AUTO 00000KT 3/4SM BR OVC002 25/24 A2996 RMK AO2 T02450240
K6R6 201253Z AUTO 00000KT 23/18 A2992 RMK AO1 SLP095 T02280183
K6S0 201235Z AUTO 24023G30KT 10SM CLR 06/M02 A2969 RMK A01
K6S2 201255Z AUTO 19004KT 7SM -RA SCT035 BKN041 OVC070 11/11 A2977 RMK AO2 P0001
K74V 201255Z AUTO 25005KT 10SM SCT100 07/03 A3001 RMK AO2
K79J 201256Z AUTO 00000KT 8SM CLR 25/22 A3003 RMK AO2 SLP164 T02500217 PNO $
K7BM 201251Z AUTO 30006KT 10SM CLR 10/M05 A3015 RMK AO2
K7L2 201255Z AUTO 00000KT 10SM 05/03 A2976 RMK AO2
K7N0 201256Z AUTO 18004KT 10SM CLR 27/24 A3001 RMK AO2 SLP161 T02720239
K7W6 201245Z AUTO 27007KT 10SM OVC110 22/20 A2998 RMK AO2 T02160197
K82C 201255Z AUTO 15007KT 7SM SCT065 BKN100 BKN120 19/17 A2980 RMK AO2 T01930174
K82V 201255Z AUTO 10SM OVC090 09/M02 A2997 RMK AO2
K8A0 201255Z AUTO 00000KT 7SM CLR 18/18 A3006 RMK AO2
K8A3 201235Z AUTO 23006KT 10SM CLR 21/18 A3006 RMK A01
K8D3 201256Z AUTO 27016KT 12/08 A2969 RMK AO1 SLP041 T01220083
K8W2 201255Z AUTO 00000KT 10SM CLR 18/16 A3004 RMK AO1 T01780160
K96D 201255Z AUTO 25007KT 10SM CLR A2956 RMK AO2
K9A5 201255Z AUTO 00000KT 1/4SM OVC001 17/16 A3008 RMK AO2 T01670157
K9D7 201255Z AUTO 22008KT 10SM CLR 08/08 A2963 RMK AO2
K9L2 201258Z AUTO 00000KT 10SM CLR 15/05 A2984 RMK AO2 SLP088 T01480050
K9MN 201252Z AUTO 15010G15KT 10SM CLR 21/19 A2970 RMK AO1 T02100187
K9V9 201255Z AUTO 22004KT 10SM CLR 10/10 A2984 RMK AO2 T00970095
KA08 201255Z AUTO 12004KT 7SM BKN002 21/21 A3003 RMK AO2 T02080207
KA39 201255Z AUTO 11008KT 10SM CLR 20/10 A2989 RMK AO2
KAAA 201255Z AUTO 17005KT 10SM CLR 22/21 A2991 RMK AO2 P0001 T02180208
KAAF 201253Z AUTO 00000KT 10SM CLR 27/26 A3003 RMK AO2 SLP167 T02720261 $
KAAO 201254Z AUTO 18007KT 10SM CLR 22/19 A2977 RMK AO2 SLP065 T02220194
KAAT 201255Z AUTO 23012KT 10SM BKN026 OVC033 11/06 A2987 RMK AO2 SLP090 T01110056 TSNO $
KABE 201251Z 34007KT 10SM CLR 22/16 A2994 RMK AO2 SLP137 T02170161
KABH 201256Z AUTO 22005KT A3006 RMK AO2 SLPNO $
KABI 201252Z 18013KT 10SM CLR 23/21 A2986 RMK AO2 SLP086 T02330206
KABQ 201252Z 13007KT 10SM FEW090 FEW200 SCT250 14/03 A3007 RMK AO2 SLP108 T01390028
KABR 201253Z AUTO 24006KT 10SM CLR 08/07 A2977 RMK AO2 SLP079 T00780067
KABY 201253Z 00000KT 6SM BR BKN110 24/23 A3005 RMK AO2 SLP173 T02440228
KACB 201253Z AUTO 00000KT 10SM BKN011 BKN022 OVC048 18/17 A2998 RMK AO2 T01760168
KACJ 201235Z AUTO 24003KT 5SM BR BKN060 22/22 A3006 RMK AO2
KACK 201253Z 04019G25KT 4SM -RA BR OVC003 19/19 A2972 RMK AO2 PK WND 07030/1218 SLP064 P0013 T01890189
KACP 201235Z AUTO 00000KT 1/4SM FG OVC002 23/22 A2998 RMK AO2 T02270220
KACQ 201252Z AUTO 00000KT 10SM CLR 17/16 A2971 RMK AO2
KACT 201251Z 18013KT 10SM BKN016 OVC021 26/23 A2991 RMK AO2 SLP119 T02560233 $
KACV 201253Z AUTO 17006KT 10SM BKN006 OVC010 14/14 A2989 RMK AO2 RAE06 SLP127 P0000 T01440144
KACY 201254Z 34014G23KT 10SM SCT022 23/18 A2985 RMK AO2 SLP109 T02280183
KADC 201252Z AUTO 00000KT 10SM CLR 13/13 A2964 RMK AO2
KADF 201256Z AUTO 00000KT 3SM BR BKN011 OVC070 22/22 A2996 RMK AO2 SLP147 T02170217
KADG 201253Z AUTO 00000KT 3SM BR OVC005 19/19 A3003 RMK AO2 SLP166 T01940189
KADH 201255Z AUTO 17007KT 10SM CLR 23/22 A2986 RMK AO2
KADM 201135Z AUTO 16007KT 10SM CLR 25/22 A2983 RMK AO2 T02450218
KADS 201247Z 17011G16KT 10SM SCT013 26/21 A2990
KADU 201255Z AUTO 00000KT 7SM OVC016 23/21 A2974 RMK AO2
KADW 201258Z 31009KT 10SM SCT100 23/17 A2996 RMK AO2A SLP150 T02260167
KAEG 201247Z 24006KT 10SM SKC 12/02 A3009
KAEJ 201255Z AUTO 05003KT 10SM CLR 12/M04 A3007 RMK AO2 T01181036
KAEL 201255Z AUTO 17007KT 7SM OVC021 22/21 A2969 RMK AO2
KAEX 201253Z 00000KT 1SM BR VV003 24/24 A2997 RMK AO2 SLP153 T02390239
KAFF 201258Z AUTO 19006KT 10SM CLR 05/M02 A3006 RMK AO2 SLP112 T00471019
KAFJ 201255Z AUTO 00000KT 10SM CLR 18/16 A3006 RMK AO1
KAFK 201255Z AUTO 25006KT 7SM CLR 22/22 A2973 RMK AO2 T02190219
KAFN 201252Z AUTO VRB05KT 2SM BR OVC003 19/19 A2997 RMK AO2 SLP151 T01890189
KAFO 201255Z AUTO 10SM OVC075 00/M01 A2996 RMK AO2 TSNO
KAFP 201245Z AUTO 00000KT 10SM CLR 20/18 A3004 RMK AO2 T02040177
KAFW 201253Z 18010KT 10SM FEW050 SCT160 25/22 A2987 RMK AO2 SLP097 T02500217
KAGC 201253Z 11003KT 8SM CLR 18/16 A3005 RMK AO2 SLP173 T01830156
KAGS 201253Z 00000KT 3SM BR CLR 23/22 A3003 RMK AO2 SLP166 T02330217
KAHN 201251Z AUTO 00000KT 7SM CLR 22/21 A3005 RMK AO2 SLP169 T02220211
KAHQ 201255Z AUTO 33011G15KT 10SM CLR 16/13 A2977 RMK AO2 T01560125
KAIA 201253Z AUTO 30010KT 10SM CLR 09/M01 A2990 RMK AO2 SLP105 T00941006
KAIB 201255Z AUTO 00000KT 10SM CLR 13/M03 A3005 RMK AO2
KAID 201207Z 00000KT 1/4FG OVC003 19/19 A3002
KAIG 201255Z AUTO 14014G20KT 2SM BR OVC002 15/15 A2984 RMK AO2 T01500150
KAIK 201255Z AUTO 20003KT 10SM CLR 22/21 A3007 RMK AO2
KAIO 201255Z AUTO 00000KT 9SM BKN028 OVC033 22/21 A2973 RMK AO2
KAIT 201253Z AUTO 25008G14KT 5SM BR OVC005 17/16 A2962 RMK AO2
KAIZ 201256Z AUTO 17006KT 10SM CLR 22/21 A2989 RMK AO2 SLP113 T02220206
KAJG 201255Z AUTO 00000KT 3SM BR CLR 21/21 A2998 RMK AO2 T02120206
KAJL 201255Z AUTO 3SM -SN OVC003 A2990 RMK AO2
KAJO 201256Z AUTO 25003KT 10SM OVC021 17/15 A2987 RMK AO2 SLP123 T01720150
KAJR 201255Z AUTO 00000KT 7SM CLR 20/18 A3009 RMK AO2 T02020180
KAJZ 201255Z AUTO 04006KT 10SM CLR 11/01 A2999 RMK AO2 T01090011
KAKH 201254Z AUTO 00000KT 8SM CLR 23/21 A3005 RMK AO2 SLP168 T02280211
KAKO 201253Z AUTO 00000KT 10SM CLR 06/M03 A2999 RMK AO2 SLP134 T00611028
KAKQ 201254Z AUTO VRB03KT 10SM CLR 23/18 A2998 RMK AO2 SLP153 T02280183
KAKR 201254Z AUTO 00000KT 7SM CLR 22/18 A3005 RMK AO2 SLP166 T02170183
KALB 201251Z 33007KT 10SM FEW028 FEW180 BKN260 19/17 A3000 RMK AO2 SLP158 T01940167
KALI 201253Z AUTO 15007KT 5SM BR CLR 25/24 A2989 RMK AO2 SLP118 T02500244
KALK 201256Z AUTO 30006KT 10SM CLR 17/13 A3010 RMK AO2 SLP102 T01720128
KALM 201255Z AUTO 17007KT 10SM CLR 18/07 A3002 RMK AO2
KALN 201250Z 12005KT 10SM SKC 21/21 A2992
KALO 201254Z 16014KT 10SM CLR 21/18 A2972 RMK AO2 SLP060 T02110183
KALS 201252Z AUTO 20012KT 10SM CLR 08/M05 A3010 RMK AO2 SLP119 T00831050
KALW 201253Z 00000KT 10SM FEW055 FEW100 SCT120 09/07 A2962 RMK AO2 SLP030 T00890067
KALX 201255Z AUTO 00000KT 10SM SCT001 20/19 A3005 RMK AO2 T01960189
KAMA 201253Z 34008KT 10SM CLR 12/05 A2992 RMK AO2 SLP089 T01220050
KAMG 201253Z AUTO 21003KT 9SM CLR 25/21 A3004 RMK AO2 SLP169 T02500211
KAMN 201254Z AUTO 04004KT 1 3/4SM BR BKN005 OVC009 20/19 A3001 RMK AO2 T01960189
KAMW 201253Z AUTO 18008KT 10SM FEW036 23/21 A2972 RMK AO2 SLP054 T02330211
KANB 201253Z AUTO 06004KT 9SM OVC002 18/18 A3006 RMK AO2 SLP175 T01830178
KAND 201256Z AUTO 00000KT 10SM CLR 23/21 A3004 RMK AO2 SLP165 T02330206
KANE 201250Z 18007KT 10SM BKN012 22/21 A2964
KANJ 201255Z AUTO 11006KT 10SM OVC007 18/16 A3001 RMK AO2 SLP161 T01830161
KANK 201255Z AUTO 16006KT 10SM CLR 13/M04 A3014 RMK AO1 T01291041
KANW 201255Z AUTO 00000KT 10SM SCT110 10/09 A2987 RMK AO2 T01000090
KAOH 201253Z AUTO 16005KT 6SM BR SCT080 19/19 A3003 RMK AO2 SLP164 T01940194
KAOO 201253Z AUTO 00000KT 4SM BR SCT001 16/16 A3006 RMK AO2 SLP177 T01560156
KAPA 201253Z 19005KT 10SM FEW100 SCT220 06/00 A2999 RMK AO2 SLP124 T00560000
KAPC 201254Z 27009KT 10SM BKN029 14/10 A2995 RMK AO2 SLP132 T01440100
KAPF 201253Z 09005KT 10SM CLR 27/26 A2997 RMK AO2 SLP149 T02720256 $
KAPG 201258Z 35007KT 9SM BKN090 23/18 A2994 RMK AO2A SLP141 T02310178 $
KAPN 201254Z AUTO 00000KT 2 1/2SM BR OVC002 19/19 A3004 RMK AO2 SLP170 T01940194
KAPS 201255Z AUTO 00000KT 7SM SCT019 27/25 A3000 RMK AO2 T02670245
KAPY 201255Z AUTO 13006KT 7SM CLR 26/22 A2987 RMK AO2 T02650228
KAQO 201255Z AUTO 00000KT 6SM BR CLR 23/22 A2995 RMK AO2
KAQP 201254Z AUTO 28009KT 10SM CLR 15/12 A2971 RMK AO2
KAQR 201255Z AUTO 15004KT 10SM CLR 25/21 A2987 RMK AO2
KAQV 201256Z AUTO 18003KT 1 3/4SM BR OVC002 24/24 A2997 RMK AO2 SLP147 T02440239
KAQW 201252Z AUTO 23003KT 10SM OVC025 20/17 A2998 RMK AO2 SLP149 T02000167
KARA 201253Z 00000KT 8SM CLR 26/23 A2999 RMK AO2 SLP156 T02560233 $
KARB 201258Z 00000KT 3SM BR OVC006 21/20 A3001 RMK AO2 CIG 004V008 T02060200
KARM 201255Z AUTO 10003KT 2SM BR CLR 24/23 A2993 RMK AO2 T02380233
KARR 201252Z 13007KT 5SM BR CLR 19/18 A2991 RMK AO2 SLP124 T01940183
KART 201256Z AUTO 34003KT 6SM BR CLR 18/17 A3003 RMK AO2 SLP167 T01830172
KARV 201230Z AUTO 14006KT 10SM TSRA BKN010 OVC014 17/15 A2984 RMK AO2 LTG DSNT ALQS T01660151
KARW 201255Z AUTO 24003KT 10SM SCT060 25/22 A3004 RMK AO2
KASD 201253Z AUTO 00000KT 10SM CLR 26/23 A2999 RMK AO2 SLP156 T02560233
KASE 201253Z 19005KT 10SM CLR 06/00 A3007 RMK AO2 SLP086 T00560000
KASG 201148Z 18010KT 10SM SKC 24/23 A2992
KASH 201256Z 02007KT 3SM BR OVC008 20/19 A2995 RMK AO2 SLP152 T02000194
KASJ 201245Z AUTO 00000KT 10SM 21/19 A2999 RMK AO2 T02080190
KASL 201255Z AUTO 00000KT 7SM SCT012 24/23 A2997 RMK AO1 T02400225
KASN 201255Z AUTO 10SM BKN001 A3006 RMK AO2 P0001
KAST 201255Z AUTO VRB04KT 10SM FEW008 BKN034 OVC046 09/08 A2961 RMK AO2 RAE54 CIG 028 RWY 08 SLP026 P0026 T00940078
KASW 201255Z AUTO 00000KT M1/4SM FG OVC001 17/17 A3000 RMK AO2
KASX 201253Z AUTO 13005KT 10SM BKN034 OVC045 17/16 A2971 RMK AO2 SLP061 T01720161
KATL 201252Z 32003KT 9SM CLR 23/21 A3006 RMK AO2 SLP169 T02280206
KATP 201255Z AUTO 13010KT 10SM CLR 28/22 A3000 RMK A01
KATS 201255Z AUTO 24010KT 10SM CLR 19/07 A2994 RMK AO2
KATT 201251Z AUTO 00000KT 9SM SCT010 26/23 A2993 RMK AO2 SLP120 T02560233
KATW 201245Z 14009KT 5SM BR SCT007 BKN080 18/18 A2986
KATY 201253Z AUTO 28012G22KT 10SM CLR 11/09 A2975 RMK AO2 SLP071 T01110094
KAUG 201253Z AUTO 01009KT 5SM BR OVC003 19/18 A3002 RMK AO2 SLP167 T01890183
KAUH 201255Z AUTO 33008KT 10SM CLR 12/10 A2983 RMK AO2 T01220098
KAUM 201255Z AUTO 18008KT 10SM BKN023 OVC027 21/18 A2971 RMK AO2
KAUN 201255Z AUTO 11007KT 10SM OVC090 15/01 A2993 RMK AO1
KAUS 201253Z 18006KT 8SM FEW028 FEW200 26/24 A2991 RMK AO2 SLP118 T02560244
KAUW 201254Z AUTO 12008KT 1 1/4SM TSRA BR FEW012 BKN050 OVC065 17/16 A2981 RMK AO2 LTG DSNT ALQDS RAB35 TSB49 SLP094 P0005 T01720161
KAVC 201255Z AUTO 00000KT 10SM CLR 21/20 A3007 RMK AO2 T02060204
KAVK 201255Z AUTO 20007KT 10SM CLR 22/18 A2978 RMK AO2
KAVL 201254Z 33009KT 8SM CLR 18/17 A3013 RMK AO2 SLP181 T01830167
KAVP 201254Z 00000KT 9SM CLR 18/16 A3001 RMK AO2 SLP156 T01830156
KAVQ 201255Z AUTO 12004KT 10SM CLR 21/11 A2990 RMK AO2 T02110112
KAVX 201251Z AUTO 14003KT 8SM SCT016 16/16 A2989 RMK AO2 SLP107 T01560156
KAWG 201255Z AUTO 16008KT 130V190 10SM CLR 22/20 A2982 RMK AO2
KAWM 201253Z AUTO 16004KT 8SM CLR 24/23 A2996 RMK AO2 SLP141 T02390233
KAWO 201256Z AUTO 35003KT 10SM OVC065 08/07 A2965 RMK AO2 SLP043 P0001 T00780072
KAXA 201255Z AUTO 23003KT 10SM CLR 17/17 A2971 RMK AO2
KAXH 201255Z AUTO 00000KT 3SM BR CLR 24/24 A2995 RMK AO2 T02380236
KAXN 201253Z AUTO 29015G21KT 10SM CLR 14/12 A2971 RMK AO2 SLP057 T01390122
KAXS 201255Z AUTO 14007KT 5SM BR CLR 21/19 A2982 RMK AO2 T02120190
KAXV 201253Z AUTO 15003KT 5SM BR SCT037 BKN048 20/20 A3004 RMK AO2
KAXX 201255Z AUTO 19005KT 10SM CLR 10/M03 A3020 RMK AO2 T00971029
KAYS 201255Z AUTO 24003KT 10SM CLR 24/21 A3005 RMK AO2 T02420212
KAZE 201255Z AUTO 21004KT 10SM CLR 25/22 A3003 RMK AO2 T02520216
KAZO 201253Z 17003KT 6SM HZ OVC007 20/17 A2999 RMK AO2 SLP153 T02000172
KBAB 201258Z AUTO 00000KT 10SM OVC090 15/08 A2989 RMK AO2 SLP124 T01530077 $
KBAC 201255Z AUTO 24011KT 10SM CLR 09/09 A2970 RMK AO2
KBAD 201258Z AUTO 16007KT 10SM FEW130 25/25 A2995 RMK AO2 SLP143 T02450245
KBAF 201253Z 01014KT 10SM OVC019 22/18 A2991 RMK AO2 SLP126 T02220183
KBAK 201245Z COR 18003KT 1/4SM FG OVC001 19/18 A3002
KBAN 201252Z AUTO 27006KT 10SM OVC055 10/M03 A3002 RMK AO2 SLP082 T01001033 $
KBAX 201254Z AUTO 18003KT 1 1/2SM BR SCT003 SCT100 20/19 A3003 RMK AO2 T01950190
KBAZ 201251Z 18008KT 9SM SCT014 OVC023 26/23 A2991 RMK AO2 SLP120 T02610233 $
KBBB 201253Z AUTO 33006KT 10SM CLR 15/13 A2971 RMK AO2
KBBG 201245Z 00000KT 6SM BR SCT250 21/21 A2993
KBBP 201255Z AUTO 00000KT 10SM CLR 22/21 A3004 RMK AO2
KBBW 201253Z AUTO 35003KT 10SM CLR 07/05 A2988 RMK AO2 SLP111 T00720050
KBCB 201255Z AUTO 00000KT 10SM SCT080 SCT090 19/18 A3013 RMK AO2 T01880175
KBCE 201253Z AUTO 02003KT 10SM CLR 03/M01 A3008 RMK AO2 SLP098 T00331006
KBCK 201255Z AUTO 00000KT 10SM SCT046 SCT060 19/19 A2976 RMK AO2 P0004 T01860185
KBCT 201247Z 00000KT 10SM CLR M/M A2999
KBDE 201253Z AUTO 25014G21KT 10SM -RA FEW006 BKN011 OVC024 16/16 A2953 RMK AO2 RAB01 SLP001 P0007 T01610156
KBDG 201255Z AUTO 03006KT 10SM 09/M01 A3009 RMK AO1 T00921015
KBDH 201255Z AUTO 27008KT 10SM CLR 15/14 A2972 RMK AO2
KBDL 201251Z 01010KT 10SM OVC020 22/18 A2990 RMK AO2 SLP123 BINOVC T02220183
KBDN 201255Z AUTO 23011KT 10SM -DZ BKN046 BKN055 09/05 A2966 RMK AO2 P0001
KBDR 201252Z 01016G24KT 10SM BKN024 BKN036 24/18 A2984 RMK AO2 PK WND 36026/1212 SLP104 T02390183
KBDU 201256Z AUTO 00000KT 10SM SCT110 06/00 A2999 RMK AO2
KBEA 201255Z AUTO 00000KT 1 1/2SM BR VV007 23/23 A2991 RMK AO2 T02310231
KBEC 201255Z AUTO 15008KT 10SM CLR 22/18 A2977 RMK AO2 T02150181
KBED 201256Z 03012KT 5SM -RA BR OVC005 20/18 A2990 RMK AO2 PK WND 02026/1209 SLP136 P0000 T02000178
KBEH 201253Z AUTO 11005KT 1/4SM FG VV002 18/17 A2997 RMK AO2 SLP148 T01830172 $
KBFD 201253Z AUTO 00000KT 10SM CLR 16/14 A3008 RMK AO2 SLP180 T01560144
KBFF 201253Z AUTO 28009KT 10SM CLR 10/M01 A2992 RMK AO2 SLP113 T01001006 $
KBFI 201253Z 00000KT 10SM SCT006 BKN025 OVC065 12/11 A2962 RMK AO2 SLP031 T01170111 $
KBFL 201254Z 12003KT 10SM CLR 16/08 A2995 RMK AO2 SLP136 T01610083
KBFM 201253Z 28003KT 10SM FEW041 26/24 A3003 RMK AO2 SLP168 T02610244
KBFW 201239Z AUTO 07006KT 3SM -VCTSRA OVC003 16/15 A2969 RMK AO2 LTG DSNT
KBGD 201251Z AUTO 33006KT 10SM CLR 14/04 A2991 RMK AO2 SLP090 T01390044
KBGE 201255Z AUTO 00000KT 7SM BKN003 BKN065 24/24 A3004 RMK AO2
KBGF 201255Z AUTO 00000KT 10SM CLR 20/19 RMK
KBGM 201253Z 06006KT 10SM CLR 17/15 A3005 RMK AO2 SLP170 T01670150
KBGR 201253Z 03009KT 4SM BR OVC003 20/19 A3004 RMK AO2 SLP168 T02000189
KBHB 201256Z AUTO 05006KT 10SM OVC005 20/19 A3002 RMK AO2 SLP167 T02000189 PNO $
KBHC 201255Z AUTO 22003KT 10SM CLR 23/22 A3004 RMK AO2
KBHK 201251Z AUTO 23011KT 10SM CLR 06/01 A2971 RMK AO2 PK WND 17031/1157 SLP065 T00610011
KBHM 201253Z 00000KT 10SM FEW250 21/19 A3007 RMK AO2 SLP174 T02110194
KBID 201256Z AUTO 02020G27KT 8SM OVC006 19/18 A2976 RMK AO2 PK WND 02032/1210 SLP082 T01940183
KBIE 201255Z AUTO 32005KT 10SM CLR 17/12 A2976 RMK AO2 T01670122
KBIF 201158Z 25011KT 10SM CLR 25/09 A2999 RMK AO2A SLPNO 52011 $
KBIH 201256Z AUTO 33004KT 10SM CLR 08/01 A2989 RMK AO2 SLP081 T00780006
KBIJ 201255Z AUTO 00000KT 10SM BKN085 23/22 A3004 RMK AO2
KBIL 201253Z 25012KT 10SM FEW080 06/00 A2969 RMK AO2 SLP054 T00610000
KBIS 201252Z 22004KT 10SM CLR 07/04 A2971 RMK AO2 SLP065 T00670044
KBIV 201253Z AUTO 16007KT 5SM BR BKN013 20/18 A2998 RMK AO2 SLP149 T02000183
KBIX 201256Z AUTO 00000KT 10SM CLR 26/24 A3000 RMK AO2 SLP162 T02570243 CHINO RWY03 $
KBJC 201247Z 18003KT 20SM SCT100 08/00 A2999
KBJI 201254Z AUTO 26010KT 10SM BKN011 BKN029 OVC046 14/13 A2963 RMK AO2 T01390126
KBJJ 201256Z AUTO 00000KT 5SM BR BKN085 19/19 A3006 RMK AO2 SLP174 T01940189
KBKB 201254Z AUTO 21003KT 1 1/2SM BR OVC002 24/24 A2997 RMK AO2 SLP173 T02440244
KBKD 201255Z AUTO 19010G17KT 7SM OVC018 25/21 A2986 RMK AO2 T02520210
KBKE 201253Z AUTO VRB06G21KT 10SM -RA SCT035 BKN044 BKN080 08/04 A2963 RMK AO2 RAE19B52 SLP031 P0001 T00830039
KBKF 201258Z 11015KT 10SM FEW110 SCT220 07/00 A3000 RMK AO2A SLP119 T00691003
KBKL 201253Z 00000KT 6SM HZ BKN085 22/19 A3002 RMK AO2 SLP164 T02220189 $
KBKN 201255Z AUTO 00000KT 10SM CLR 23/21 A2981 RMK AO2
KBKS 201255Z AUTO 12003KT 3SM CLR M39/ A2988 RMK AO1 T1389
KBKT 201255Z AUTO 28005KT 10SM CLR 21/21 A3001 RMK AO1 T02130213
KBKV 201253Z 05003KT 10SM CLR 25/22 A3004 RMK AO2 SLP171 T02500222
KBKW 201251Z AUTO 00000KT 10SM FEW034 SCT042 BKN060 19/17 A3012 RMK AO2 SLP175 T01890167 TSNO
KBKX 201256Z AUTO 29008KT CLR 11/09 A2977 RMK AO2 SLP091 T01110094 RVRNO $
KBLF 201252Z AUTO 25005KT 10SM FEW060 17/15 A3014 RMK AO2 SLP178 T01720150
KBLH 201252Z AUTO 36005KT 10SM CLR 20/09 A2975 RMK AO2 SLP066 T02000094
KBLI 201253Z AUTO 00000KT 3SM RA BR SCT003 BKN012 OVC036 09/09 A2965 RMK AO2 SLP047 P0014 T00940094
KBLM 201256Z AUTO 34013KT 10SM OVC023 22/18 A2987 RMK AO2 SLP117 T02220183
KBLU 201252Z AUTO 13003KT 10SM BKN044 OVC060 09/01 A3003 RMK AO2 SLP121 T00890011 TSNO
KBLV 201255Z 15001KT 7SM CLR 22/20 A2995 RMK AO2A SLP135 WND DATA ESTMD T02230196
KBMC 201235Z AUTO 32003KT 10SM OVC095 05/02 A2994 RMK AO1 T00450022
KBMG 201253Z 14004KT 1/2SM FG BKN002 19/18 A3001 RMK AO2 SLP155 T01940183
KBMI 201256Z 17008KT 10SM CLR 21/19 A2994 RMK AO2 SLP149 T02060189
KBML 201252Z AUTO 34003KT 10SM OVC019 20/16 A3006 RMK AO2 SLP176 T02000161
KBMQ 201253Z AUTO 17007KT 10SM BKN016 24/22 A2995 RMK AO2 SLP121 T02440222
KBMT 201255Z AUTO 00000KT 10SM BKN016 BKN024 OVC120 27/25 A2996 RMK AO2 T02670250
KBNA 201253Z 20003KT 10SM FEW044 SCT130 22/19 A3005 RMK AO2 SLP169 T02220194 $
KBNL 201255Z AUTO 00000KT 10SM CLR 24/22 A3004 RMK AO2
KBNO 201253Z AUTO 21005KT 10SM -RA BKN039 BKN048 OVC060 07/06 A2971 RMK AO2 RAB53 SLP053 P0000 T00720061 TSNO
KBNW 201255Z AUTO 00000KT FEW022 OVC031 22/20 A2973 RMK AO2
KBOI 201253Z 12012KT 10SM SCT070 OVC095 11/02 A2975 RMK AO2 SLP066 T01060022
KBOK 201256Z AUTO 32003KT 10SM OVC005 14/13 A2988 RMK AO2 CIG 004V008 SLP133 T01390133
KBOS 201254Z 03020G27KT 10SM OVC006 19/18 A2989 RMK AO2 PK WND 03027/1252 RAE49 SLP123 P0002 T01890183
KBPC 201255Z AUTO 36005KT 10SM CLR 13/05 A2988 RMK AO2
KBPG 201255Z AUTO 17008KT 10SM CLR 22/17 A2992 RMK AO2 T02200172
KBPI 201253Z AUTO 12004KT 10SM CLR M03/M05 A2998 RMK AO2 SLP148 T10331050
KBPK 201253Z AUTO 14004KT 10SM CLR 23/22 A2993 RMK AO2 SLP124 T02280222
KBPT 201253Z 17004KT 9SM SCT021 BKN030 BKN045 27/26 A2995 RMK AO2 SLP140 T02670256
KBQK 201255Z AUTO 24005KT 10SM CLR 25/20 A3005 RMK AO2
KBQP 201255Z AUTO 21003KT 4SM BR SCT004 23/23 A2999 RMK AO2 T02330230
KBQX 201255Z AUTO 18015KT 8SM CLR 28/25 A2993 RMK A01
KBRD 201253Z AUTO 24009KT 7SM OVC005 16/16 A2965 RMK AO2 WSHFT 1156 SLP037 T01610156
KBRL 201253Z AUTO 18010KT 10SM CLR 23/21 A2983 RMK AO2 SLP098 T02280206
KBRO 201253Z 17006KT 10SM CLR 27/26 A2989 RMK AO2 SLP121 T02670261
KBTA 201255Z AUTO 33007KT 10SM CLR 17/13 A2976 RMK AO2 T01730125
KBTL 201253Z 17005KT 6SM BR BKN015 20/19 A3001 RMK AO2 SLP157 T02000189 PNO
KBTM 201253Z AUTO VRB03KT 10SM FEW060 BKN110 02/M02 A2969 RMK AO2 SLP065 T00171022
KBTP 201256Z AUTO 00000KT 10SM CLR 18/16 A3007 RMK AO2 SLP181 T01780161
KBTR 201253Z 00000KT 6SM BR FEW017 24/23 A3000 RMK AO2 SLP158 T02390228
KBTV 201254Z 00000KT 10SM SCT007 SCT100 BKN200 17/15 A3004 RMK AO2 SLP172 T01720150
KBUF 201254Z 00000KT 10SM FEW250 FEW300 19/17 A3004 RMK AO2 SLP170 T01890167
KBUR 201253Z 00000KT 10SM BKN021 16/12 A2987 RMK AO2 SLP104 T01560122
KBUU 201235Z AUTO 13004KT 1SM BR OVC002 18/18 A2991 RMK AO2 T01750175
KBUY 201254Z AUTO 25006KT 9SM CLR 22/20 A3003 RMK AO2 SLP165 T02170200
KBVE 201251Z AUTO 14003KT 6SM HZ CLR 28/25 A3001 RMK AO2 SLP161 T02780250
KBVI 201247Z 00000KT 10SM SCT045 SCT090 20/16 A3006
KBVN 201255Z AUTO 33006KT 10SM CLR 11/09 A2984 RMK AO2 T01050091
KBVO 201253Z AUTO 18008KT 10SM CLR 24/21 A2980 RMK AO2 SLP079 T02390211
KBVS 201255Z AUTO 04005KT 10SM FEW038 OVC047 10/09 A2965 RMK A01
KBVU 201255Z AUTO 00000KT 10SM 20/04 A2981 RMK AO2
KBVX 201256Z AUTO VRB03KT 10SM CLR A2995 RMK AO2 SLPNO FZRANO $
KBVY 201253Z 02016G23KT 3/4SM BR OVC002 19/18 A2990 RMK AO2 PK WND 03028/1219 RAE45 SLP121 P0001 T01890183
KBWD 201255Z AUTO 16007KT 8SM CLR 23/22 A2990 RMK AO2
KBWG 201253Z AUTO 10003KT 10SM CLR 21/20 A3004 RMK AO2 SLP167 T02060200
KBWI 201254Z 31005KT 10SM FEW080 BKN100 BKN160 BKN250 22/18 A2995 RMK AO2 SLP141 T02220183
KBWP 201230Z AUTO 26008KT 10SM CLR 12/09 A2969 RMK AO1
KBWW 201255Z AUTO 23012KT 10SM CLR 04/03 A2962 RMK AO2
KBXA 201255Z AUTO 00000KT 7SM CLR 24/22 A3003 RMK AO2 T02400220
KBXK 201255Z AUTO 10009KT 10SM CLR 23/M03 A2982 RMK AO1
KBYG 201253Z AUTO 17005KT 10SM CLR 05/M04 A2979 RMK AO2 SLP081 T00501044
KBYI 201253Z AUTO 21007KT 10SM CLR 05/M01 A2983 RMK AO2 SLP091 T00501011
KBYL 201255Z AUTO 00000KT 1 1/2SM OVC001 17/17 A3009 RMK AO1
KBYS 201255Z AUTO VRB01KT 10SM CLR 15/04 A2984 RMK AO2 SLP081 WND DATA ESTMD T01490043
KBYY 201255Z AUTO 00000KT 4SM BR SCT020 SCT041 BKN050 25/25 A2993 RMK AO2 T02520250
KBZN 201256Z 14008KT 10SM BKN070 03/M01 A2972 RMK AO2 SLP071 T00281006
KC07 201252Z AUTO 24010G15KT 10SM BKN070 00/00 A3014 RMK AO2
KC09 201255Z AUTO 15006KT 5SM BR CLR 19/18 A2990 RMK AO2 T01910183
KC29 201255Z AUTO 14007KT 7SM CLR 20/18 A2985 RMK AO1 T02010181
KC35 201255Z AUTO 15005KT 10SM SCT075 BKN090 19/18 A2982 RMK AO2 T01930183
KC62 201255Z AUTO 14003KT M1/4SM FG OVC002 17/17 A3002 RMK AO2 T01760176
KC75 201255Z AUTO 16005KT 1 1/4SM BR VV007 20/19 A2988 RMK AO2 T02010190
KCAD 201255Z AUTO 14007KT 3SM BR OVC003 18/17 A2999 RMK AO2 T01870170
KCAE 201256Z 00000KT 6SM HZ FEW025 SCT130 BKN220 23/20 A3003 RMK AO2 SLP166 T02330200
KCAG 201253Z AUTO 07005KT 10SM OVC100 05/02 A3004 RMK AO2 SLP164 T00500017
KCAK 201251Z 00000KT 6SM BR BKN100 20/18 A3005 RMK AO2 SLP169 T02000178
KCAO 201255Z AUTO 34011KT 10SM CLR 09/M03 A3001 RMK AO2 SLP111 T00941028
KCAR 201257Z AUTO 01005KT 2 1/2SM BR OVC002 16/14 A3010 RMK AO2 T01560144
KCAV 201255Z AUTO 18009KT 10SM CLR 22/22 A2971 RMK AO2 PWINO
KCBE 201246Z AUTO 00000KT 7SM SCT001 17/17 A3009 RMK AO1
KCBF 201255Z AUTO 36005KT 10SM FEW030 FEW037 SCT046 19/18 A2973 RMK AO2
KCBG 201255Z AUTO 17007KT 10SM BKN009 22/19 A2963 RMK AO2
KCBK 201255Z AUTO 32005KT 10SM CLR 08/02 A2996 RMK AO2
KCBM 201256Z AUTO 00000KT 10SM CLR 22/22 A3001 RMK AO2 SLP163 T02220222 TSNO $
KCCA 201255Z AUTO 00000KT 2 1/2SM BR CLR 20/20 A2994 RMK AO2
KCCO 201255Z AUTO 00000KT 10SM CLR 23/22 A3006 RMK AO2 T02290217
KCCR 201253Z AUTO 25008KT 10SM CLR 17/13 A2995 RMK AO2 SLP127 T01720128
KCCU 201255Z AUTO 25012G20KT 10SM CLR 05/M03 A3025 RMK AO2
KCCY 201255Z AUTO 17009G15KT 10SM OVC027 22/20 A2974 RMK AO2
KCDA 201255Z AUTO 00000KT 10SM CLR 16/16 A3007 RMK AO2 T01600157
KCDC 201253Z AUTO 00000KT 10SM CLR 06/03 A2996 RMK AO2 SLP095 T00610028
KCDD 201248Z AUTO 14004KT 10SM SCT055 BKN110 15/15 A2960 RMK AO2 LTG DSNT E AND SE
KCDH 201255Z AUTO 19004KT 4SM BR SCT009 SCT013 24/22 A2996 RMK AO2
KCDI 201253Z AUTO 00000KT 10SM SCT004 SCT050 OVC070 18/18 A3005 RMK AO2 T01800180
KCDJ 201252Z AUTO 17006KT 23/21 A2980 RMK AO1 SLP079 T02280211
KCDN 201255Z AUTO 00000KT 9SM CLR 23/20 A3005 RMK AO2
KCDR 201253Z AUTO 20009KT 10SM CLR 07/M01 A2988 RMK AO2 SLP119 T00721011 $
KCDS 201253Z AUTO 18008KT 10SM CLR 21/18 A2981 RMK AO2 SLP070 T02060183
KCDW 201253Z 02008G15KT 340V080 10SM BKN120 23/18 A2990 RMK AO2 SLP129 T02280183
KCEC 201256Z AUTO 24004KT 8SM FEW017 BKN022 BKN031 14/14 A2989 RMK AO2 RAE02 SLP122 P0000 T01390139
KCEF 201258Z 04014KT 10SM OVC019 22/18 A2990 RMK AO2A SLP130 T02200177
KCEU 201254Z AUTO 00000KT 8SM CLR 23/22 A3006 RMK AO2 SLP169 T02330222
KCEW 201253Z AUTO 09003KT 5SM BR BKN025 BKN032 23/22 A3004 RMK AO2 SLP170 T02330222
KCEY 201255Z AUTO 16006KT 9SM BKN120 23/23 A3000 RMK AO1
KCEZ 201253Z AUTO 06005KT 10SM CLR 06/M01 A3005 RMK AO2 SLP121 T00611011
KCFD 201255Z AUTO 17008KT 7SM OVC007 25/25 A2994 RMK AO2 T02500250
KCFE 201254Z AUTO 20004KT 10SM SCT006 OVC016 17/16 A2967 RMK AO2 T01710157
KCFS 201254Z AUTO 00000KT M1/4SM FG OVC002 18/18 A3001 RMK AO2 T01830177
KCFV 201252Z AUTO 18011KT 10SM CLR 24/22 A2980 RMK AO2 SLP084 T02440217
KCGC 201255Z AUTO 00000KT 10SM CLR A3004 RMK AO2
KCGE 201245Z AUTO 32007KT 290V350 10SM CLR 24/19 A2993 RMK A01
KCGF 201245Z 12004KT 8SM BKN070 BKN120 22/20 A3005
KCGI 201253Z 00000KT 10SM CLR 23/21 A2996 RMK AO2 SLP140 T02330211
KCGS 201246Z AUTO 32005KT 10SM OVC110 22/17 A2996 RMK AO1 T02170167
KCHA 201253Z 00000KT 1/2SM R02/2200V3000FT FG VV002 19/18 A3007 RMK AO2 SLP177 T01890183 $
KCHD 201247Z 07004KT 10SM CLR 20/10 A2984
KCHK 201255Z AUTO 16013KT 10SM CLR 25/22 A2979 RMK AO2 T02490216
KCHO 201253Z 24003KT 10SM CLR 20/18 A3001 RMK AO2 SLP155 T02000178
KCHS 201256Z 24005KT 10SM FEW055 SCT250 26/23 A3004 RMK AO2 SLP172 T02560233
KCIC 201235Z AUTO 00000KT 10SM OVC090 19/05 A2987 RMK AO1
KCID 201252Z 17011KT 9SM CLR 21/19 A2978 RMK AO2 SLP079 T02110189
KCIN 201255Z AUTO 32004KT 10SM FEW055 19/17 A2972 RMK AO2
KCIR 201255Z AUTO 17005KT 10SM CLR 23/22 A2997 RMK AO2 T02300218
KCIU 201256Z AUTO 11005KT 1/2SM FG OVC003 17/17 A3002 RMK AO2 SLP188 T01720172
KCJR 201255Z AUTO 00000KT 10SM CLR 22/18 A3001 RMK AO2 T02160182
KCKB 201253Z 00000KT 10SM SCT065 OVC090 18/17 A3006 RMK AO2 SLP167 T01830167
KCKC 201255Z AUTO 10011G22KT 2SM BR 13/11 A2976 RMK AO2 P0001 TSNO
KCKF 201255Z AUTO 19003KT 10SM BKN120 27/23 A3005 RMK AO2 T02680234
KCKI 201255Z AUTO 23003KT 10SM CLR 22/21 A3004 RMK AO2
KCKM 201255Z AUTO 17004KT 7SM 24/24 A2998 RMK A01
KCKN 201254Z AUTO 24005KT 10SM CLR 12/11 A2963 RMK AO2
KCKP 201255Z AUTO 31003KT 10SM CLR 15/14 A2976 RMK AO2 T01540142
KCKV 201252Z AUTO 13003KT 7SM CLR 21/19 A3002 RMK AO2 SLP162 T02110194
KCKZ 201255Z AUTO 35005KT 10SM SCT050 19/18 A2995 RMK AO2 P0001
KCLE 201251Z COR 21003KT 7SM BKN075 BKN110 OVC250 22/19 A3005 RMK AO2 SLP172 T02170189
KCLI 201255Z AUTO 14005KT 3SM BR OVC003 16/16 A2986 RMK AO2
KCLK 201255Z AUTO 16008KT 10SM CLR 21/18 A2979 RMK AO2
KCLL 201253Z 17006KT 6SM BR OVC006 26/25 A2993 RMK AO2 CIG 005V010 SLP129 T02560250
KCLM 201253Z AUTO 27006KT 10SM FEW039 OVC060 08/06 A2965 RMK AO2 SLP041 T00830061
KCLS 201255Z AUTO 00000KT 4SM -RA FEW011 SCT027 BKN036 10/10 A2963 RMK AO2 P0019
KCLT 201252Z 19003KT 10SM FEW110 FEW200 23/21 A3005 RMK AO2 SLP167 T02330211
KCLW 201255Z AUTO 03004KT 10SM CLR 25/22 A3002 RMK AO2
KCMA 201255Z AUTO 05003KT 10SM CLR 15/12 A2985 RMK AO2 SLP116 T01500122
KCMD 201255Z AUTO 00000KT 7SM CLR 19/19 A3008 RMK AO2 T01900186
KCMH 201251Z 00000KT 8SM BKN048 BKN070 22/20 A3004 RMK AO2 SLP167 T02170200
KCMI 201253Z 17006KT 5SM HZ CLR 21/19 A2995 RMK AO2 SLP138 T02110194
KCMR 201255Z AUTO 16004KT 10SM CLR 09/M02 A3010 RMK AO2
KCMX 201253Z AUTO 05003KT 10SM VCTS OVC075 16/14 A2985 RMK AO2 LTG DSNT W-N SLP110 T01560139
KCMY 201255Z AUTO 15005KT 10SM BKN045 BKN060 19/17 A2978 RMK AO2 LTG DSNT NE P0001 T01900172
KCNB 201255Z AUTO 32012KT 10SM CLR 14/11 A2975 RMK AO2 T01400113
KCNC 201255Z AUTO 18010G16KT 10SM CLR 22/20 A2975 RMK AO2
KCNI 201255Z AUTO 00000KT 7SM CLR 20/20 A3008 RMK AO2
KCNK 201255Z AUTO 33008KT 10SM CLR 16/11 A2978 RMK AO2 SLP071 T01610111
KCNM 201253Z AUTO 25010KT 10SM CLR 21/09 A2993 RMK AO2 SLP074 T02110094
KCNO 201253Z AUTO 26004KT 6SM HZ FEW017 OVC037 19/16 A2988 RMK AO2 SLP113 T01890156
KCNU 201252Z AUTO 18012KT 10SM CLR 24/22 A2980 RMK AO2 SLP077 T02440217
KCNW 201255Z 17008KT 10SM OVC008 25/23 A2992
KCNY 201253Z AUTO 00000KT 10SM CLR 11/02 A2991 RMK AO2 SLP081 T01060017
KCOD 201256Z AUTO 29006KT 10SM CLR 04/M03 A2981 RMK AO2 SLP103 T00441033
KCOE 201256Z AUTO 00000KT 10SM BKN018 BKN028 06/05 A2964 RMK AO2 SLP063 T00610050
KCOF 201255Z 32004KT 10SM SCT030 SCT100 28/25 A2999 RMK AO2A SLP193 WND DATA ESTMD ALSTG/SLP ESTMD $
KCOM 201255Z AUTO 19005KT 7SM SCT015 22/21 A2991 RMK AO2 T02200206
KCON 201251Z AUTO 02006KT 10SM OVC012 21/18 A2997 RMK AO2 SLP149 T02110183
KCOQ 201254Z AUTO 10009KT 10SM -RA OVC004 16/15 A2965 RMK AO2
KCOS 201254Z 14007KT 10SM SCT250 06/M01 A3007 RMK AO2 SLP124 T00561011
KCOT 201253Z AUTO 12006KT 7SM CLR 25/23 A2988 RMK AO2 SLP109 T02500228
KCOU 201254Z 16006KT 10SM CLR 22/21 A2987 RMK AO2 SLP107 T02220211
KCPC 201240Z AUTO 00000KT 10SM CLR 23/20 A3003 RMK AO2 T02270196
KCPK 201255Z AUTO 29003KT 5SM BR SCT090 21/19 A2997 RMK AO2 T02110190
KCPR 201253Z 22014KT 10SM CLR 03/M04 A2992 RMK AO2 SLP122 T00281039
KCPS 201253Z 16004KT 10SM CLR 23/20 A2991 RMK AO2 SLP125 T02330200
KCPT 201255Z AUTO 18012KT 9SM BKN011 24/24 A2991 RMK AO2
KCPU 201235Z AUTO 00000KT 10SM CLR 09/04 A2996 RMK AO2 T00930037
KCPW 201251Z AUTO 21014G21KT 10SM CLR 00/M08 A3036 RMK AO2
KCQB 201230Z AUTO 18010KT 10SM CLR 24/21 A2981 RMK AO2 T02420210
KCQC 201253Z AUTO 30012KT 10SM CLR 10/01 A3014 RMK AO2 SLP121 T01000006
KCQF 201255Z AUTO 00000KT 10SM CLR 25/25 A3001 RMK AO2
KCQM 201255Z AUTO 14007KT 10SM -RA SCT014 BKN028 OVC035 16/16 A2961 RMK AO2
KCQT 201247Z AUTO 00000KT 10SM FEW028 17/14 A2986 RMK AO2 SLP109 T01720144
KCQW 201255Z AUTO 00000KT 10SM CLR 22/19 A3004 RMK AO2
KCQX 201252Z AUTO 04013G23KT 1/4SM FG VV002 19/19 A2979 RMK AO2 SLP090 T01940194
KCRE 201253Z 30004KT 9SM CLR 24/22 A3003 RMK AO1 SLP170 T02390217
KCRG 201253Z 00000KT 7SM CLR 24/22 A3005 RMK AO2 SLP173 T02440222 PNO $
KCRP 201251Z 15005KT 10SM FEW016 FEW030 FEW170 BKN250 26/25 A2989 RMK AO2 SLP120 T02560250
KCRQ 201253Z 16004KT 10SM OVC034 20/16 A2986 RMK AO2 SLP108 T02000156
KCRS 201253Z AUTO 17007KT 8SM FEW010 24/24 A2993 RMK AO2 SLP127 T02440239
KCRW 201254Z 00000KT 8SM FEW035 BKN050 BKN090 19/18 A3006 RMK AO2 SLP170 VLY FG T01890178
KCSG 201251Z AUTO 00000KT 10SM CLR 23/20 A3004 RMK AO2 SLP166 T02280200
KCSM 201253Z AUTO 19018KT 10SM CLR 21/19 A2980 RMK AO2 PK WND 18026/1238 SLP067 T02110189
KCSQ 201255Z AUTO 18012KT 10SM CLR 22/M38 A2975 RMK AO2
KCSV 201253Z AUTO 00000KT 10SM CLR 19/18 A3011 RMK AO2 SLP182 T01890178
KCTB 201256Z AUTO 23014KT 10SM CLR 04/M02 A2950 RMK AO2 PK WND 23032/1226 SLP998 T00391017
KCTJ 201235Z AUTO 00000KT 10SM CLR 19/18 A3010 RMK AO2 T01860182
KCTY 201255Z AUTO 00000KT 10SM CLR 25/23 A3009 RMK AO2 T02460227
KCTZ 201245Z AUTO 00000KT 10SM CLR 21/20 A3003 RMK AO2 T02100197
KCUB 201253Z AUTO A3004 RMK AO2 SLPNO PWINO $
KCUH 201255Z AUTO 17006KT 10SM CLR 24/21 A2980 RMK AO2 T02370205
KCUL 201255Z AUTO 15004KT 4SM BR CLR 21/21 A2997 RMK AO2 T02120212
KCUT 201253Z AUTO 25005KT 10SM CLR 03/M04 A2984 RMK AO2 SLP089 T00331039
KCVB 201255Z AUTO 15007KT 10SM OVC012 25/23 A2993 RMK AO2 T02540231
KCVC 201256Z AUTO 00000KT 7SM CLR 23/21 A3005 RMK AO2
KCVG 201252Z 17003KT 6SM BR BKN060 BKN130 20/20 A3005 RMK AO2 SLP168 T02000200
KCVN 201156Z AUTO 27009KT 10SM CLR 15/05 A2993 RMK AO2 SLP091 T01500050 10200 20150 51011
KCVS 201258Z AUTO 29005KT 10SM CLR 17/04 A2997 RMK AO2 SLP095 T01670037 $
KCVW 201255Z AUTO 19010KT 8SM 28/25 A2995 RMK A01
KCVX 201254Z AUTO 12004KT 7SM SCT027 18/18 A3001 RMK AO2 T01760176
KCWA 201245Z 14010G18KT 5SM VCTSBR BKN009 BKN040 BKN060 17/16 A2981 RMK TS W MOV E
KCWC 201255Z AUTO 17008G15KT 10SM CLR 24/22 A2984 RMK AO2 T02360220
KCWF 201247Z 00000KT 6SM BR SCT010 24/24 A2997
KCWI 201256Z AUTO 15011KT 10SM CLR 19/18 A2984 RMK AO2 SLP123 T01940183
KCWV 201255Z AUTO 00000KT 10SM CLR 24/22 A3004 RMK AO2 T02440217
KCXE 201255Z AUTO 00000KT 10SM CLR 21/21 A3002 RMK AO1 T02050205
KCXO 201253Z 00000KT 2SM BR SCT003 BKN008 24/24 A2994 RMK AO2 SLP135 T02390239
KCXP 201255Z AUTO 21007KT 10SM BKN055 13/00 A2994 RMK AO2
KCXU 201255Z AUTO 00000KT 5SM SCT075 OVC110 24/23 A3004 RMK AO1 T02360229
KCXW 201255Z AUTO 19004KT 6SM BR 24/23 A2992 RMK A01
KCXY 201256Z 32005KT 10SM CLR 23/16 A2998 RMK AO2 SLP152 T02280156
KCYS 201253Z 27014KT 10SM FEW090 06/M02 A2998 RMK AO2 SLP124 T00611022
KCZL 201255Z AUTO 00000KT 1/2SM FG OVC001 18/18 A3007 RMK AO2 T01830181
KCZT 201255Z AUTO 11004KT 4SM BR CLR 23/23 A2987 RMK AO2
KCZZ 201252Z AUTO 06005KT 06/06 A2989 RMK AO1 SLP100 T00610056
KD07 200956Z AUTO 23008KT 05/04 A2973 RMK AO1 SLP072 T00500044
KD25 201255Z AUTO 13007KT 10SM VCTS OVC015 16/16 A2982 RMK AO2 LTG DSNT NE AND S P0023 T01570157
KD39 201254Z AUTO 28008KT 10SM BKN011 15/13 A2968 RMK AO2 T01450130
KD50 201255Z AUTO 20012G18KT 10SM CLR 05/04 A2954 RMK AO2 PWINO
KD55 201255Z AUTO 24014KT 10SM CLR 08/08 A2957 RMK AO2
KD57 201255Z AUTO 23015KT 10SM CLR 06/03 A2969 RMK AO2
KD60 201255Z AUTO 20010KT 10SM CLR 05/05 A2959 RMK AO2
KD95 201254Z AUTO 15003KT 1/4SM FG OVC003 19/19 A3002 RMK AO2 T01900187
KDAA 201258Z AUTO 30006KT 10SM FEW100 22/17 A2998 RMK AO2 SLP155 T02170172
KDAB 201253Z 31003KT 9SM FEW025 FEW150 26/23 A3004 RMK AO2 SLP171 T02610228
KDAG 201250Z AUTO 28016KT 10SM CLR 17/04 A2983 RMK AO2 SLP078 T01720039
KDAL 201253Z 17015KT 10SM SCT016 BKN100 BKN150 BKN250 26/22 A2989 RMK AO2 SLP113 SCT V BKN T02610222 $
KDAN 201253Z AUTO 25003KT 10SM CLR 20/20 A3002 RMK AO2 SLP158 T02000200
KDAW 201251Z AUTO 03007KT 330V060 10SM OVC007 20/18 A2996 RMK AO2 SLP142 T02000183
KDAY 201256Z 19005KT 4SM BR FEW070 BKN230 19/19 A3005 RMK AO2 SLP171 T01940189
KDBN 201255Z AUTO 00000KT 7SM CLR 22/20 A3006 RMK AO2
KDBQ 201253Z 17011KT 8SM BKN060 BKN075 BKN090 19/18 A2982 RMK AO2 SLP094 T01940178
KDCA 201252Z 32007KT 10SM BKN110 23/18 A2997 RMK AO2 SLP150 T02280178
KDCM 201255Z AUTO 00000KT 10SM BKN075 22/20 A3006 RMK AO2
KDCU 201253Z AUTO 00000KT 9SM CLR 21/20 A3005 RMK AO2 SLP171 T02060200
KDCY 201255Z AUTO 16004KT 7SM CLR 21/20 A2999 RMK AO2 T02090199
KDDC 201252Z AUTO 34011KT 10SM CLR 12/02 A2988 RMK AO2 SLP094 T01170022
KDDH 201254Z AUTO 00000KT 10SM OVC026 21/17 A3000 RMK AO2 SLP153 T02060167
KDEC 201254Z 18007KT 10SM CLR 22/21 A2994 RMK AO2 SLP134 T02170206 $
KDED 201255Z AUTO 34005KT 10SM CLR 25/23 A3004 RMK AO2
KDEH 201255Z AUTO 16009G16KT 10SM SCT110 21/18 A2974 RMK AO2
KDEN 201253Z 15011KT 10SM FEW090 SCT220 07/M01 A2999 RMK AO2 SLP115 T00671006
KDEQ 201253Z AUTO 00000KT 4SM BR BKN060 BKN075 23/23 A2992 RMK AO2 SLP127 T02330233
KDET 201253Z 00000KT 1 1/2SM BR CLR 20/20 A3002 RMK AO2 SLP163 T02000200
KDEW 201253Z AUTO 00000KT 10SM OVC014 05/04 A2964 RMK AO2 SLP045 T00500044
KDFI 201253Z AUTO 00000KT M1/4SM FG VV002 18/18 A3002 RMK AO2 SLP162 T01830178
KDFW 201253Z 17012KT 10SM SCT016 SCT140 26/22 A2987 RMK AO2 SLP106 T02560222
KDGW 201253Z AUTO 26010KT 10SM CLR 06/M06 A2991 RMK AO2 SLP116 T00611061
KDHN 201253Z 00000KT 4SM BR OVC002 22/22 A3008 RMK AO2 SLP179 T02170217
KDHT 201253Z AUTO 34009KT 10SM CLR 10/03 A2996 RMK AO2 SLP101 T01000033
KDIJ 201256Z AUTO 18008KT 10SM BKN065 OVC080 04/M03 A2993 RMK AO2 SLP131 T00391028
KDIK 201256Z AUTO 21011KT 10SM CLR 06/03 A2967 RMK AO2 SLP054 T00560033
KDKB 201255Z AUTO 15011KT 7SM CLR 19/18 A2990 RMK AO2 T01920181
KDKK 201253Z AUTO 14003KT 10SM CLR 18/16 A3004 RMK AO2 SLP170 T01780161 $
KDKR 201255Z AUTO 17004KT 3SM BR FEW001 24/24 A2997 RMK AO2
KDKX 201235Z AUTO 00000KT 3SM BR OVC003 17/17 A3008 RMK A01
KDLF 201256Z 12007KT 10SM FEW090 BKN250 24/22 A2988 RMK AO2A SLP106 T02350223
KDLH 201255Z 14014KT 10SM FEW009 OVC016 16/16 A2966 RMK AO2 RAE48 SLP044 P0004 T01610161
KDLL 201230Z AUTO 15011KT 10SM CLR 19/16 A2981 RMK AO2 LTG DSNT N T01870164
KDLN 201253Z AUTO 00000KT CLR 02/M05 A2971 RMK AO2 SLP059 T00171050 $
KDLP 201255Z AUTO 20007KT CLR 29/24 A3000 RMK A01
KDLS 201253Z AUTO 00000KT 7SM -RA OVC018 10/09 A2963 RMK AO2 SLP034 P0011 T01000094
KDLZ 201253Z AUTO 00000KT 4SM BR SCT085 SCT090 20/20 A3005 RMK AO2
KDMA 201258Z AUTO 12006KT 10SM CLR 20/13 A2995 RMK AO2 SLP099 T01970127 $
KDMH 201254Z AUTO 24/17 A2995 RMK AO1 SLP142 T02440172
KDMN 201253Z AUTO 28004KT 10SM CLR 13/08 A3006 RMK AO2 SLP112 T01330083
KDMO 201253Z AUTO 18011KT 10SM CLR 24/22 A2985 RMK AO2 SLP099 T02440222
KDMW 201245Z AUTO 34004KT 10SM SCT110 22/17 A2999 RMK AO2
KDNL 201253Z AUTO 00000KT 5SM HZ CLR A3004 RMK AO2 SLPNO $
KDNN 201255Z AUTO 00000KT 10SM CLR 18/18 A3008 RMK AO2
KDNS 201255Z AUTO 31006KT 10SM FEW070 17/14 A2976 RMK AO2
KDNV 201255Z AUTO 14004KT 3/4SM BR OVC002 19/19 A2994 RMK AO2 T01900190
KDOV 201158Z 32009KT 10SM SCT065 BKN075 21/19 A2987 RMK AO2A SLP118 70036 10209 20205 51018 $
KDPA 201252Z 15008KT 5SM BR CLR 20/19 A2990 RMK AO2 SLP122 T02000189
KDPG 201250Z VRB02KT 45SM SKC 02/M04 A2993 RMK SLP110 T00161040 FIRST NOSPECI
KDPL 201245Z AUTO 00000KT 7SM CLR 22/19 A3003 RMK AO2
KDQH 201255Z AUTO 00000KT 10SM CLR 23/22 A3006 RMK AO2
KDRA 201255Z AUTO 00000KT 10SM CLR 15/04 A2985 RMK AO2 SLP067 T01500044
KDRI 201255Z AUTO 00000KT 1 3/4SM BR OVC001 24/23 A3000 RMK AO2 T02410233
KDRM 201253Z AUTO 11004KT 10SM OVC008 18/16 A3002 RMK AO2 T01820164
KDRO 201253Z AUTO 03003KT 10SM CLR 03/M02 A3011 RMK AO2 SLP141 T00331017
KDRT 201253Z AUTO 10007KT 10SM CLR 24/22 A2988 RMK AO2 SLP100 T02390222
KDSM 201254Z 17007KT 10SM FEW140 FEW250 23/20 A2972 RMK AO2 SLP055 T02330200
KDSV 201254Z AUTO 14006KT 10SM CLR 16/14 A3006 RMK AO2 SLP186 T01610139
KDTA 201255Z AUTO 00000KT 10SM CLR 06/02 A2995 RMK AO1
KDTL 201253Z AUTO 27011KT 10SM CLR 12/10 A2968 RMK AO2
KDTN 201253Z 18007KT 10SM BKN016 26/24 A2995 RMK AO2 SLP139 T02610239
KDTO 201253Z 16009KT 10SM CLR 24/22 A2987 RMK AO2 SLP107 T02440222 $
KDTS 201253Z AUTO 34003KT 10SM FEW036 28/24 A3002 RMK AO2 SLP166 T02780239
KDTW 201253Z 00000KT 1SM R03R/1200V5000FT BR OVC002 19/19 A3002 RMK AO2 SFC VIS 1 1/2 SLP164 T01940194 $
KDUA 201255Z AUTO 18010KT 10SM 24/21 A2989 RMK AO2
KDUB 201255Z AUTO 30008KT 10SM OVC080 00/M03 A2988 RMK AO2
KDUC 201255Z AUTO 10SM CLR 24/22 A2985 RMK AO2 LTG DSNT SE T02400218
KDUG 201256Z AUTO 05003KT 10SM CLR 17/13 A3006 RMK AO2 SLP116 T01670128 $
KDUH 201254Z AUTO 00000KT 1SM BR OVC003 20/19 A3002 RMK AO2 T01980185
KDUJ 201253Z AUTO 09003KT 5SM HZ CLR 17/14 A3007 RMK AO2 SLP173 T01670139
KDUX 201255Z AUTO 34005KT 10SM CLR 10/03 A2995 RMK AO2 T01000028
KDVK 201255Z AUTO 20004KT 10SM SCT038 18/18 A3009 RMK AO2
KDVL 201256Z AUTO 24010KT 10SM CLR 09/08 A2963 RMK AO2 SLP050 T00940078
KDVN 201252Z AUTO 16009KT 9SM CLR 22/18 A2985 RMK AO2 SLP100 T02170183
KDVO 201255Z AUTO 35007KT 10SM OVC014 17/14 A2996 RMK AO2
KDVP 201254Z AUTO 27009KT 10SM CLR 13/12 A2974 RMK AO2 T01300116
KDVT 200753Z 04005KT 10SM CLR 24/M02 A2982 RMK AO2 SLP072 T02441022
KDWH 201253Z 00000KT 4SM BR CLR 26/25 A2994 RMK AO2 SLP135 T02610250
KDWU 201256Z AUTO 25004KT 4SM BR OVC004 20/19 A3006 RMK AO2 SLP177 T02000194
KDWX 201255Z AUTO 09004KT 10SM OVC090 04/02 A3004 RMK AO2 T00380015
KDXR 201253Z 03007G18KT 010V070 10SM OVC022 23/18 A2991 RMK AO2 SLP123 T02280183
KDXX 201254Z AUTO 28008KT 10SM CLR 15/14 A2973 RMK AO2
KDYA 201255Z AUTO 00000KT 7SM 21/21 A3002 RMK AO2 T02140214
KDYB 201255Z AUTO 00000KT 7SM SCT060 22/21 A3005 RMK AO1
KDYL 201254Z AUTO 35007KT 10SM OVC055 21/17 A2992 RMK AO2 SLP127 T02060167
KDYR 201256Z AUTO 16003KT 10SM CLR 23/22 A2999 RMK AO2 SLP167 T02330217 TSNO
KDYS 201158Z AUTO 17016G22KT 10SM SCT130 24/19 A2983 RMK AO2 SLP049 T02380192 10265 20234 53005 $
KDYT 201253Z AUTO 00000KT 10SM OVC027 17/16 A2965 RMK AO2
KDZB 201255Z AUTO 17007KT 10SM BKN014 25/22 A2992 RMK AO2 T02460221
KE11 201255Z AUTO 22008KT 10SM CLR 20/16 A2993 RMK AO2 T02010161
KE16 201255Z AUTO 00000KT 10SM CLR 12/09 A3000 RMK AO2
KE38 201255Z AUTO 25008KT 10SM CLR 21/13 A3012 RMK AO2 T02130126
KE80 201255Z AUTO 00000KT 10SM CLR 11/00 A3007 RMK AO2 T01100004
KEAN 201255Z AUTO 23005G16KT 10SM CLR 09/M01 A2991 RMK AO2 T00911012
KEAR 201256Z AUTO 31007KT 10SM CLR 11/08 A2988 RMK AO2 SLP107 T01060078
KEAT 201255Z AUTO 32007KT 10SM CLR 07/03 A2960 RMK AO2 SLP024 T00670028
KEAU 201256Z 13008KT 9SM CLR 18/17 A2971 RMK AO2 SLP058 T01830172
KEBA 201255Z AUTO 00000KT 7SM CLR 23/22 A3006 RMK AO2 T02280221
KEBG 201255Z AUTO 14004KT 5SM BR CLR 26/24 A2988 RMK AO2 T02550236
KECG 201254Z 28009KT 10SM SCT110 23/20 A2997 RMK AO2 SLP149 T02330200
KECP 201253Z 33004KT 10SM CLR 26/24 A3002 RMK AO2 SLP176 T02560239
KECS 201255Z AUTO 09005KT 10SM CLR 02/00 A2987 RMK AO2
KEDC 201255Z AUTO 19006KT 3SM BR FEW011 24/24 A2992 RMK AO2
KEDE 201245Z AUTO 00000KT 10SM CLR 22/19 A2999 RMK AO2 T02220194
KEDJ 201255Z AUTO 18003KT 7SM SCT023 BKN065 19/19 A3005 RMK AO1
KEDN 201255Z AUTO 00000KT 10SM CLR A3004 RMK AO2
KEDU 201235Z AUTO 00000KT 10SM CLR 14/09 A2991 RMK AO1
KEDW 201258Z 24014KT 50SM CLR 16/04 A2984 RMK AO2A SLP088 T01550036
KEED 201256Z AUTO 25009KT 10SM CLR 26/07 A2976 RMK AO2 SLP045 T02560072
KEEN 201256Z AUTO 03011KT 10SM OVC016 21/18 A2997 RMK AO2 SLP163 T02110178
KEEO 201253Z AUTO 00000KT 10SM OVC100 04/03 A3003 RMK AO2 SLP141 T00440033
KEET 201253Z AUTO 00000KT 8SM SCT002 21/20 A3005 RMK AO2 SLP169 T02060200
KEFD 201250Z 00000KT 10SM FEW017 SCT250 27/24 A2996
KEFK 201255Z AUTO 36004KT M1/4SM FG OVC001 14/14 A3008 RMK AO2 T01420142
KEFT 201255Z AUTO 16015G20KT 10SM CLR 20/17 A2985 RMK AO2
KEGE 201256Z 29003KT 10SM BKN100 07/00 A3007 RMK AO2 SLP144 T00670000 $
KEGI 201256Z AUTO 00000KT 10SM CLR 24/23 A3003 RMK AO2 SLP169 T02390230
KEGV 201235Z AUTO 13006KT 7SM OVC007 16/16 A2985 RMK AO2 T01630155
KEHA 201249Z AUTO 31008KT 09/02 RMK AO1 /PK WND 12 000 T00940017
KEHC 201255Z AUTO 14014KT 10SM SCT019 SCT025 SCT030 32/27 A2996 RMK A01
KEHO 201245Z AUTO 00000KT 4SM BR CLR 19/19 A3006 RMK AO2 T01930186
KEHR 201256Z AUTO 17004KT 8SM CLR 22/21 A3000 RMK AO2 SLP165 T02220211
KEHY 201255Z AUTO 26011G19KT 10SM CLR 03/M03 A2996 RMK AO2
KEIK 201257Z AUTO 35003KT 10SM SCT110 04/00 A3004 RMK AO2 T00380000
KEIR 201255Z AUTO 19011KT 10SM FEW024 28/23 A3001 RMK A01
KEKM 201250Z 12004KT M1/4SM FG OVC001 18/18 A3000 RMK AO2
KEKN 201251Z AUTO 00000KT 10SM BKN004 BKN090 16/14 A3011 RMK AO2 SLP194 T01560139 TSNO
KEKO 201256Z AUTO 00000KT 10SM OVC075 01/M06 A2991 RMK AO2 SLP116 T00061056 TSNO
KEKQ 201256Z AUTO VRB06KT 9SM CLR 18/18 A3009 RMK AO2 SLP205 T01830178
KEKS 201255Z AUTO 17016G23KT 10SM BKN085 BKN110 04/M03 A2980 RMK AO2
KEKY 201256Z AUTO 00000KT 4SM BR BKN002 20/20 A3006 RMK AO2 SLP189 T02000200
KELA 201255Z AUTO 00000KT 1/4SM FG OVC001 25/25 A2993 RMK AO2 T02460246
KELD 201253Z AUTO 17003KT 7SM FEW006 BKN013 BKN120 24/23 A2998 RMK AO2 SLP147 T02390233
KELK 201255Z AUTO 19011G17KT 10SM CLR 20/18 A2979 RMK AO2 T02020181
KELM 201253Z 21003KT 1/4SM FG VV002 15/15 A3005 RMK AO2 SLP172 T01500150 RVRNO
KELN 201253Z AUTO 00000KT 10SM CLR 04/02 A2960 RMK AO2 SLP025 T00390022
KELO 201253Z AUTO 14016G20KT 10SM VCTS BKN009 OVC046 15/15 A2964 RMK AO2 P0009 LTG DSNT NE
KELP 201251Z 27009KT 10SM FEW250 24/09 A3001 RMK AO2 SLP084 T02440089
KELY 201253Z AUTO 17009KT 10SM CLR 00/M05 A2999 RMK AO2 SLP105 T00001050
KELZ 201256Z AUTO 00000KT 1/4SM FG VV001 15/14 A3010 RMK AO2 SLP188 T01500139
KEMM 201255Z AUTO 15005KT 10SM 00/M02 A2999 RMK AO2
KEMP 201253Z AUTO 17010KT 10SM CLR 22/20 A2978 RMK AO2 SLP072 T02220200
KEMV 201255Z AUTO 26003KT 10SM CLR 21/18 A3001 RMK AO2
KEND 201256Z 20007KT 10SM FEW250 23/21 A2978 RMK AO2A SLP072 T02320213 $
KENL 201255Z AUTO 00000KT 10SM CLR 23/22 A2995 RMK AO2 T02320217
KENV 201256Z AUTO 00000KT 10SM CLR 06/M02 A2991 RMK AO2 SLP118 T00561022
KENW 201253Z 13007KT 2SM BR FEW003 19/19 A2992 RMK AO2 SLP130 T01940189
KEOE 201255Z AUTO 00000KT 10SM CLR 21/20 A3008 RMK AO2
KEOK 201255Z AUTO 15005KT 10SM CLR 22/20 A2983 RMK AO2
KEPH 201253Z AUTO 36003KT 10SM CLR 03/00 A2959 RMK AO2 SLP022 T00330000
KEQA 201255Z AUTO 18006KT 10SM CLR 22/20 A2978 RMK AO2
KEQY 201253Z AUTO 23004KT 5SM BR CLR 22/21 A3004 RMK AO2 SLP175 T02170211
KERI 201251Z VRB03KT 9SM CLR 20/16 A3004 RMK AO2 SLP169 T02000156
KERV 201255Z AUTO 17007KT 10SM OVC012 23/22 A2995 RMK AO2 T02330218
KERY 201255Z AUTO 16008KT 5SM BR OVC005 17/16 A2998 RMK AO2 T01680163
KESF 201253Z AUTO 00000KT 1/4SM FG VV002 23/23 A2999 RMK AO2 SLP152 T02330233
KESN 201250Z 35008KT 10SM SCT120 23/18 A2996
KEST 201252Z AUTO 29006KT 10SM CLR 15/14 A2973 RMK AO2 SLP062 T01500144
KETB 201230Z AUTO 14006KT 1/2SM FG 17/17 A2991 RMK AO2
KETH 201256Z AUTO 27006KT 10SM CLR 13/09 A2973 RMK AO2
KETN 201255Z AUTO 19013G22KT 10SM OVC016 24/21 A2988 RMK AO2 T02440214
KEUF 201258Z AUTO 00000KT 4SM BR OVC002 22/22 A3004 RMK AO2 SLP167 T02220217
KEUG 201254Z 24011KT 7SM RA SCT033 OVC060 12/11 A2975 RMK AO2 RAB1155E04B37 SLP074 P0003 T01170111
KEUL 201256Z AUTO 11007KT 10SM SCT070 BKN100 09/04 A2973 RMK AO2 SLP063 T00890039
KEVB 201247Z 00000KT 10SM SKC 26/23 A3004
KEVM 201253Z AUTO 14007KT 5SM -RA OVC006 16/15 A2965 RMK AO2 LTG DSNT NE P0003 T01560150
KEVU 201255Z AUTO 18008KT 5SM BR CLR 23/21 A2975 RMK AO2
KEVV 201254Z 13003KT 8SM CLR 21/20 A3000 RMK AO2 SLP156 T02110200
KEVW 201253Z AUTO 20005KT 10SM CLR 00/M02 A3000 RMK AO2 SLP131 T00001017
KEWB 201253Z 02011G19KT 4SM -RA BR OVC004 18/18 A2980 RMK AO2 RAB11 SLP092 P0003 T01830178
KEWK 201256Z AUTO 17008KT 10SM CLR 21/18 A2978 RMK AO2 SLP066 T02110178
KEWN 201254Z 27005KT 8SM CLR 23/20 A3002 RMK AO2 SLP166 T02280200
KEWR 201251Z 36015KT 10SM SCT026 BKN250 23/18 A2987 RMK AO2 SLP115 T02330178 $
KEXX 201240Z AUTO 00000KT 7SM CLR 20/20 A3004 RMK AO2 T01980198
KEYE 201253Z AUTO 14004KT 4SM BR CLR 20/19 A3000 RMK AO2 SLP155 T02000189
KEYW 201253Z AUTO 00000KT 10SM CLR 29/24 A2999 RMK AO2 SLP154 T02890239
KEZF 201255Z AUTO 32005KT 10SM CLR 22/18 A2997 RMK AO2 T02170180
KEZM 201255Z AUTO 00000KT 10SM CLR 24/23 A3006 RMK AO2 T02370233
KEZS 201255Z AUTO 15007KT 4SM BR OVC004 18/17 A2987 RMK AO2 LTG DSNT W AND NW T01770166
KF00 201255Z AUTO 17011G15KT 10SM CLR 24/22 A2990 RMK AO2
KF05 201255Z AUTO 19008KT 10SM CLR 23/18 A2981 RMK AO1 T02340175
KF17 201255Z AUTO 16004KT 3SM BR BKN006 BKN120 26/26 A2997 RMK AO2 T02620255
KF44 201255Z AUTO 19008KT 10SM OVC007 24/24 A2992 RMK AO2
KF46 201255Z AUTO 17011KT 10SM OVC012 25/23 A2990 RMK AO2 T02460233
KF70 201255Z AUTO 00000KT 10SM BKN028 17/13 A2989 RMK AO1
KFAF 201258Z AUTO 31008KT 10SM SCT095 23/18 A2994 RMK AO2 SLP142 T02250184 $
KFAM 201256Z AUTO 14006KT 8SM CLR 22/21 A2995 RMK AO2 SLP133 T02170206
KFAR 201253Z 25010KT 10SM CLR 11/09 A2967 RMK AO2 SLP047 T01110094
KFAT 201253Z 00000KT 10SM CLR 14/08 A2993 RMK AO2 SLP134 T01390083
KFAY 201253Z 26006KT 10SM CLR 23/19 A3003 RMK AO2 SLP161 T02330194
KFBG 201256Z AUTO 00000KT 10SM CLR 24/19 A3002 RMK AO2 SLP167 T02410189 $
KFBL 201254Z AUTO 18005KT 10SM OVC014 21/19 A2969 RMK AO2
KFBR 201255Z AUTO 21007KT 10SM CLR 01/M03 A3003 RMK AO2 T00081026
KFCH 201255Z AUTO 00000KT 10SM CLR 14/09 A2993 RMK A01
KFCM 201253Z 19005KT 10SM CLR 19/18 A2965 RMK AO2 SLP035 T01890178
KFCS 201258Z AUTO 17010KT 10SM CLR 06/M01 A3005 RMK AO2 SLP139 T00561012 $
KFDK 201147Z 00000KT 10SM SKC 18/18 A3000
KFDR 201253Z AUTO 17009KT 10SM CLR 23/21 A2977 RMK AO2 SLP066 T02280211
KFDW 201255Z AUTO 00000KT 10SM CLR 23/20 A3005 RMK AO1
KFDY 201253Z AUTO 00000KT 6SM BR CLR 20/18 A3002 RMK AO2 SLP156 T02000183 TSNO
KFEP 201255Z AUTO 15009KT 10SM CLR 19/18 A2987 RMK AO2 T01940176
KFET 201255Z AUTO 29006KT 10SM CLR 15/13 A2978 RMK AO2 T01490129
KFEW 201158Z AUTO 30012G19KT 10SM SCT110 07/M02 A2999 RMK AO2 SLP120 T00661021 10070 20049 52014 $
KFFA 201240Z AUTO 00000KT 10SM OVC065 22/18 A2995 RMK AO2 T02160184
KFFC 201253Z AUTO 00000KT 5SM BR CLR 22/21 A3006 RMK AO2 SLP172 T02170211
KFFL 201255Z AUTO 17009KT 10SM FEW140 23/19 A2980 RMK AO2 PWINO
KFFM 201254Z AUTO 28008KT 10SM CLR 12/12 A2970 RMK AO2
KFFO 201258Z 00000KT 3SM BR SCT004 BKN075 BKN220 18/18 A3005 RMK AO2A SLP175 T01790179
KFFT 201253Z AUTO 00000KT 10SM CLR 20/18 A3005 RMK AO2 SLP171 T02000178
KFFX 201254Z AUTO 13003KT 4SM BR OVC006 19/19 A2998 RMK AO2 T01930193
KFFZ 201250Z 10007KT 50SM SKC 24/08 A2986
KFGN 201253Z AUTO 27014G25KT 7SM -RA SCT011 BKN031 OVC041 14/13 A2950 RMK AO2
KFGX 201235Z AUTO 00000KT 1/4SM FG OVC003 18/18 A3007 RMK AO2 T01780178
KFHB 201255Z AUTO 10SM CLR 25/21 A3003 RMK AO1
KFHR 201253Z AUTO 00000KT 10SM FEW023 BKN036 OVC060 09/09 A2966 RMK AO2 SLP043 T00940094
KFHU 201258Z AUTO 04005KT 10SM CLR 17/13 A3009 RMK AO2 SLP121 T01710127
KFIG 201254Z AUTO VRB03KT M1/4SM FG VV002 14/14 A3008 RMK AO2 SLP182 T01390139
KFIN 201250Z VRB03KT 350V080 7SM SKC 24/ A3005
KFIT 201252Z AUTO 02008G16KT 10SM OVC008 21/19 A2995 RMK AO2 SLP140 T02060189
KFKA 201255Z AUTO 17008G14KT 10SM OVC025 21/18 A2974 RMK AO2 T02060175
KFKL 201256Z AUTO 00000KT 10SM CLR 17/16 A3008 RMK AO2 SLP180 T01670156
KFKN 201255Z AUTO 28004KT 10SM CLR 21/18 A2999 RMK AO2 T02140180
KFKR 201255Z AUTO 00000KT 2SM BR CLR 21/20 A3001 RMK AO2 T02090204
KFKS 201255Z AUTO 13005KT 5SM BR SCT006 OVC012 19/19 A2996 RMK AO2 T01870185
KFLD 201253Z AUTO 14009KT 8SM CLR 19/17 A2988 RMK AO2 SLP114 T01890167
KFLG 201257Z 00000KT 10SM CLR 03/M02 A3013 RMK AO2 SLP135 T00331022
KFLL 201253Z COR 00000KT 10SM FEW020 FEW080 29/24 A2999 RMK AO2 SLP150 T02930244
KFLO 201253Z 00000KT 10SM CLR 23/21 A3004 RMK AO2 SLP169 T02280211
KFLP 201256Z AUTO 00000KT 5SM BR CLR 22/21 A2993 RMK AO2 SLP128 T02170206
KFLY 201255Z AUTO 21008KT 10SM CLR 04/M02 A3008 RMK AO2 T00351020
KFME 201245Z AUTO 00000KT 10SM OVC110 21/17 A2998 RMK AO1
KFMH 201255Z AUTO 03016G25KT 1/4SM FG OVC003 18/18 A2981 RMK AO2 FZRANO
KFMM 201255Z AUTO 00000KT 10SM SCT120 06/M01 A3000 RMK AO2 T00631007
KFMN 201253Z 06004KT 10SM CLR 07/M03 A3004 RMK AO2 SLP130 T00721033
KFMY 201253Z 10003KT 10SM CLR 26/26 A2998 RMK AO2 SLP154 T02610256
KFNB 201253Z AUTO 18009KT 10SM CLR 24/21 A2972 RMK AO2 SLP053 T02390206
KFNL 201256Z AUTO 14005KT 10SM SCT110 07/01 A2999 RMK AO2 SLP127 T00670006
KFNT 201253Z 19004KT 1/2SM R09/4000VP6000FT FG OVC002 19/19 A3002 RMK AO2 SLP162 T01940189
KFOA 201255Z AUTO 16005KT 4SM BR CLR 22/21 A2997 RMK AO2 T02180212
KFOD 201256Z AUTO 29003KT 10SM CLR 19/18 A2972 RMK AO2 SLP081 T01890178
KFOE 201253Z 17008KT 7SM CLR 23/22 A2977 RMK AO2 SLP069 T02330217
KFOK 201253Z 01017G24KT 10SM OVC016 22/18 A2980 RMK AO2 PK WND 02031/1226 SLP090 T02220183
KFOT 201255Z AUTO 13006KT 10SM OVC011 13/13 A2992 RMK AO1 P0001
KFOZ 201252Z AUTO 19008G14KT 10SM BKN009 OVC013 17/16 A2960 RMK AO2
KFPK 201255Z AUTO 00000KT 2 1/2SM BR OVC019 20/19 A3000 RMK AO2 T01960186
KFPR 201253Z 00000KT 10SM CLR 28/24 A3000 RMK AO2 SLP157 T02780244
KFQD 201245Z AUTO 00000KT 10SM CLR 21/20 A3007 RMK AO2 T02080197
KFRG 201253Z 02018G26KT 10SM OVC023 23/18 A2984 RMK AO2 PK WND 01029/1212 SLP103 T02280183
KFRI 201258Z AUTO 19008KT 10SM CLR 24/19 A2972 RMK AO2 SLP052 T02380192
KFRM 201256Z AUTO 29008KT 10SM CLR 17/14 A2972 RMK AO2 SLP064 T01670144 $
KFRR 201255Z AUTO 19005KT 10SM CLR 18/17 A3001 RMK AO1
KFSD 201256Z 30010KT 10SM FEW110 13/11 A2978 RMK AO2 SLP080 T01280111 $
KFSE 201255Z AUTO 24011KT 10SM SCT042 12/11 A2963 RMK AO2
KFSI 201258Z AUTO 17010KT 10SM CLR 23/23 A2980 RMK AO2 SLP082 T02290229 $
KFSM 201253Z 06005KT 9SM CLR 25/23 A2990 RMK AO2 SLP118 T02500233
KFSO 201255Z AUTO 00000KT 10SM CLR 18/16 A3005 RMK AO2 T01820160
KFST 201253Z AUTO 22011KT 10SM CLR 23/13 A2994 RMK AO2 SLP085 T02330133
KFSW 201255Z AUTO 17010KT 10SM CLR 22/20 A2984 RMK AO2
KFTG 201255Z AUTO 15011KT 10SM CLR 07/00 A3001 RMK AO2
KFTK 201258Z AUTO 00000KT 10SM CLR 20/20 A3002 RMK AO2 SLP164 T01950195
KFTN 201255Z AUTO 15008KT 10SM CLR 26/23 A2987 RMK A01
KFTW 201253Z 16012KT 10SM CLR 26/23 A2987 RMK AO2 SLP105 T02610228
KFTY 201253Z 33003KT 8SM CLR 22/21 A3006 RMK AO2 SLP170 T02170211
KFUL 201253Z AUTO 00000KT 10SM OVC037 19/16 A2985 RMK AO2 SLP106 T01940161
KFVE 201253Z AUTO 00000KT 1/4SM FG VV002 14/14 A3011 RMK AO2 SLP195 T01390139
KFVX 201255Z AUTO 00000KT 10SM CLR 20/20 A3000 RMK AO2 T02030203
KFWA 201254Z 00000KT 3/4SM BR BKN002 BKN050 BKN250 18/18 A3002 RMK AO2 SLP162 VIS 1/2V1 1/4 T01830178
KFWB 201235Z AUTO 18006KT 5SM BR CLR 22/22 A2992 RMK AO2
KFWC 201255Z AUTO 00000KT 5SM BR CLR 22/21 A2996 RMK AO1 T02180213
KFWN 201253Z AUTO 02005KT 10SM OVC027 22/18 A2994 RMK AO2 SLP135 T02220178
KFWS 201258Z 16012KT 10SM SCT014 25/22 A2990
KFWZ 201255Z AUTO 25021G28KT 10SM CLR M01/M03 RMK AO2
KFXE 201253Z AUTO 00000KT 10SM CLR 28/24 A2999 RMK AO2 SLP157 T02830239
KFXY 201255Z AUTO 21003KT 10SM SCT021 21/20 A2970 RMK AO2
KFYE 201235Z AUTO 00000KT 10SM FEW043 23/21 A2998 RMK A01
KFYG 201255Z AUTO 00000KT 10SM CLR 22/21 A2989 RMK AO2
KFYJ 201255Z AUTO 31004KT 10SM SCT100 21/18 A2998 RMK AO1
KFYM 201235Z AUTO 17005KT 9SM CLR 20/19 A3005 RMK A01
KFYV 201253Z 18007KT 9SM CLR 24/23 A2992 RMK AO2 SLP117 T02390233
KFZG 201255Z AUTO 00000KT 7SM CLR 24/24 A3006 RMK AO2 T02430241
KFZY 201254Z AUTO 16003KT 10SM CLR 19/17 A3004 RMK AO2 SLP169 T01890172
KGAD 201256Z AUTO 00000KT 1/4SM FG OVC001 18/18 A3006 RMK AO2 SLP180 T01830183
KGAF 201255Z AUTO 22007KT 10SM CLR 10/10 A2960 RMK AO2 PWINO
KGAG 201253Z AUTO 35007KT 10SM CLR 16/08 A2983 RMK AO2 SLP077 T01560083
KGAI 201256Z AUTO 31005KT 10SM BKN120 20/18 A3000 RMK AO2 SLP183 T02000178
KGAO 201255Z AUTO 00000KT 10SM CLR 26/24 A3000 RMK AO2 T02600235
KGBD 201256Z AUTO 32011KT 10SM CLR 14/07 A2983 RMK AO2 SLP086 T01390067 TSNO
KGBG 201255Z AUTO 15004KT 10SM CLR 21/19 A2987 RMK AO2 T02090190
KGBK 201255Z AUTO 13008G14KT 10SM FEW028 SCT033 28/22 A2999 RMK A01
KGCC 201253Z AUTO 23018G25KT 10SM CLR 06/M02 A2978 RMK AO2 PK WND 23029/1200 SLP084 T00611022
KGCD 201255Z AUTO 23012G21KT 10SM -RA SCT037 OVC045 11/05 A2964 RMK AO2 T01060052
KGCK 201254Z 35012KT 10SM CLR 11/01 A2990 RMK AO2 SLP102 T01110011
KGCM 201255Z AUTO 16011KT 10SM CLR 23/21 A2984 RMK AO2
KGCN 201254Z 00000KT 10SM CLR 02/M02 A3010 RMK AO2 SLP131 T00171017
KGDB 201250Z AUTO 25007KT 10SM CLR 14/14 A2973 RMK AO2 T01420135
KGDJ 201255Z AUTO 15009G15KT 10SM CLR 26/22 A2988 RMK AO2 T02560215
KGDP 201251Z AUTO 21009G18KT 9SM CLR 18/08 A3011 RMK AO2 SLP112 T01780078
KGDV 201256Z AUTO 22013KT 10SM 06/02 A2966 RMK AO2 SLP049 T00610022 $
KGED 201254Z AUTO 35006KT 10SM SCT060 24/18 A2990 RMK AO2 SLP125 T02390183
KGEG 201253Z 20009KT 10SM BKN012 OVC050 07/06 A2962 RMK AO2 SLP036 T00670056
KGEU 201255Z 00000KT 10SM FEW250 21/01 A2985 RMK FIRST
KGEV 201250Z AUTO 00000KT 10SM OVC065 16/14 A3015 RMK AO2 T01610141
KGEY 201253Z AUTO 13004KT 10SM CLR 03/02 A2982 RMK AO2 SLP100 T00330022
KGEZ 201253Z AUTO 16004KT 1/2SM FG VV002 20/18 A3002 RMK AO2 SLP159 T02000183
KGFA 201258Z AUTO 22013KT 10SM FEW190 BKN220 06/M02 A2959 RMK AO2 SLP034 T00631022 $
KGFK 201253Z 23008KT 10SM FEW060 FEW250 11/11 A2961 RMK AO2 SLP029 T01110106
KGFL 201253Z AUTO 01006KT 10SM CLR 18/16 A3001 RMK AO2 SLP163 T01830161
KGGE 201255Z AUTO 27005KT 10SM CLR 23/22 A3005 RMK AO2
KGGG 201253Z 19005KT 10SM SCT015 25/24 A2993 RMK AO2 SLP129 T02500244
KGGI 201255Z AUTO 16008KT 10SM CLR 21/19 A2977 RMK AO2 T02100186
KGGP 201255Z AUTO 16003KT 2 1/2SM BR CLR 18/18 A3000 RMK AO2
KGGW 201253Z AUTO 24005KT 10SM CLR 05/01 A2957 RMK AO2 SLP021 T00500011
KGHB 201255Z AUTO 00000G10KT 10SM SCT027 29/23 A3000 RMK A01
KGHG 201255Z AUTO 04011G22KT 360V070 1 3/4SM BR OVC002 18/18 A2986 RMK AO2
KGHW 201253Z AUTO 28013G18KT 7SM CLR 14/13 A2970 RMK AO2
KGIC 201255Z AUTO 12005KT 10SM OVC028 04/03 A2966 RMK AO1 P0006
KGIF 201253Z AUTO 01005KT 10SM CLR 26/22 A3004 RMK AO2 SLP170 T02560222
KGJT 201253Z 09003KT 10SM CLR 09/03 A2994 RMK AO2 SLP090 T00890028
KGKJ 201253Z AUTO 09004KT 10SM CLR 19/17 A3007 RMK AO2 SLP174 T01940167
KGKT 201255Z AUTO 00000KT 10SM CLR 17/15 A3008 RMK
KGKY 201253Z 16013KT 10SM CLR 25/23 A2988 RMK AO2 SLP109 T02500233
KGLD 201253Z AUTO 30005KT 10SM CLR 06/02 A2996 RMK AO2 SLP121 T00560017
KGLE 201255Z AUTO 16007KT 10SM CLR 24/21 A2989 RMK AO2 T02380212
KGLH 201253Z 19003KT 10SM CLR 24/23 A2998 RMK AO2 SLP156 T02440228
KGLR 201253Z AUTO 14004KT 2 1/2SM BR OVC002 17/16 A3002 RMK AO2 SLP163 T01720161
KGLS 201252Z 18009KT 10SM FEW017 29/26 A2994 RMK AO2 LTG DSNT NE SLP140 T02890261
KGLW 201255Z AUTO 00000KT 10SM CLR A3004 RMK AO2
KGLY 201255Z AUTO 19008KT 8SM CLR 24/22 A2984 RMK AO2
KGMJ 201255Z AUTO 16010KT 10SM CLR 25/22 A2987 RMK AO2
KGMU 201253Z 00000KT 10SM CLR 24/19 A3006 RMK AO2 SLP170 T02390194
KGNA 201256Z AUTO 05011KT 15/14 A2974 RMK AO1 SLP067 T01500144
KGNC 201255Z AUTO 24007KT 10SM CLR 19/15 A2994 RMK AO2 T01860148
KGNR 201256Z AUTO 00000KT 17/17 A3007 RMK AO1 SLP182 T01670167
KGNT 201255Z AUTO 00000KT 10SM CLR 05/M01 A3015 RMK AO2 T00521010
KGNV 201253Z 00000KT 10SM CLR A3007 RMK AO2 SLPNO
KGOK 201253Z AUTO 19013KT 10SM CLR 25/21 A2977 RMK AO2 SLP070 T02500206
KGON 201256Z 02020G26KT 10SM OVC016 22/19 A2979 RMK AO2 PK WND 02030/1224 SLP087 T02220189
KGOP 201255Z AUTO 16005KT 10SM FEW016 24/22 A2993 RMK AO2
KGOV 201256Z AUTO 11003KT 3SM BR OVC002 17/17 A3002 RMK AO2 T01740166
KGPC 201255Z AUTO 00000KT 2 1/2SM BR CLR 19/18 A3001 RMK AO2
KGPH 201255Z AUTO 16006KT 10SM CLR 22/21 A2979 RMK AO2
KGPI 201255Z AUTO 15005KT 10SM FEW033 BKN049 OVC060 05/04 A2962 RMK AO2 RAE06 SLP037 P0000 T00500044
KGPM 201250Z 16008G18KT 10SM SCT015 25/21 A2990
KGPT 201253Z 00000KT 8SM CLR 26/25 A3000 RMK AO2 SLP158 T02560250 $
KGPZ 201256Z AUTO 16011KT 10SM OVC005 16/16 A2962 RMK AO2 SLP028 T01610156
KGRB 201253Z 14011KT 5SM BR OVC006 18/18 A2988 RMK AO2 SLP118 T01830183
KGRD 201256Z AUTO 00000KT 7SM CLR 22/21 A3006 RMK AO2 SLP172 T02170211
KGRF 201213Z 00000KT 10SM BKN028 BKN043 OVC070 10/10 A2962 RMK AO2A CIG 028V075 BKN028 V FEW SLP034
KGRI 201253Z 33009KT 10SM CLR 12/09 A2985 RMK AO2 SLP099 T01220094
KGRK 201258Z AUTO 17007KT 9SM FEW020 24/22 A2991 RMK AO2 SLP117 T02400222 $
KGRN 201255Z AUTO 25007KT 10SM CLR 07/01 A2989 RMK AO2 T00710008
KGRR 201253Z 18003KT 8SM OVC011 20/19 A2999 RMK AO2 SLP153 T02000189
KGRY 201255Z AUTO 17007KT 10SM CLR 28/22 A3000 RMK A01
KGSB 201258Z AUTO 25003KT 10SM CLR 22/22 A3000 RMK AO2 SLP161 T02180218 $
KGSH 201253Z AUTO 12003KT 1/4SM FG VV002 18/17 A3000 RMK AO2 SLP156 T01780167
KGSO 201254Z 24003KT 8SM FEW070 FEW250 22/20 A3004 RMK AO2 SLP161 T02170200
KGSP 201253Z 00000KT 10SM CLR 23/21 A3005 RMK AO2 SLP166 T02280206
KGTB 201256Z AUTO 00000KT 10SM CLR 19/16 A3004 RMK AO2 SLP171 T01850161 $
KGTF 201253Z 22018G26KT 10SM CLR 07/M04 A2957 RMK AO2 PK WND 22032/1158 SLP021 T00721039
KGTR 201245Z 00000KT 10SM SKC 22/19 A3002
KGTU 201256Z 17010G17KT 10SM OVC013 26/23 A2993 RMK AO2 SLP127 T02560233
KGUC 201256Z AUTO VRB03KT 10SM CLR 04/M04 A3012 RMK AO2 SLP145 T00391039
KGUL 201255Z AUTO 16013KT 10SM SCT022 SCT030 29/24 A2997 RMK A01
KGUP 201253Z AUTO 04003KT 10SM 04/M03 A3013 RMK AO2 SLPNO T00441033
KGUS 201258Z 16004KT 5SM BR CLR 19/19 A2999 RMK AO2A SLP155 T01930193
KGUY 201253Z AUTO 35011KT 10SM CLR 12/02 A2991 RMK AO2 SLP092 T01170022
KGVE 201255Z AUTO 00000KT 10SM CLR 21/19 A2999 RMK AO1 T02130192
KGVL 201253Z AUTO 32003KT 10SM CLR 22/19 A3008 RMK AO2 SLP171 T02220194
KGVT 201235Z AUTO 19008KT 10SM CLR 26/23 A2991 RMK AO2
KGWB 201255Z AUTO 00000KT M1/4SM FG OVC001 18/17 A3003 RMK AO2
KGWO 201253Z AUTO 19003KT 7SM CLR 24/23 A2999 RMK AO2 SLP155 T02440233
KGWR 201255Z AUTO 24007KT 10SM CLR 09/08 A2971 RMK A01
KGWW 201245Z AUTO 00000KT 10SM CLR 21/21 A3002 RMK AO2 T02080206
KGXA 201255Z AUTO 22004KT 10SM CLR 11/04 A2989 RMK AO2 SLP082 WND DATA ESTMD T01130038
KGXF 201258Z AUTO 13007KT 10SM CLR 22/11 A2979 RMK AO2 SLP075 T02220110
KGXY 201256Z AUTO 22005KT 10SM SCT110 07/01 A3000 RMK AO2 SLP150 T00720011
KGYB 201255Z AUTO 19006KT 5SM BR OVC005 24/23 A2994 RMK AO2 T02380230
KGYH 201247Z 00000KT 10SM SKC 22/20 A3006
KGYI 201255Z AUTO 17012KT 10SM CLR 24/22 A2988 RMK AO2 T02430216
KGYL 201256Z AUTO 26009KT 10SM CLR 17/17 A2969 RMK AO2 T01720168
KGYR 201247Z 04006KT 10SM FEW250 22/M01 A2982 RMK FIRST
KGYY 201245Z 13007KT 7SM SKC 20/19 A2995
KGZH 201253Z AUTO 00000KT 9SM SCT002 OVC030 22/21 A3004 RMK AO2 SLP168 T02220211
KGZL 201255Z AUTO 16007KT 10SM CLR 25/21 A2988 RMK AO2
KGZN 201240Z AUTO 18015G20KT 4SM BR BKN014 23/22 A2988 RMK AO2
KGZS 201255Z AUTO 00000KT 7SM FEW002 19/19 A3005 RMK A01
KHAE 201255Z AUTO 17008KT 5SM HZ CLR 23/18 A2987 RMK AO2
KHAF 201255Z AUTO 34004KT 6SM HZ OVC006 16/ A2995 RMK AO2
KHAI 201255Z AUTO 00000KT 1 1/2SM BR OVC002 19/19 A3001 RMK AO2 T01920189
KHAO 201253Z AUTO 00000KT 5SM BR CLR 19/19 A3005 RMK AO2 SLP174 T01890189
KHBE 201255Z AUTO 15003KT 1/4SM FG OVC001 19/18 A3003 RMK AO2
KHBG 201253Z AUTO 00000KT 7SM CLR 23/23 A3002 RMK AO2 SLP163 T02330233
KHBI 201250Z AUTO 22004KT 10SM CLR 21/20 A3006 RMK AO2 T02140195
KHBR 201253Z AUTO 19016KT 6SM BR CLR 22/20 A2979 RMK AO2 SLP071 T02220200
KHBV 201255Z AUTO 16007KT 5SM BR BKN005 BKN015 24/23 A2990 RMK AO2 T02440230
KHCD 201253Z AUTO 27009G15KT 10SM CLR 16/15 A2970 RMK AO2 T01600148
KHCO 201254Z AUTO 22005KT 10SM OVC001 11/10 A2957 RMK AO2
KHDC 201255Z AUTO 00000KT 7SM CLR 23/21 A3001 RMK AO2
KHDE 201255Z AUTO 32007KT 10SM CLR 09/07 A2989 RMK AO2 T00920065
KHDN 201256Z AUTO 10012KT 10SM FEW080 OVC100 03/01 A3006 RMK AO2 SLP167 T00280011
KHDO 201251Z AUTO 14008KT 8SM OVC010 26/23 A2992 RMK AO2 CIG 007V013 SLP114 T02560233 $
KHEF 201256Z AUTO 00000KT 10SM CLR 20/18 A3000 RMK AO2 SLP167 T02000178 PNO $
KHEI 201253Z AUTO 00000KT 10SM CLR 04/02 A2975 RMK AO2 SLP083 T00390022
KHEY 201258Z AUTO 06003KT 3SM BR OVC002 21/21 A3003 RMK AO2 SLP169
KHEZ 201256Z AUTO 17003KT 7SM CLR 24/23 A3001 RMK AO2 SLP163 T02390233
KHFD 201253Z 36010G22KT 10SM BKN025 OVC049 23/19 A2987 RMK AO2 SLP113 T02280189
KHFF 201256Z AUTO 00000KT 10SM CLR 20/19 A3004 RMK AO2 SLP186 T02020189 $
KHFJ 201230Z AUTO 19011G16KT 10SM CLR 23/22 A2989 RMK AO2
KHFY 201255Z AUTO 14003KT 1/4SM OVC001 21/21 A3002 RMK AO2 T02070206
KHGR 201253Z 14003KT 1/2SM FG VV002 17/16 A3002 RMK AO2 SLP171 T01670161
KHHF 201255Z AUTO 34006KT 10SM CLR 16/08 A2984 RMK AO2 T01550083
KHHG 201255Z AUTO 00000KT 4SM BR CLR 19/18 A3001 RMK AO2 T01880181
KHHR 201253Z 00000KT 10SM FEW022 BKN027 18/16 A2986 RMK AO2 SLP111 T01830156
KHHV 201255Z AUTO 16009G17KT 9SM CLR 29/24 A2994 RMK A01
KHHW 201255Z AUTO 16006KT 10SM CLR 26/23 A2990 RMK AO2 T02560227
KHIB 201253Z AUTO 14008KT 5SM -RA BR OVC005 16/15 A2962 RMK AO2 RAB00 SLP031 P0005 T01560150
KHIE 201252Z AUTO 00000KT 10SM FEW022 19/16 A3004 RMK AO2 SLP171 T01940161
KHIF 201258Z AUTO 11013KT 10SM CLR 06/00 A2993 RMK AO2 SLP110 T00591004
KHII 201255Z AUTO 14010KT 10SM CLR 26/05 A2975 RMK AO2
KHIO 201253Z 00000KT 10SM BKN004 BKN041 11/09 A2962 RMK AO2 RAB10E26 SLP028 P0000 T01060094
KHJH 201255Z AUTO 34008KT 10SM CLR 16/11 A2979 RMK AO2 T01570110
KHJO 201253Z AUTO 24003KT 10SM CLR 11/08 A2994 RMK AO2 SLP138 T01110083
KHKA 201253Z AUTO 18005KT 10SM CLR 23/23 A2997 RMK AO2 SLP146 T02330228
KHKS 201253Z 24004KT 7SM CLR 24/24 A3001 RMK AO2 SLP153 T02440244
KHKY 201253Z 28003KT 10SM CLR 21/19 A3006 RMK AO2 SLP159 T02060194
KHLC 201253Z AUTO 30006KT 10SM CLR 12/03 A2991 RMK AO2 SLP108 T01170033
KHLG 201253Z 00000KT 5SM R03/2200VP6000FT BR FEW065 19/18 A3005 RMK AO2 SLP172 T01890178
KHLN 201253Z 20009KT 10SM CLR 08/M02 A2964 RMK AO2 SLP049 T00781022
KHLR 201258Z AUTO 18008KT 10SM SCT021 24/22 A2989 RMK AO2 SLP110 T02350216 $
KHLX 201255Z AUTO 00000KT 10SM OVC090 17/14 A3012 RMK AO2 T01650141
KHMN 201258Z AUTO 13005KT 10SM CLR 17/07 A3002 RMK AO2 SLP099 T01730065
KHMP 201255Z AUTO 00000KT 7SM CLR 22/22 A3006 RMK AO2 T02230216
KHMZ 201235Z AUTO 00000KT M1/4SM FG OVC002 13/13 A3006 RMK AO2 T01320128
KHND 201256Z 18013KT 10SM CLR 19/04 A2982 RMK AO2 SLP076 T01940039 $
KHNR 201255Z AUTO 01005KT 10SM FEW034 SCT041 BKN048 20/17 A2976 RMK AO2
KHNZ 201245Z AUTO 00000KT 10SM CLR 20/17 A3002 RMK AO2 T01950168
KHOB 201250Z 23006KT 10SM SKC 16/14 A2995
KHOE 201255Z AUTO 00000KT 10SM CLR 23/21 A3005 RMK AO2
KHON 201255Z AUTO 27008KT 10SM CLR 11/08 A2980 RMK AO2 SLP088 T01060083
KHOP 201258Z AUTO 18004KT 10SM CLR 23/21 A3002 RMK AO2 SLP162 T02270206
KHOT 201253Z AUTO 20005KT 10SM OVC014 26/24 A2996 RMK AO2 SLP137 T02560239
KHOU 201253Z 16004KT 10SM FEW015 27/24 A2993 RMK AO2 SLP141 T02670244
KHPN 201256Z 34011KT 10SM BKN023 22/18 A2988 RMK AO2 SLP113 T02220178
KHQG 201255Z AUTO 33009KT 10SM CLR 12/02 A2994 RMK AO2 T01150023
KHQI 201255Z AUTO 10SM FEW023 M40/ A2995 RMK A01
KHQM 201253Z AUTO 00000KT 4SM -RA BR OVC005 10/10 A2963 RMK AO2 SLP037 P0017 T01000100
KHQU 201235Z AUTO 00000KT 10SM CLR 20/19 A3009 RMK AO2 T02050192
KHQZ 201250Z 15008KT 10SM BKN013 24/22 A2991
KHRI 201253Z AUTO 17006KT 10SM OVC070 10/09 A2961 RMK AO2 RAE35 SLP024 P0001 T01000094
KHRJ 201240Z AUTO 00000KT 10SM CLR 20/20 A3003 RMK AO2 T02030203
KHRL 201252Z 13004KT 7SM CLR 26/26 A2988 RMK AO2 SLP117 T02610256
KHRO 201253Z AUTO 17007KT 10SM CLR 24/22 A2993 RMK AO2 SLP120 T02390217 PNO
KHRT 201156Z 00000KT 10SM CLR 23/22 A2999 RMK AO2A SLP157 T02320222 10263 20229 53013 $
KHRX 201235Z AUTO 10SM CLR 13/07 A2995 RMK AO2 T01270066
KHSA 201255Z 00000KT 7SM SCT050 24/24 A3001
KHSB 201255Z AUTO 00000KT 4SM BR CLR 21/21 A2998 RMK AO2 T02100210
KHSD 201240Z AUTO 19015G26KT 10SM CLR 25/21 A2977 RMK A01
KHSE 201251Z AUTO 29008KT 10SM FEW080 BKN110 26/21 A2998 RMK AO2 SLP151 T02560211 TSNO
KHSG 201235Z AUTO 22009KT 10SM CLR 03/M03 A2983 RMK AO2 T00341034
KHSI 201253Z AUTO 34010KT 10SM CLR 12/08 A2985 RMK AO2 SLP094 T01220083
KHSP 201255Z AUTO 00000KT 10SM CLR 18/14 A3017 RMK AO2 T01840140
KHST 201258Z AUTO 00000KT 10SM FEW032 28/25 A2999 RMK AO2 SLP159
KHSV 201253Z 10004KT 8SM CLR 21/21 A3005 RMK AO2 SLP169 T02060206
KHTL 201253Z AUTO 00000KT 3/4SM BR OVC002 18/18 A3002 RMK AO2 SLP163 T01830178
KHTO 201255Z AUTO 02014G21KT 10SM OVC013 21/19 A2978 RMK AO2 T02080187
KHTS 201251Z 00000KT 7SM CLR 21/19 A3006 RMK AO2 SLP172 T02060194
KHUA 201258Z AUTO 00000KT 9SM CLR 19/19 A3004 RMK AO2 SLP169 T01920191
KHUF 201253Z 14003KT 4SM BR CLR 21/20 A2998 RMK AO2 SLP149 T02060200
KHUL 201253Z AUTO 33003KT 3SM -RA BR BKN003 OVC026 18/18 A3007 RMK AO2 RAB24 SLP183 P0001 T01780178
KHUM 201250Z 00000KT 7SM SKC 25/25 A2999
KHUT 201252Z 33007KT 10SM CLR 18/12 A2977 RMK AO2 SLP057 T01830122
KHVE 201255Z AUTO 00000KT 10SM CLR 12/02 A2993 RMK AO2
KHVN 201253Z 01015G27KT 10SM BKN015 BKN022 BKN100 23/18 A2983 RMK AO2 PK WND 02027/1250 SLP101 T02330183
KHVR 201253Z AUTO 31004KT 10SM CLR 02/00 A2953 RMK AO2 SLP007 T00220000 TSNO
KHVS 201255Z AUTO 24003KT 10SM CLR 23/20 A3004 RMK AO2
KHWD 201254Z AUTO 15006KT 10SM CLR 15/11 A2997 RMK AO2 SLP156 T01500106
KHWO 201253Z 00000KT 10SM CLR 29/24 A3000 RMK AO2 SLP160 T02890239 $
KHWV 201256Z AUTO 35015G22KT 10SM OVC018 23/20 A2981 RMK AO2 SLP093 T02280200
KHWY 201255Z AUTO 00000KT 10SM CLR 21/17 A2999 RMK AO2 T02120168
KHXD 201250Z 00000KT 10SM BKN035 25/23 A3005
KHYA 201256Z 03015G26KT 1/4SM FG VV002 19/19 A2978 RMK AO2 PK WND 04026/1249 RAE03B21E38 SLP084 P0000 T01940189
KHYI 201256Z 17009KT 10SM FEW019 OVC029 26/24 A2993 RMK AO2 SLP126 T02560239
KHYR 201253Z AUTO 15011G19KT 9SM BKN014 OVC019 18/16 A2970 RMK AO2 SLP055 T01830161
KHYS 201256Z AUTO 34013KT 10SM CLR 14/06 A2986 RMK AO2 SLP096 T01440056 TSNO
KHYW 201255Z AUTO 23003KT 4SM BR CLR 22/21 A3004 RMK AO2
KHYX 201254Z AUTO 00000KT 2SM BR OVC070 18/18 A3001 RMK AO2
KHZD 201255Z AUTO 00000KT 10SM CLR 22/21 A3000 RMK A01
KHZE 201255Z AUTO 20004KT 10SM CLR 05/04 A2968 RMK AO2
KHZL 201255Z AUTO 33006KT 10SM 20/15 A3004 RMK AO2
KHZR 201255Z AUTO 00000KT 4SM BR CLR 23/23 A3000 RMK AO2 T02330231
KHZX 201250Z AUTO 12004KT 7SM OVC006 17/16 A2962 RMK AO2
KHZY 201253Z AUTO 25004KT 10SM OVC065 19/18 A3006 RMK AO2 SLP175 T01940183
KI16 201255Z AUTO 7SM SCT013 BKN055 17/16 A3015 RMK AO2 T01710162
KI19 201252Z AUTO 00000KT M1/4SM FG OVC001 18/17 A3006 RMK AO2 T01760172
KI23 201253Z AUTO 00000KT 7SM SCT050 SCT065 20/20 A3006 RMK AO1
KI35 201255Z AUTO 00000KT 1/4SM OVC002 17/16 A3011 RMK AO1
KI63 201255Z AUTO 15004KT 10SM CLR 21/20 A2987 RMK AO2 T02050195
KI67 201255Z AUTO 00000KT 1/4SM OVC003 18/17 A3004 RMK AO1
KI68 201255Z AUTO 00000KT 1/4SM FG OVC001 18/18 A3006 RMK AO2
KI69 201255Z AUTO 00000KT 10SM CLR 19/18 A3006 RMK AO2 T01850181
KI75 201255Z AUTO 17007KT 10SM CLR 23/20 A2974 RMK AO2 T02250200
KIAB 201258Z AUTO 18008KT 10SM CLR 22/18 A2977 RMK AO2 SLP069 T02220179 $
KIAD 201252Z 32006KT 10SM FEW120 SCT160 SCT250 20/18 A2999 RMK AO2 SLP152 T02000178
KIAG 201253Z 00000KT 5SM HZ CLR 20/17 A3003 RMK AO2 SLP166 T02000167
KIAH 201253Z 16003KT 7SM FEW015 FEW250 27/24 A2994 RMK AO2 SLP136 TCU DSNT SE T02670244
KIBM 201255Z AUTO 30013G20KT 10SM OVC100 11/M02 A2994 RMK AO2 T01101025
KICL 201255Z AUTO 19007KT 10SM CLR 23/21 A2974 RMK AO2 PWINO
KICR 201253Z AUTO 21005KT 10SM CLR 09/07 A2985 RMK AO2 SLP102 T00940072
KICT 201253Z 16008KT 10SM FEW250 22/19 A2976 RMK AO2 SLP062 T02170189
KIDA 201253Z 21008KT 10SM BKN090 05/00 A2988 RMK AO2 SLP111 T00500000
KIDI 201255Z AUTO 00000KT 9SM CLR 16/16 A3009 RMK A01
KIDP 201255Z AUTO 18015G19KT 10SM CLR 24/22 A2979 RMK AO2 T02390218
KIER 201255Z AUTO 16004KT 1 1/2SM BR OVC003 23/23 A2998 RMK AO2 T02300230
KIFA 201255Z AUTO 14005KT 10SM OVC024 21/20 A2974 RMK AO2 T02100196
KIFP 201235Z AUTO 13005KT 10SM CLR 23/05 A2974 RMK AO2
KIGM 201251Z AUTO 13004KT 10SM CLR 15/04 A2989 RMK AO2 SLP060 T01500039
KIGQ 201255Z AUTO 15004KT 7SM CLR 19/19 A2995 RMK AO2 T01880188
KIGX 201256Z AUTO VRB03KT 10SM CLR 23/19 A3003 RMK AO2 SLP164 T02280194
KIIB 201255Z AUTO 17012G17KT 10SM SCT046 22/19 A2977 RMK AO2 T02160185
KIIY 201255Z AUTO 00000KT 10SM CLR A3004 RMK AO2 TSNO
KIJD 201252Z AUTO 02016G21KT 10SM OVC014 22/19 A2986 RMK AO2 SLP108 T02170189
KIJX 201255Z AUTO 16007KT 10SM CLR 23/20 A2989 RMK AO2 T02250197
KIKG 201255Z AUTO 13004KT 4SM BR CLR 26/26 A2989 RMK AO2 T02560256
KIKK 201255Z AUTO 14005KT 5SM BR CLR 19/18 A2995 RMK AO2 T01850181
KIKT 201255Z AUTO 20006KT 10SM CLR 30/22 A3002 RMK A01
KIKV 201255Z AUTO 18005KT 10SM CLR 23/20 A2973 RMK AO2
KIKW 201253Z AUTO 00000KT 2 1/2SM BR BKN006 OVC017 20/20 A3001 RMK AO2 T02000200
KILG 201251Z 36008KT 10SM CLR 23/18 A2992 RMK AO2 SLP130 T02330178
KILM 201253Z AUTO 00000KT 10SM CLR 24/20 A3002 RMK AO2 SLP166 T02390200
KILN 201254Z AUTO 00000KT 1/4SM FG VV001 18/18 A3006 RMK AO2 SLP174 T01780178
KIML 201253Z AUTO 27006KT 10SM CLR 06/02 A2996 RMK AO2 SLP137 T00560017
KIMM 201255Z AUTO 15004KT 10SM CLR 26/25 A3000 RMK AO2
KIMS 201253Z AUTO 00000KT 1/4SM OVC001 19/18 A3006 RMK AO1
KIMT 201254Z AUTO 14006KT M1/4SM FG VV001 16/14 A2991 RMK AO2 SLP128 T01560144
KIND 201254Z 13006KT 1/8SM R05L/P6000FT BR BKN003 BKN110 BKN250 19/19 A3000 RMK AO2 SFC VIS 2 SLP155 T01940189
KINF 201255Z AUTO 00000KT 10SM CLR 24/23 A3004 RMK AO2
KINJ 201255Z AUTO 16012KT 10SM OVC014 25/23 A2991 RMK AO2 T02540227
KINK 201253Z AUTO 15005KT 10SM CLR 19/16 A2990 RMK AO2 SLP080 T01890156
KINL 201255Z AUTO 16010G20KT 130V200 10SM BKN009 BKN014 BKN075 17/16 A2954 RMK AO2 CIG 007V013 SLP001 T01720156 $
KINS 201258Z AUTO 26011KT 10SM CLR 17/03 A2982 RMK AO2 SLP056 T01730025 $
KINT 201254Z 00000KT 9SM BKN110 22/19 A3005 RMK AO2 SLP166 T02170194
KINW 201256Z AUTO 11009KT 10SM CLR 12/01 A3003 RMK AO2 SLP109 T01170006
KIOB 201255Z AUTO 00000KT 1/4SM FG OVC001 18/18 A3009 RMK AO2
KIOW 201252Z AUTO 16007KT 10SM CLR 22/19 A2982 RMK AO2 SLP092 T02170189
KIPJ 201250Z AUTO 00000KT 7SM CLR 20/19 A3005 RMK AO2 T01960189
KIPL 201253Z AUTO 00000KT 10SM CLR 19/06 A2973 RMK AO2 SLP067 T01940056
KIPT 201254Z 26007KT 2 1/2SM BR OVC003 17/16 A3001 RMK AO2 SLP161 T01670161
KIRK 201255Z AUTO 20007KT 10SM CLR 23/20 A2984 RMK AO2 SLP099 T02330200
KIRS 201255Z AUTO 11004KT 1/4SM FG OVC003 18/18 A3000 RMK AO2 T01810181
KISM 201256Z 01005KT 10SM CLR 27/23 A3004 RMK AO2 SLP174 T02670228
KISN 201252Z AUTO 22007KT 10SM SCT100 06/04 A2959 RMK AO2 SLP028 T00610044
KISO 201256Z 00000KT 10SM CLR 22/19 A3002 RMK AO2
KISP 201256Z 01016G32KT 10SM OVC015 22/19 A2981 RMK AO2 PK WND 02032/1248 SLP095 T02220189 $
KISQ 201255Z AUTO 16006KT 5SM HZ OVC006 17/14 A2995 RMK AO2 T01700137
KISW 201254Z AUTO 17005KT 8SM TS FEW010 BKN045 OVC075 18/17 A2982 RMK AO2 LTG DSNT N AND SW TSB54 SLP095 T01830167
KITH 201256Z 00000KT 10SM CLR 17/16 A3006 RMK AO2 SLP177 T01670156
KITR 201253Z AUTO 00000KT 10SM CLR 03/M01 A2999 RMK AO2 SLP128 T00331011
KIWA 201150Z 11009KT 20SM SKC 19/04 A2985
KIWD 201256Z AUTO 13012G17KT 10SM FEW045 BKN100 17/16 A2976 RMK AO2 LTG DSNT NE TSB1157E11RAE22 SLP076 P0002 T01720156
KIWI 201253Z AUTO VRB04KT 10SM OVC006 21/19 A3000 RMK AO2 SLP159 T02110194
KIXA 201245Z AUTO 10SM CLR 21/20 A3000 RMK AO2
KIXD 201253Z 17006KT 10SM CLR 23/21 A2981 RMK AO2 SLP082 T02280211
KIYA 201255Z AUTO 7SM CLR 24/24 A2999 RMK AO2
KIZA 201255Z AUTO 00000KT 7SM CLR 08/07 A2989 RMK AO2
KIZG 201254Z AUTO 05005KT 8SM OVC011 19/19 A3004 RMK AO2 SLP172 T01940189
KJAC 201256Z 19012KT 10SM OVC045 03/M03 A2992 RMK AO2 SLP134 T00331028
KJAN 201254Z 19003KT 7SM SCT250 24/23 A3001 RMK AO2 SLP156 T02440233
KJAQ 201255Z AUTO 00000KT 10SM SCT090 12/04 A2995 RMK AO1 T01200044
KJAS 201255Z AUTO 00000KT 3SM BR OVC004 25/25 A2999 RMK AO2 T02520248
KJAU 201255Z AUTO 00000KT M1/4SM FG OVC003 17/17 A3012 RMK A01
KJAX 201256Z 00000KT 10SM BKN250 24/23 A3004 RMK AO2 SLP173 T02440228
KJBR 201253Z AUTO VRB04KT 10SM CLR 23/23 A2995 RMK AO2 SLP140 T02280228
KJCA 201255Z AUTO 00000KT 10SM CLR 21/20 A3005 RMK AO2
KJCT 201251Z AUTO 00000KT 6SM BR CLR 23/22 A2993 RMK AO2 SLP099 T02330217 $
KJDD 201255Z AUTO 17006KT 10SM OVC017 25/23 A2992 RMK AO2
KJDN 201248Z AUTO 00000KT 04/01 A2961 RMK AO1 SLP036 T00390006
KJEF 201253Z 11004KT 10SM CLR 22/20 A2987 RMK AO2 SLP100 T02220200
KJER 201253Z AUTO 12008KT 10SM BKN075 07/01 A2983 RMK AO2 SLP093 T00670006
KJFK 201251Z 35018G22KT 10SM BKN025 BKN270 23/18 A2986 RMK AO2 SLP111 T02330183
KJFX 201255Z AUTO 00000KT M1/4SM FG OVC001 20/20 A3005 RMK AO2 PWINO
KJFZ 201255Z AUTO 00000KT 10SM CLR 18/16 A3015 RMK AO2 T01820157
KJGG 201255Z AUTO 00000KT 10SM CLR 22/19 A2998 RMK AO1
KJHN 201255Z AUTO 31008KT 10SM CLR 10/00 A2995 RMK AO2 T00950004
KJHW 201256Z AUTO 00000KT 10SM FEW002 17/16 A3008 RMK AO2 SLP183 T01720156
KJKA 201255Z AUTO 00000KT 10SM CLR 26/26 A3001 RMK AO2 T02570256
KJKJ 201253Z AUTO 25006KT 10SM CLR 11/09 A2968 RMK AO2
KJKL 201253Z AUTO 00000KT 5SM BR BKN045 19/19 A3008 RMK AO2 SLP176 T01940189
KJLN 201253Z 18013KT 9SM CLR 24/23 A2985 RMK AO2 SLP094 T02440228
KJMR 201255Z AUTO 18003KT 7SM BKN006 OVC009 18/18 A2964 RMK AO2
KJMS 201256Z AUTO 26011KT 10SM CLR 08/06 A2968 RMK AO2 SLP055 T00830056
KJNX 201245Z AUTO 00000KT 10SM CLR 20/20 A3002 RMK AO2
KJOT 201255Z AUTO 14004KT 10SM CLR 20/19 A2992 RMK AO2 T02020190
KJQF 201250Z 00000KT 10SM CLR 22/19 A3007
KJRB 201256Z AUTO VRB05KT 10SM OVC026 23/18 A2988 RMK AO2 SLP116 T02330183
KJSO 201255Z AUTO 18008KT 2 1/2SM BR OVC002 24/24 A2996 RMK AO2 T02410241
KJST 201254Z AUTO 00000KT 7SM FEW002 15/15 A3009 RMK AO2 SLP181 T01500150
KJSV 201255Z AUTO 07004KT 7SM CLR 23/22 A2989 RMK AO2
KJTC 201255Z AUTO 10006KT 10SM CLR 11/M10 A3015 RMK AO2
KJVL 201245Z 14010KT 10SM BKN120 21/19 A2986
KJVW 201255Z AUTO 00000KT 3SM BR CLR 24/23 A3000 RMK AO2
KJWG 201255Z AUTO 18009G15KT 10SM CLR 23/22 A2978 RMK AO2 T02310216
KJWN 201255Z AUTO 00000KT 10SM CLR 21/19 A3002 RMK A01
KJWY 201255Z AUTO 16007KT 10SM OVC015 24/23 A2991 RMK AO2 T02420227
KJXI 201255Z AUTO 17006KT 10SM OVC012 25/23 A2994 RMK AO2 T02480231
KJXN 201256Z 20006KT 6SM BR BKN015 20/18 A3002 RMK AO2 SLP162 T02000178
KJYG 201255Z AUTO 26007KT 10SM CLR 16/13 A2973 RMK AO2
KJYL 201255Z AUTO 00000KT 10SM CLR 24/22 A3005 RMK AO2 T02400217
KJYM 201255Z AUTO 00000KT 4SM BR OVC006 19/17 A3003 RMK AO2
KJYO 201255Z AUTO 36005KT 10SM CLR 22/19 A3001 RMK AO2
KJYR 201255Z AUTO 33006KT 10SM CLR 13/11 A2982 RMK AO2
KJZI 201255Z AUTO 00000KT 9SM SCT050 SCT060 26/24 A3005 RMK AO2
KJZP 201255Z AUTO 00000KT 10SM CLR 21/18 A3011 RMK AO2 T02120182 PNO
KK88 201255Z AUTO 17011KT 10SM CLR 23/22 A2981 RMK AO1 T02310219
KKLS 201256Z AUTO 00000KT 8SM RA FEW004 BKN044 OVC050 11/09 A2962 RMK AO2 SLP035 P0009 T01060094
KKY8 201255Z AUTO 17004KT 10SM 21/21 A3001 RMK AO1
KL18 201255Z AUTO 00000KT 10SM OVC032 18/15 A2988 RMK AO2
KL35 201255Z AUTO 00000KT 10SM CLR 05/M01 A3005 RMK AO2
KLAA 201253Z AUTO 28005KT 10SM CLR 06/M01 A2999 RMK AO2 SLP123 T00561006
KLAF 201254Z 00000KT 2 1/2SM BR CLR 19/19 A2997 RMK AO2 SLP146 T01940194
KLAL 201250Z 02003KT 10SM SKC 24/23 A3003
KLAM 201255Z AUTO 28007KT 10SM CLR 15/M02 A3015 RMK AO2 T01461016
KLAN 201253Z 19005KT 3SM BR FEW010 OVC015 20/18 A3001 RMK AO2 SLP161 T02000183
KLAR 201253Z AUTO 21015KT 10SM CLR 03/M04 A3000 RMK AO2 SLP121 T00331044
KLAS 201256Z 19004KT 10SM CLR 22/04 A2978 RMK AO2 SLP062 T02220044 $
KLAW 201253Z 15008KT 9SM CLR 23/22 A2981 RMK AO2 SLP082 T02280222
KLAX 201253Z 00000KT 10SM OVC027 18/16 A2986 RMK AO2 SLP110 T01830161
KLBB 201253Z 24007KT 10SM FEW130 FEW250 18/15 A2991 RMK AO2 SLP079 T01830150
KLBE 201248Z 00000KT 6SM BR SKC 15/15 A3007
KLBF 201253Z AUTO 00000KT 10SM CLR 04/03 A2993 RMK AO2 SLP127 T00440033
KLBL 201256Z AUTO 33011KT 10SM CLR 11/03 A2990 RMK AO2 SLP102 T01060033
KLBO 201255Z AUTO 16006KT 7SM CLR 21/20 A2992 RMK AO2 PWINO
KLBT 201254Z AUTO 00000KT 8SM CLR 22/21 A3003 RMK AO2 SLP167 T02220206
KLBX 201253Z AUTO 00000KT 5SM -RA BR FEW016 SCT025 BKN033 26/25 A2994 RMK AO2 RAB47 SLP136 P0000 T02610250
KLCG 201255Z AUTO 32007KT 10SM CLR 13/12 A2980 RMK AO2 T01300115
KLCH 201253Z 00000KT 10SM CLR 26/24 A2997 RMK AO2 SLP155 T02560244
KLCI 201256Z AUTO 04005KT 10SM OVC012 19/18 A3001 RMK AO2 SLP176 T01940178
KLCK 201255Z AUTO 00000KT 5SM BR SCT047 SCT055 19/19 A3004 RMK AO2 T01940194
KLCQ 201255Z AUTO 00000KT 10SM CLR 22/21 A3005 RMK AO2
KLDJ 201255Z AUTO 03012G15KT 10SM CLR 23/17 A2988 RMK AO2 T02300171
KLDM 201254Z AUTO 11006KT 1 3/4SM BR OVC002 18/18 A2995 RMK AO2 T01810176
KLEB 201253Z 35003KT 10SM OVC006 19/17 A3003 RMK AO2 SLP159 T01890167
KLEE 201253Z 36004KT 10SM CLR 25/24 A3005 RMK AO2 SLP175 T02500239
KLEW 201256Z AUTO 02008KT 10SM OVC006 19/19 A3002 RMK AO2 SLP178 T01940189
KLEX 201254Z 16004KT 2SM BR CLR 20/19 A3007 RMK AO2 SLP177 T02000194
KLFI 201258Z 30006KT 10SM BKN090 23/19 A2995 RMK AO2A SLP149 T02250191 $
KLFK 201253Z AUTO 16003KT 6SM BR SCT019 25/24 A2995 RMK AO2 SLP138 T02500244
KLFT 201253Z 00000KT 6SM BR CLR 26/25 A2998 RMK AO2 SLP153 T02560250
KLGA 201251Z 36015KT 10SM BKN027 BKN250 22/18 A2986 RMK AO2 SLP112 T02220183 $
KLGB 201253Z AUTO 00000KT 10SM SCT033 18/16 A2986 RMK AO2 SLP109 T01830161
KLGC 201255Z AUTO 00000KT 7SM CLR 21/21 A3005 RMK AO2 T02130210
KLGD 201256Z AUTO 31003KT 10SM RA FEW018 BKN039 OVC047 04/04 A2966 RMK AO2 SLP189 P0009 T00440039
KLGU 201251Z AUTO 00000KT 10SM BKN090 03/02 A2994 RMK AO2 SLP129 T00330022 $
KLHB 201235Z AUTO 14004KT 7SM SCT010 BKN022 24/24 A2993 RMK AO2 T02430243
KLHM 201255Z AUTO 15011KT 10SM SCT100 17/05 A2989 RMK AO1
KLHQ 201253Z AUTO 00000KT 5SM BR FEW031 BKN047 OVC055 19/19 A3005 RMK AO2 SLP171 T01940189
KLHW 201258Z AUTO 00000KT 10SM BKN160 23/20 A3002 RMK AO2 SLP168 T02340204 $
KLHX 201253Z AUTO 27008KT 10SM CLR 07/01 A3003 RMK AO2 SLP126 T00670006
KLHZ 201240Z AUTO 00000KT 7SM CLR 19/18 A3004 RMK AO2
KLIC 201255Z AUTO 00000KT 10SM CLR 02/M01 A3004 RMK AO2 SLP127 T00221011
KLIT 201253Z 20005KT 7SM FEW050 SCT250 24/24 A2995 RMK AO2 SLP140 T02390239
KLJF 201253Z AUTO 28010G17KT 10SM CLR 16/16 A2968 RMK AO2
KLKR 201255Z AUTO 00000KT 8SM CLR 22/22 A3005 RMK AO2
KLKU 201255Z AUTO 00000KT 10SM CLR 21/18 A2999 RMK AO2
KLKV 201256Z AUTO 19015G21KT 10SM FEW060 07/06 A2981 RMK AO2 RAB10E36 SLP087 T00720056 PNO $
KLLJ 201255Z AUTO 00000KT 10SM CLR 04/M02 A2974 RMK AO2 SLP059 T00441017
KLLQ 201253Z AUTO 00000KT 9SM CLR 25/23 A2997 RMK AO2 SLP146 T02500228
KLMO 201255Z AUTO 00000KT 10SM OVC110 06/02 A3000 RMK AO2 T00630022
KLMT 201253Z AUTO VRB03KT 10SM BKN034 OVC065 09/06 A2981 RMK AO2 SLP076 T00940061
KLNA 201255Z AUTO 00000KT 10SM CLR 30/ A3000 RMK AO2 T0297
KLNC 201255Z AUTO 17009KT 10SM SCT015 25/22 A2991 RMK AO2 T02480220
KLND 201253Z AUTO A2988 RMK AO2 SLPNO PWINO $
KLNK 201254Z 34012KT 10SM CLR 18/11 A2977 RMK AO2 SLP070 T01780111
KLNL 201255Z AUTO 30004KT 10SM VCTS OVC009 16/15 A2991 RMK AO2 LTG DSNT S THRU NW T01620145
KLNN 201255Z AUTO 00000KT 7SM OVC110 20/20 A3003 RMK AO1 T01960195
KLNP 201255Z AUTO 00000KT 10SM CLR 20/20 A3015 RMK AO2
KLNR 201256Z AUTO 12006KT 6SM BR FEW060 SCT080 20/18 A2981 RMK AO2 SLP088 T02000183
KLNS 201253Z 32007KT 290V360 10SM BKN120 23/18 A2996 RMK AO2 SLP143 T02330178
KLOL 201253Z AUTO 09006KT 10SM OVC075 11/03 A2991 RMK AO2 SLP105 T01060028 TSNO
KLOM 201255Z AUTO 34003KT 10SM CLR 20/17 A2993 RMK AO1
KLOR 201258Z AUTO 00000KT 1/4SM FG VV001 21/21 A3004 RMK AO2 SLP154 T02120210 RVRNO
KLOT 201255Z AUTO 15006KT 10SM CLR 20/18 A2992 RMK AO2 T01960184
KLOU 201253Z 12003KT 10SM CLR 21/21 A3004 RMK AO2 SLP168 T02060206
KLOZ 201253Z AUTO 00000KT 5SM BR CLR 18/17 A3009 RMK AO2 SLP178 T01780167
KLPC 201256Z AUTO 07003KT 9SM CLR 10/09 A2989 RMK AO2 SLP124 T01000089
KLPR 201253Z AUTO 00000KT 4SM HZ BKN070 OVC095 19/16 A3005 RMK AO2 SLP171 T01940161
KLQK 201255Z AUTO 00000KT 10SM CLR 21/20 A3005 RMK AO2 T02120203
KLRD 201256Z 15013KT 10SM CLR 27/23 A2987 RMK AO2 SLP110 T02670233 $
KLRF 201258Z AUTO 17004KT 10SM CLR 24/24 A2994 RMK AO2 SLP138 T02370236
KLRJ 201255Z AUTO 31009KT 10SM CLR 14/13 A2977 RMK AO2
KLRO 201255Z AUTO 00000KT 8SM CLR 26/24 A3004 RMK AO2
KLRU 201255Z AUTO 26009KT 10SM CLR 17/07 A3005 RMK AO2 T01650071
KLRY 201255Z AUTO 19006KT 10SM CLR 23/21 A2983 RMK AO2
KLSE 201253Z 18011KT 10SM CLR 22/18 A2974 RMK AO2 SLP061 T02170183
KLSF 201258Z AUTO 00000KT 10SM CLR 21/21 A3003 RMK AO2 SLP172 T02130213
KLSV 201258Z AUTO 17011KT 10SM CLR 22/04 A2977 RMK AO2 SLP059 T02190040 $
KLTS 201258Z AUTO 14007KT 10SM CLR 20/20 A2980 RMK AO2 SLP078 T02040204 CHINO RWY35R $
KLUA 201255Z AUTO 00000KT 1/2SM FG OVC002 16/16 A3004 RMK AO2
KLUD 201255Z AUTO 16012G15KT 7SM CLR 24/21 A2987 RMK AO2 T02420213
KLUF 201258Z 33007KT 10SM CLR 19/03 A2983 RMK AO2A SLPNO T01940027 $
KLUK 201253Z 23003KT M1/4SM R21L/1200V1600FT FG VV002 18/18 A3005 RMK AO2 SLP174 T01780178
KLUL 201255Z AUTO 00000KT 7SM CLR 22/22 A3002 RMK AO2 T02240224
KLUM 201255Z AUTO 11011KT 7SM OVC032 19/19 A2969 RMK AO2 T01850185
KLUX 201255Z AUTO 23003KT 10SM CLR 22/20 A3005 RMK AO2
KLVJ 201253Z AUTO 00000KT 5SM BR CLR 26/24 A2995 RMK AO2 SLP142 T02610239
KLVK 201253Z AUTO 23006KT 10SM CLR 15/12 A2996 RMK AO2 SLP142 T01500117
KLVL 201255Z AUTO 00000KT 10SM CLR 22/19 A3001 RMK AO1 T02160188
KLVM 201253Z AUTO 31008KT 10SM OVC075 07/M02 A2971 RMK AO2 SLP060 T00671022
KLVN 201252Z AUTO 20004KT 10SM OVC015 21/21 A2966 RMK AO2
KLVS 201253Z AUTO 05004KT 10SM CLR 12/M04 A3008 RMK AO2 SLP084 T01171044
KLWA 201256Z AUTO 14003KT 3/4SM BR OVC001 19/18 A2999 RMK AO2 T01900184
KLWB 201255Z AUTO 00000KT 10SM BKN095 16/15 A3012 RMK AO2 T01560147
KLWC 201252Z AUTO 09004KT 9SM CLR 23/22 A2978 RMK AO2 SLP074 T02330217
KLWD 201253Z AUTO 16007KT 10SM CLR 22/20 A2976 RMK AO2 SLP068 T02170200
KLWM 201254Z AUTO 04014G22KT 10SM OVC007 21/19 A2994 RMK AO2 SLP138 T02110194
KLWS 201256Z AUTO 17010KT 10SM FEW065 BKN090 09/05 A2964 RMK AO2 RAE06 SLP037 P0000 T00940050
KLWT 201254Z AUTO 23014KT 10SM CLR 05/M02 A2963 RMK AO2 SLP029 T00501022 $
KLWV 201253Z AUTO 17003KT 3SM BR CLR 22/21 A2999 RMK AO2 SLP151 T02170211
KLXL 201251Z AUTO 26005KT 10SM BKN007 BKN017 15/14 A2965 RMK AO2
KLXN 201255Z AUTO 29006KT 10SM CLR 08/06 A2990 RMK AO2 T00750055
KLXT 201253Z AUTO 24007KT 10SM CLR 23/22 A2982 RMK AO2 SLP089 T02280217
KLXV 201253Z AUTO 00000KT 10SM CLR 04/M06 A3014 RMK AO2 SLP068 T00441056
KLXY 201255Z AUTO 17006KT 10SM SCT011 24/23 A2992 RMK AO2 T02370231
KLYH 201254Z 18003KT 10SM FEW100 21/18 A3003 RMK AO2 SLP163 T02110183
KLYV 201259Z AUTO 30010KT 10SM CLR 12/10 A2978 RMK AO2
KLZU 201245Z 00000KT 7SM CLR 22/20 A3007 RMK RWY 25 ; VISUALS ; ATIS OTS ; OO
KLZZ 201255Z AUTO 19006KT 10SM CLR 24/23 A2991 RMK AO2 T02420226
KM04 201235Z AUTO 00000KT 7SM CLR 22/21 A2998 RMK A01
KM08 201235Z AUTO 16004KT 9SM FEW042 FEW048 SCT060 22/21 A3000 RMK A01
KM19 201256Z AUTO 17007KT 8SM CLR 23/22 A2995 RMK AO2 SLP145 T02280222
KM21 201255Z AUTO 00000KT 10SM CLR 20/20 A3001 RMK AO2 T02040204
KM25 201335Z AUTO 17005KT 7SM BKN120 22/21 A3001 RMK AO2 PWINO
KM30 201255Z AUTO 00000KT 5SM BR CLR 23/21 A2999 RMK AO2 T02260214
KM33 201235Z AUTO 00000KT 8SM CLR 19/19 A3007 RMK A01
KM75 201255Z AUTO 00000KT 10SM CLR 01/M00 A2957 RMK A01
KM91 201235Z AUTO 19003KT BKN041 21/20 A3002 RMK A01
KMAE 201253Z AUTO 00000KT 10SM CLR 11/09 A2994 RMK AO2 SLP138 T01110089
KMAF 201253Z 20007KT 10SM BKN110 23/17 A2991 RMK AO2 SLP076 T02280167
KMAI 201253Z AUTO 00000KT 10SM FEW005 OVC095 23/23 A3002 RMK AO2 SLP164 T02330228
KMAN 201255Z AUTO 13009KT 10SM 09/03 A2972 RMK A01
KMAO 201255Z AUTO 00000KT 5SM BR CLR 21/20 A3004 RMK AO2
KMAW 201315Z AUTO 17004KT 7SM CLR 23/21 A2997 RMK AO2
KMBG 201252Z AUTO 18004KT 10SM CLR 06/04 A2976 RMK AO2 SLP081 T00560044
KMBL 201256Z AUTO 12005KT 3/4SM BR OVC002 17/17 A2996 RMK AO2 SLP164 T01720172
KMBO 201255Z AUTO 24003KT 10SM CLR 23/23 A3000 RMK AO2 PWINO
KMBS 201253Z 00000KT 1SM R23/P6000FT BR FEW002 OVC022 20/20 A3002 RMK AO2 SLP164 T02000200
KMCB 201253Z AUTO 00000KT 3SM BR FEW002 SCT013 23/22 A3002 RMK AO2 SLP159 T02330222 TSNO
KMCC 201255Z AUTO 10SM SCT095 14/08 A2992 RMK AO2
KMCD 201256Z AUTO 12006KT 7SM SCT004 BKN027 BKN031 19/19 A3001 RMK AO2 T01880188
KMCE 201253Z AUTO 33004KT 10SM CLR 14/09 A2993 RMK AO2 SLP133 T01390094
KMCF 201258Z AUTO 07006KT 10SM CLR 25/25 A3002 RMK AO2 SLP169 T02540254 $
KMCI 201253Z 18009KT 7SM FEW100 FEW250 23/22 A2979 RMK AO2 SLP076 T02280217
KMCK 201253Z AUTO 29007KT 10SM CLR 06/03 A2992 RMK AO2 SLP121 T00610028
KMCN 201253Z 00000KT 6SM BR CLR 23/21 A3004 RMK AO2 SLP167 T02330211
KMCO 201253Z 36006KT 10SM FEW025 FEW150 26/23 A3003 RMK AO2 SLP167 T02560233
KMCW 201253Z AUTO 17007KT 9SM BKN020 21/19 A2973 RMK AO2 SLP054 T02060189
KMCX 201255Z AUTO 14004KT 3SM BR CLR 19/18 A2997 RMK AO2 T01870180
KMDD 201255Z AUTO 19007KT 10SM CLR 23/17 A2992 RMK AO2 T02330168
KMDH 201252Z 14004KT 6SM BR CLR 22/22 A2995 RMK AO2 SLP140 T02220217
KMDJ 201255Z AUTO 19007KT 10SM CLR 29/23 A3001 RMK A01
KMDQ 201255Z AUTO 00000KT 3SM BR OVC001 18/18 A3006 RMK AO2
KMDS 201250Z AUTO 30012KT 10SM CLR 10/10 A2978 RMK AO2
KMDT 201256Z 31011KT 10SM FEW120 22/17 A2997 RMK AO2 SLP148 T02220167
KMDW 201253Z 14007KT 10SM FEW070 21/18 A2992 RMK AO2 SLP126 T02110183
KMDZ 201255Z AUTO 12006KT 4SM VCTS BR BKN011 BKN018 OVC035 16/16 A2981 RMK AO2 LTG DSNT NE THRU SE P0009 T01620155
KMEB 201252Z AUTO 00000KT 5SM BR CLR 22/20 A3005 RMK AO2 SLP172 T02170200
KMEH 201256Z AUTO 00000KT 9SM -RA BKN005 OVC025 04/03 A2962 RMK AO2 RAE38B51 SLP036 P0002 T00390033
KMEI 201258Z 21003KT 1/2SM R01/1200V3000FT FG VV002 22/22 A3002 RMK AO2 SLP162 T02220222
KMEM 201254Z 17006KT 10SM SCT250 24/22 A2998 RMK AO2 SLP149 T02440222
KMER 201255Z AUTO 01007KT 10SM CLR 15/11 A2993 RMK AO1
KMEV 201255Z AUTO 22003KT 10SM SCT060 07/M02 A2995 RMK AO2
KMEZ 201255Z AUTO 22003KT 10SM BKN013 BKN045 BKN060 26/25 A2997 RMK AO2
KMFD 201252Z 24004KT 10SM FEW060 OVC100 21/19 A3005 RMK AO2 SLP170 T02060194 $
KMFE 201253Z 14009KT 9SM CLR 27/24 A2988 RMK AO2 SLP116 T02720244
KMFI 201254Z AUTO 16009KT 6SM BR BKN009 BKN036 OVC060 18/16 A2980 RMK AO2 RAB44E51 SLP089 P0000 T01780156 TSNO
KMFR 201253Z 00000KT 10SM SCT042 BKN060 OVC080 11/11 A2979 RMK AO2 RAE46 SLP083 P0002 T01110106
KMFV 201255Z AUTO 32008G18KT 270V340 10SM CLR 24/20 A2992 RMK AO2 T02400202
KMGC 201255Z AUTO 13003KT 7SM CLR 18/18 A2997 RMK AO2
KMGE 201256Z 27003KT 7SM CLR 21/19 A3006 RMK AO2A SLP172 T02130194 $
KMGG 201254Z AUTO 25005KT 7SM OVC020 17/17 A2968 RMK AO2 T01720170
KMGJ 201254Z AUTO 02009KT 10SM BKN030 23/18 A2993 RMK AO2 SLP132 T02280178
KMGM 201253Z 09004KT 1SM BR OVC002 22/20 A3004 RMK AO2 SLP169 T02220200
KMGN 201256Z AUTO 09004KT 5SM BR OVC005 17/17 A2999 RMK AO2 T01780170
KMGR 201255Z AUTO 00000KT 5SM BR CLR 23/22 A3005 RMK AO2
KMGW 201253Z 18003KT 10SM CLR 18/16 A3007 RMK AO2 SLP176 T01830161
KMGY 201253Z AUTO 00000KT 1/4SM FG VV002 19/19 A3005 RMK AO2 SLP169 T01940189
KMHE 201253Z AUTO 27009KT 10SM CLR 11/09 A2981 RMK AO2 SLP091 T01110094
KMHK 201252Z 20006KT 10SM CLR 23/20 A2973 RMK AO2 SLP056 T02330200
KMHL 201255Z AUTO 16008KT 10SM CLR 25/22 A2983 RMK AO2
KMHR 201245Z 12006KT 10SM SKC 12/06 A2991
KMHS 201256Z AUTO 00000KT 10SM FEW045 SCT055 09/08 A2986 RMK AO2 SLP117 T00890078
KMHT 201253Z 03009G16KT 10SM OVC010 21/19 A2994 RMK AO2 SLP150 T02060194
KMHV 201240Z AUTO 32013G24KT 10SM CLR 16/04 A2986 RMK A01
KMIA 201253Z 02003KT 10SM SCT026 SCT220 29/24 A2999 RMK AO2 SLP156 T02890244
KMIB 201256Z AUTO 20004KT 10SM CLR 06/04 A2958 RMK AO2 SLP026 T00640036 $
KMIC 201253Z 20006KT 10SM FEW015 20/18 A2963 RMK AO2 SLP029 T02000178
KMIE 201253Z 19004KT 5SM BR CLR 21/19 A3002 RMK AO2 SLP155 T02110189
KMIS 201255Z AUTO 23005KT 10SM BKN023 BKN030 BKN035 29/23 A3002 RMK A01
KMIV 201254Z AUTO 33009KT 10SM CLR 22/19 A2988 RMK AO2 SLP118 T02220189 TSNO
KMIW 201253Z AUTO 16010KT 10SM CLR 21/19 A2973 RMK AO2 SLP061 T02110194
KMJQ 201254Z AUTO 28009KT 10SM CLR 14/12 A2974 RMK AO2
KMJX 201256Z AUTO 34012KT 10SM OVC023 22/18 A2986 RMK AO2 SLP117 T02220183
KMKC 201254Z 19007KT 10SM CLR 25/22 A2978 RMK AO2 SLP075 T02500222
KMKE 201252Z 15009KT 2SM BR OVC003 20/20 A2992 RMK AO2 SLP130 T02000200
KMKG 201255Z 14008KT 1/4SM R32/3500V4500FT FG OVC002 19/18 A2997 RMK AO2 SFC VIS 1/2 SLP147 T01890183
KMKJ 201255Z AUTO 25007KT 10SM SCT085 SCT100 18/16 A3016 RMK AO2 T01810157
KMKL 201253Z 18004KT 10SM FEW030 23/22 A3001 RMK AO2 SLP157 T02330222
KMKN 201255Z AUTO 18010G14KT 10SM SCT016 23/23 A2990 RMK AO2 T02340225
KMKO 201253Z AUTO 16008KT 10SM CLR 24/23 A2987 RMK AO2 SLP105 T02440228
KMKS 201255Z AUTO 22003KT 5SM BR CLR 23/22 A3004 RMK AO2
KMKT 201256Z AUTO 27009KT 10SM FEW005 18/16 A2970 RMK AO2 SLP056 T01780161
KMLB 201253Z 31005KT 10SM FEW041 FEW060 OVC095 27/25 A3001 RMK AO2 SLP160 T02670250
KMLC 201253Z AUTO 18007KT 140V210 10SM CLR 26/23 A2987 RMK AO2 SLP104 T02560233
KMLE 201255Z AUTO 32007KT 10SM CLR 20/15 A2975 RMK AO2 T02000146
KMLF 201252Z AUTO 00000KT 10SM CLR 06/02 A2994 RMK AO2 SLP096 T00560017
KMLI 201252Z 16007KT 10SM CLR 22/18 A2983 RMK AO2 SLP099 T02170183
KMLJ 201236Z AUTO 00000KT 4SM BR CLR 22/22 A3004 RMK AO2
KMLP 201253Z AUTO VRB04KT 1/4SM FZFG VV001 M01/M02 A2961 RMK AO2 UPB42E49SNB1158E07 SLP996 P0006 T10111017 TSNO
KMLS 201253Z AUTO 16008KT 10SM CLR 04/01 A2968 RMK AO2 SLP057 T00390011
KMLT 201253Z AUTO 08005KT 10SM FEW006 OVC011 18/18 A3008 RMK AO2 SLP189 T01830178 TSNO
KMLU 201253Z 00000KT 4SM BR FEW004 23/23 A2999 RMK AO2 SLP153 T02330233
KMMH 201255Z AUTO 00000KT 10SM CLR 03/00 A3005 RMK AO2 T00291001
KMMI 201255Z AUTO 00000KT 10SM BKN002 16/16 A3010 RMK
KMMK 201253Z AUTO 01012G22KT 10SM BKN022 OVC027 22/18 A2986 RMK AO2 SLP110 T02220183 TSNO
KMML 201256Z AUTO 29007KT 10SM CLR 13/12 A2974 RMK AO2 SLP070 T01330122
KMMT 201158Z 00000KT 10SM FEW100 19/19 A3003 RMK AO2A SLP170 T01890189 10192 20177 52015 $
KMMU 201245Z 03010G20KT 10SM SCT028 BKN120 23/18 A2990
KMMV 201253Z AUTO 23008KT 10SM CLR 12/09 A2966 RMK AO2 SLP043 T01170094
KMNE 201255Z AUTO 15004KT 5SM BR BKN006 BKN010 OVC018 25/24 A2997 RMK AO2 T02460235
KMNH 201248Z AUTO 19019G24KT 10SM CLR 06/M01 A3002 RMK AO2
KMNI 201255Z AUTO 00000KT 10SM CLR 23/20 A3005 RMK AO2
KMNM 201256Z AUTO 17008G16KT 3SM BR OVC006 18/17 A2992 RMK AO2 SLP145 T01830172 $
KMNN 201253Z AUTO 17004KT 3SM BR SCT034 OVC095 20/18 A3005 RMK AO2 SLP172 T02000183
KMNZ 201255Z AUTO 19012KT 10SM BKN012 24/23 A2992 RMK AO2 T02400231
KMOB 201256Z 00000KT 10SM FEW014 SCT035 SCT250 25/23 A3003 RMK AO2 SLP165 T02500228
KMOD 201253Z AUTO 00000KT 10SM CLR 16/11 A2992 RMK AO2 SLP132 T01560106
KMOP 201253Z AUTO 00000KT 1 1/4SM BR OVC002 20/19 A3000 RMK AO2 T01970190
KMOR 201255Z AUTO 00000KT 9SM CLR 19/17 A3009 RMK A01
KMOT 201254Z 21009KT 10SM CLR 09/04 A2959 RMK AO2 SLP024 T00890044
KMOX 201255Z AUTO 30009KT 10SM CLR 14/13 A2970 RMK AO2
KMPO 201253Z AUTO 35008KT 10SM CLR 19/16 A3000 RMK AO2 SLP151 T01890156
KMPV 201251Z AUTO 00000KT 1/4SM FG VV001 14/14 A3009 RMK AO2 SLP191 T01440144
KMPZ 201235Z AUTO 17008KT 10SM CLR 21/20 A2982 RMK AO2 T02130195
KMQB 201255Z AUTO 16006KT 7SM CLR 21/20 A2988 RMK AO2 T02050197
KMQE 201256Z AUTO 03014G28KT 18/17 A2988 RMK AO1 PK WND 03031/1223 SLP127 P0001 T01780172
KMQI 201245Z AUTO 30006KT 10SM OVC065 23/20 A2997 RMK AO2 T02250198
KMQS 201255Z AUTO 33008KT 10SM CLR 22/17 A2996 RMK AO2
KMQY 201256Z 17005KT 10SM SCT050 21/19 A3005 RMK AO2 SLP064 T02100190 $
KMRB 201253Z 00000KT 10SM CLR 17/16 A3001 RMK AO2 SLP160 T01720156
KMRC 201255Z AUTO 00000KT 7SM FEW003 21/21 A3002 RMK A01
KMRH 201258Z AUTO 32006KT 10SM CLR 24/19 A3001 RMK AO2 SLP162 T02440194 TSNO
KMRJ 201255Z AUTO 15007KT 5SM BR CLR 20/19 A2984 RMK AO2
KMRN 201245Z AUTO 00000KT 10SM CLR 19/19 A3010 RMK AO2 T01910191
KMRT 201254Z AUTO 00000KT 1SM OVC002 19/19 A3005 RMK AO2 T01910187
KMRY 201254Z 17005KT 10SM CLR 14/11 A2999 RMK AO2 SLP164 T01440111
KMSL 201253Z AUTO 14006KT 8SM CLR 21/19 A3005 RMK AO2 SLP172 T02110194
KMSN 201253Z 16013KT 8SM FEW050 SCT150 BKN250 20/18 A2984 RMK AO2 SLP099 T02000178
KMSO 201253Z 00000KT 10SM BKN044 03/03 A2966 RMK AO2 SLP053 T00330028
KMSP 201253Z 21006KT 10SM BKN016 BKN024 21/20 A2964 RMK AO2 SLP034 T02110200
KMSS 201253Z AUTO 05005KT 10SM CLR 19/18 A3006 RMK AO2 SLP180 T01940178
KMSV 201256Z AUTO 30004KT 10SM CLR 18/16 A3001 RMK AO2 SLP157 T01830156
KMSY 201253Z 16003KT 7SM FEW015 FEW150 BKN250 26/24 A3000 RMK AO2 SLP160 CB DSNT SE T02610244
KMTC 201258Z 00000KT 1SM R19/P6000FT BR BKN130 20/20 A3001 RMK AO2A SLP165 T01960196
KMTH 201253Z AUTO 12004KT 8SM SCT023 29/23 A2998 RMK AO2 SLP153 T02940228
KMTJ 201253Z AUTO 18006KT 10SM CLR 09/02 A3002 RMK AO2 SLP102 T00940022
KMTN 201245Z 30008KT 10SM BKN110 24/19 A2995
KMTO 201253Z AUTO 16007KT 4SM BR CLR 21/21 A2996 RMK AO2 SLP139 T02110211
KMTP 201254Z AUTO 02014G23KT 21/19 A2978 RMK AO1 PK WND 02026/1221 SLP084 T02110194
KMTV 201255Z AUTO 00000KT 10SM OVC110 18/17 A3007 RMK AO2 T01780170
KMTW 201256Z AUTO 15010KT 2 1/2SM BR OVC003 19/18 A2992 RMK AO2 SLP149 T01890183
KMUI 201258Z 01003KT 10SM SCT120 22/16 A2998 RMK AO2A SLP152 T02200163
KMUO 201258Z AUTO 11012KT 10SM FEW090 07/03 A2978 RMK AO2 SLP080 T00650031 $
KMUT 201255Z AUTO 19005KT 10SM CLR 22/19 A2982 RMK AO2
KMVE 201251Z AUTO 31007KT 10SM CLR 15/14 A2971 RMK AO2
KMVH 201255Z AUTO 25015G23KT 10SM CLR 06/M05 A2962 RMK AO2
KMVL 201254Z AUTO 00000KT 1SM BR OVC002 13/13 A3008 RMK AO2 SLP186 T01280128 TSNO
KMVN 201256Z AUTO 00000KT 22/21 A2997 RMK AO2 SLP145 T02170206 PWINO $
KMVY 201253Z 02018G27KT 1 3/4SM R24/5500VP6000FT -RA BR OVC003 20/19 A2975 RMK AO2 PK WND 02027/1247 RAB07 SLP074 P0001 T02000189
KMWA 201245Z COR 13004KT 10SM SKC 23/23 A2997
KMWC 201245Z 14004KT 1SM BR OVC002 18/17 A2992
KMWH 201252Z 16006KT 10SM CLR 06/03 A2959 RMK AO2 SLP021 T00560028
KMWK 201245Z AUTO 00000KT 10SM CLR 20/17 A3008 RMK AO2 T01950172
KMWL 201253Z AUTO 15009KT 10SM CLR 24/21 A2986 RMK AO2 SLP095 T02440211
KMWM 201255Z AUTO 26007KT 10SM CLR 14/12 A2973 RMK AO2
KMWN 201248Z 09022G26KT 1/16SM FG VV001 10/10 RMK FG INTMT
KMWO 201255Z AUTO 00000KT 1/4SM FG OVC002 20/18 A3005 RMK AO2 T01970176
KMWT 201253Z AUTO 00000KT 10SM OVC017 26/22 A2994 RMK AO2 SLP124 T02560222
KMXF 201256Z AUTO 00000KT 9SM BKN003 21/21 A3003 RMK AO2 SLP171 T02130213
KMXO 201255Z AUTO 14007KT 10SM FEW080 20/18 A2980 RMK AO2
KMYF 201253Z 14005KT 10SM OVC031 21/13 A2987 RMK AO2 SLP111 T02110133
KMYJ 201255Z AUTO 16006KT 4SM BR CLR 20/19 A2986 RMK AO2
KMYL 201259Z AUTO 18012KT 6SM RA BR OVC014 03/02 A2969 RMK AO2 P0003 T00330017
KMYP 201252Z AUTO 27034G41KT 10SM CLR 02/M03 A3037 RMK AO2
KMYR 201256Z 28007KT 9SM CLR 24/22 A3005 RMK AO2 SLP175 T02440222
KMYV 201253Z AUTO 14008KT 10SM OVC095 16/08 A2990 RMK AO2 SLP128 T01560083
KMYZ 201255Z AUTO 33004KT 10SM CLR 18/15 A2975 RMK AO2
KMZG 201255Z AUTO 15008KT CLR 29/26 A2991 RMK A01
KMZH 201253Z AUTO 18003KT 10SM BKN009 OVC014 18/16 A2961 RMK AO2
KN03 201255Z AUTO 00000KT 10SM CLR 14/14 A3006 RMK AO2
KN38 201235Z AUTO 00000KT M1/4SM FG OVC002 13/13 A3007 RMK AO2
KN60 201252Z AUTO 23007KT 06/06 A2964 RMK AO1 SLP043 T00610056
KNAK 201254Z AUTO 33005KT 10SM OVC110 24/20 A2995 RMK AO2 SLP142 T02440200
KNBC 201256Z 21005KT 10SM FEW060 26/23 A3004 RMK AO2 SLP173 T02560228
KNBG 201155Z 00000KT 6SM BR FEW020 SCT150 BKN250 23/23 A2999 RMK SLP155 6//// 7//// T02330233 10244 20228 53010
KNBT 201256Z AUTO 27011KT 10SM A3000 RMK AO2 SLP165 PWINO $
KNCA 201256Z 27005KT 7SM FEW060 23/20 A3002 RMK AO2 SLP166 T02280200
KNDZ 201256Z 00000KT 8SM FEW025 FEW250 27/24 A3002 RMK AO2 SLP150 T02720244 $
KNEL 201200Z 34007KT 7SM OVC024 22/18 A2984 RMK AO2 SLP103 70008 T02170183 10222 20211 53014 $
KNEW 201253Z 16004KT 9SM CLR 27/24 A3000 RMK AO2 SLP153 T02720244
KNFE 201256Z AUTO VRB04KT 10SM BKN110 24/19 A2996 RMK AO2 SLP146 T02390194
KNFG 201255Z 00000KT 7SM OVC022 21/15 A2986 RMK AO2 SLP110 T02110156 PNO $
KNFL 201256Z AUTO 16007KT 10SM SCT075 09/M02 A2992 RMK AO2 SLP105 T00891022
KNFW 201252Z 18013KT 10SM FEW160 FEW250 26/22 A2988 RMK AO2 SLP102 T02560217 $
KNGP 201256Z 18008KT 10SM FEW012 FEW022TCU BKN250 28/26 A2989 RMK AO2 SLP120 TCU SE T02830261 $
KNGU 201259Z 29008KT 10SM FEW090 SCT110 24/18 A2997 RMK AO2 SLP148 T02390183
KNHK 201252Z 31010KT 10SM BKN080 24/19 A2994 RMK AO2 SLP139 T02390194 $
KNID 201256Z 24003KT 10SM CLR 12/04 A2981 RMK AO2 SLP080 T01220039
KNIP 201253Z 23003KT 10SM BKN250 26/22 A3005 RMK AO2 SLP171 T02560222
KNJK 201256Z 00000KT 10SM CLR 19/06 A2975 RMK AO2 SLP088 T01940056 $
KNJM 201257Z AUTO 28004KT 10SM CLR 23/20 A3002 RMK AO2 SLP169 T02330200 $
KNKT 201254Z 27005KT 10SM CLR 24/19 A3002 RMK AO2 SLP162 T02390194
KNKX 201255Z 14005KT 10SM OVC031 22/14 A2987 RMK AO2 SLP108 T02170144
KNLC 201256Z AUTO 19005KT CLR 10/04 A2994 RMK AO2 SLP138 T01000039 RVRNO $
KNMM 201256Z 00000KT 8SM FEW250 24/22 A3002 RMK AO2 SLP173 T02440222
KNOG 201156Z AUTO 17007KT 6SM BR CLR 25/25 A2989 RMK AO2 SLP100 6//// 7//// T02500250 10272 20250 53004 PNO $
KNOW 201255Z AUTO 27005KT 10SM OVC060 09/07 A2964 RMK AO2 T00910066
KNPA 201256Z 33004KT 10SM FEW025 SCT100 SCT250 27/24 A3001 RMK AO2 SLP163 T02670239 $
KNQA 201250Z 13003KT 7SM SKC 23/22 A2998
KNQI 201256Z 16007KT 6SM BR FEW016 SCT180 BKN250 27/26 A2989 RMK AO2 SLP117 T02670261 $
KNQX 201253Z AUTO 10SM CLR 31/26 A2998 RMK AO2 SLP152 T03110256 PNO $
KNRB 201252Z 00000KT 10SM FEW060 FEW250 26/24 A3004 RMK AO2 SLP172 T02560239 $
KNRS 201256Z AUTO 24003KT 10SM OVC028 20/14 A2987 RMK AO2 SLP115 T02000144 $
KNSE 201256Z 00000KT 10SM FEW025 FEW250 25/24 A3002 RMK AO2 SLP151 T02500239 $
KNSI 201257Z AUTO 28005KT 3/4SM BR CLR 14/ A2986 RMK AO2 SLP106 T0139 PWINO $
KNTD 201256Z 02004KT 8SM CLR 14/12 A2986 RMK AO2 SLP113 T01390117 $
KNTU 201256Z 30006KT 10SM SCT100 BKN120 23/18 A2994 RMK AO2 CIG 100 RWY 05R SLP142 T02280183
KNUI 201253Z AUTO 29007KT 10SM OVC095 23/19 A2994 RMK AO2 SLP139 T02330189
KNUQ 201256Z 00000KT 10SM CLR 16/10 A2998 RMK AO2 SLP156 T01560100
KNUW 201256Z 05003KT 8SM -RA SCT035 BKN070 11/07 A2968 RMK AO2 RAB56 SLP050 P0000 T01060067 $
KNXF 201256Z AUTO A2986 RMK AO2 SLPNO PWINO $
KNXP 201256Z AUTO 30009KT 10SM CLR 19/08 A2989 RMK AO2 SLP086 T01890078 $
KNY0 201255Z AUTO 25003KT 10SM CLR 16/16 A3003 RMK AO2
KNYC 201251Z AUTO 01008G15KT 340V050 10SM BKN026 23/18 A2990 RMK AO2 SLP117 T02280178
KNYG 201256Z 31007KT 10SM BKN110 22/18 A2999 RMK AO2 SLP155 T02170183
KNYL 201157Z AUTO 14004KT 10SM CLR 24/20 A2973 RMK AO2 SLP064 T02440200 10272 20244 53002
KNZY 201252Z 18006KT 10SM BKN034 20/16 A2986 RMK AO2 SLP111 T02000161 $
KO22 201255Z AUTO 10SM CLR 08/05 A2999 RMK AO1
KO69 201255Z AUTO 30003KT 10SM OVC014 15/12 A2995 RMK A01
KO86 201235Z AUTO 28003KT 10SM 12/10 A2988 RMK AO1
KOAJ 201256Z AUTO 26003KT 10SM CLR 23/20 A3003 RMK AO2 SLP173 T02280200
KOAK 201253Z 28009KT 10SM BKN036 17/14 A2997 RMK AO2 SLP147 T01670139
KOBE 201255Z AUTO 04003KT 10SM CLR 26/23 A3000 RMK AO2
KOCF 201251Z 00000KT 10SM CLR 24/22 A3005 RMK AO2 SLP177 T02390217 $
KOCH 201256Z AUTO 15004KT 6SM BR FEW007 25/24 A2996 RMK AO2 SLP145 T02500239
KOCQ 201255Z AUTO 16008KT 4SM OVC006 18/17 A2990 RMK AO1 T01820173
KOCW 201245Z AUTO 00000KT 10SM CLR 22/19 A3001 RMK AO2 T02230193
KODO 201253Z AUTO 20007KT 10SM SCT110 23/17 A2992 RMK AO2 SLP082 T02280167
KODX 201253Z AUTO 33006KT 09/07 A2985 RMK AO2 SLP104 T00940072
KOEB 201254Z AUTO 16003KT 3SM BR OVC005 19/19 A3001 RMK AO2 T01920192
KOEO 201235Z AUTO 15007KT 10SM BKN023 OVC031 21/18 A2967 RMK AO2 T02100181 PWINO
KOFF 201256Z AUTO 36004KT 10SM FEW032 20/16 A2972 RMK AO2 SLP060 T02030157 $
KOFK 201256Z AUTO 29006KT 10SM CLR 12/11 A2982 RMK AO2 SLP089 T01220106
KOFP 201254Z AUTO 30004KT 10SM CLR 22/18 A2999 RMK AO2 SLP154 T02220183
KOGA 201255Z AUTO 22003KT 10SM CLR 05/03 A2995 RMK AO2 T00490030
KOGB 201253Z AUTO 00000KT 6SM BR CLR 23/21 A3004 RMK AO2 SLP169 T02280211
KOGD 201253Z 16008KT 10SM CLR 07/01 A2993 RMK AO2 SLP110 T00670006
KOGS 201255Z AUTO 00000KT 4SM BR BKN003 18/18 A3005 RMK AO2 T01800176
KOJA 201255Z AUTO 18012G18KT 10SM CLR 23/21 A2978 RMK AO2
KOJC 201253Z COR 24004KT 9SM FEW015 23/22 A2982 RMK AO2 SLP084 T02280217
KOKB 201252Z AUTO 00000KT 10SM OVC036 20/16 A2985 RMK AO2 SLP108 T02000156 $
KOKC 201252Z 18012KT 10SM FEW090 SCT250 23/21 A2980 RMK AO2 SLP075 T02280206
KOKK 201256Z AUTO 16005KT 1 3/4SM BR OVC003 19/19 A3001 RMK AO2 SLP160 T01890189
KOKM 201255Z AUTO 17008G15KT 10SM CLR 25/24 A2984 RMK AO2 T02460235
KOKV 201255Z AUTO 00000KT 10SM CLR 18/16 A3002 RMK AO2
KOLE 201255Z AUTO 00000KT 10SM CLR 16/16 A3010 RMK AO2
KOLF 201253Z AUTO 23005KT 10SM CLR 03/02 A2959 RMK AO2 SLP031 T00280017
KOLG 201255Z AUTO 13007KT 7SM OVC020 17/16 A2967 RMK AO1
KOLM 201254Z AUTO 20003KT 9SM -RA OVC055 09/09 A2962 RMK AO2 SLP031 P0003 T00890089
KOLS 201254Z AUTO 00000KT 10SM CLR 17/14 A3004 RMK AO2 SLP109 T01670139
KOLU 201256Z AUTO 10SM CLR 13/11 A2982 RMK AO2 SLP091 T01330106 TSNO $
KOLV 201250Z 16003KT 10SM SKC A2999
KOLY 201255Z AUTO 16003KT 5SM BR CLR 22/21 A2998 RMK AO2 T02180205
KOLZ 201255Z AUTO 15010KT 10SM FEW047 FEW130 21/20 A2977 RMK AO2
KOMA 201252Z 36010KT 10SM FEW046 18/14 A2973 RMK AO2 SLP060 T01830144
KOMH 201255Z AUTO 00000KT 10SM CLR 21/18 A3000 RMK AO2
KOMK 201253Z AUTO 33004KT 10SM OVC085 05/04 A2962 RMK AO2 SLP036 T00500039
KOMN 201150Z 00000KT 7SM SKC 22/21 A3003
KONA 201252Z AUTO 15005KT 10SM CLR 22/17 A2972 RMK AO2
KONL 201255Z AUTO 28006KT 10SM CLR 10/09 A2987 RMK AO2 T00980091
KONM 201255Z AUTO 22005KT 10SM CLR 15/03 A3003 RMK AO2 T01470025
KONO 201253Z AUTO 09005KT 10SM FEW055 SCT070 BKN090 09/06 A2970 RMK AO2 SLP059 T00890061 TSNO
KONP 201255Z AUTO 26008KT 228V288 7SM SCT036 SCT044 SCT060 12/10 A2976 RMK AO2
KONX 201255Z AUTO 27007KT 10SM SCT120 22/19 A2997 RMK AO2 T02190190
KONZ 201252Z AUTO 25003KT 4SM BR SCT036 21/19 A3001 RMK AO2 T02050194
KOOA 201255Z AUTO 16008KT 10SM CLR 22/19 A2978 RMK AO2 T02150191
KOPF 201253Z 00000KT 10SM CLR 29/27 A3000 RMK AO2 SLP158 T02940272
KOPL 201255Z AUTO 00000KT 7SM CLR 24/24 A2999 RMK AO2 T02420242
KOPN 201255Z AUTO 00000KT 10SM CLR 23/18 A3006 RMK AO2
KOQT 201253Z AUTO 00000KT 1/4SM FG VV002 17/17 A3010 RMK AO2 SLP184 T01720167
KOQU 201250Z 04023G33KT 6SM -RA BR OVC007 20/18 A2981
KORB 201252Z AUTO 16010G16KT 10SM BKN009 OVC026 16/14 A2958 RMK AO2
KORC 201255Z AUTO 30007KT 10SM CLR 14/14 A2977 RMK AO2
KORD 201251Z 15008KT 8SM FEW070 21/18 A2991 RMK AO2 SLP126 T02060183
KORE 201252Z AUTO 01008G15KT 330V060 10SM OVC013 21/19 A2994 RMK AO2 RAB14E23 SLP139 P0000 T02060189 TSNO
KORF 201251Z VRB05KT 10SM SCT090 SCT120 24/19 A2995 RMK AO2 SLP142 T02390189
KORG 201255Z AUTO 16003KT 10SM BKN020 BKN028 27/26 A2997 RMK AO2 T02700260
KORH 201254Z 05014G23KT 1SM BR VV002 18/17 A2993 RMK AO2 RAB13E30 SLP132 P0000 T01830172 RVRNO
KORS 201255Z AUTO 00000KT 4SM -RA BKN014 OVC023 11/10 A2965 RMK AO2 P0001
KOSA 201255Z AUTO 00000KT 7SM SCT020 24/23 A2995 RMK AO1 T02410231
KOSC 201254Z AUTO 00000KT 4SM BR SCT003 BKN050 OVC070 20/20 A3002 RMK AO2 T01990195
KOSH 201253Z 15011KT 5SM BR CLR 19/17 A2985 RMK AO2 SLP101 T01890172
KOSU 201253Z 24004KT 5SM BR CLR 21/21 A3005 RMK AO2 SLP169 T02060206
KOTG 201256Z AUTO 27009KT 10SM CLR 14/12 A2976 RMK AO2 SLP073 T01390117
KOTH 201256Z AUTO 26007KT 8SM -RA FEW043 SCT049 OVC060 13/12 A2983 RMK AO2 WSHFT 1226 RAB03 SLPNO P0001 T01280117 $
KOTM 201253Z AUTO 17008KT 10SM CLR 23/19 A2978 RMK AO2 SLP077 T02280194
KOUN 201255Z AUTO 17014KT 10SM CLR 22/21 A2982 RMK AO2
KOVE 201253Z AUTO 14007KT 10SM SCT080 OVC095 17/07 A2989 RMK AO2 SLP124 T01720072 $
KOVL 201253Z AUTO 28007KT 10SM CLR 13/12 A2970 RMK AO2
KOVS 201253Z AUTO 00000KT 10SM SCT065 22/17 A2980 RMK AO2 SLP087 T02170172
KOWA 201254Z AUTO 20005KT 7SM CLR 20/18 A2969 RMK AO2
KOWB 201256Z 14004KT 7SM CLR 22/21 A3001 RMK AO2 SLP169 T02170206
KOWD 201253Z 03011G17KT 3SM -RA BR OVC007 21/19 A2988 RMK AO2 RAE1159B25 SLP116 P0001 T02060194
KOWI 201235Z AUTO 17006KT 7SM CLR 22/21 A2978 RMK AO2 PWINO
KOWP 201255Z AUTO 16008KT 10SM CLR 26/22 A2982 RMK AO2 T02550222
KOWX 201255Z AUTO 00000KT 3SM CLR 18/18 A3004 RMK AO1
KOXB 201253Z AUTO 33012KT 10SM BKN060 22/19 A2988 RMK AO2 SLP119 T02170189
KOXC 201251Z 03016G26KT 10SM OVC015 21/18 A2989 RMK AO2 PK WND 01026/1244 SLP129 T02110183
KOXI 201255Z AUTO 15004KT 2 1/2SM CLR 18/18 A2997 RMK AO1
KOXR 201251Z AUTO 04004KT 10SM CLR 15/13 A2985 RMK AO2 SLP108 T01500128
KOXV 201255Z AUTO 19011G16KT 10SM CLR 23/20 A2973 RMK AO2
KOZA 201255Z AUTO 19005KT 10SM SCT110 21/20 A2995 RMK AO2
KOZR 201256Z AUTO 04004KT 7SM OVC002 22/21 A3004 RMK AO2 SLP172 T02150210
KOZS 201255Z AUTO 15007KT 10SM CLR 22/20 A2990 RMK AO2
KOZW 201255Z AUTO 15004KT 1 1/2SM BR OVC004 20/19 A3002 RMK AO2 T01970192
KP28 201256Z AUTO 01009KT 18/10 A2978 RMK AO1 SLP070 T01780100
KP53 201256Z AUTO 17005G15KT 17/17 A2993 RMK AO1 SLP134 T01720172
KP58 201251Z AUTO 13004KT 19/19 A3001 RMK AO1 SLP156 T01940189
KP59 201251Z AUTO 23008G23KT 200V310 17/15 A2985 RMK AO1 PK WND 20026/1225 PRESRR SLP105 T01670150
KP60 201156Z AUTO VRB06G16KT M02/M03 A2988 RMK AO1 SLP122 6//// 7//// T10171033 11011 21022 $
KP68 201253Z AUTO 19007KT 04/M05 A2997 RMK AO1 SLP102 T00441050
KP69 201252Z AUTO VRB03KT 08/06 A2972 RMK AO1 SLP066 P0006 T00780061
KP92 201253Z AUTO 00000KT 28/24 A2997 RMK AO1 SLP148 T02830239 $
KPAE 201253Z AUTO 00000KT 10SM OVC065 08/07 A2963 RMK AO2 SLP036 T00830067
KPAH 201253Z VRB04KT 6SM HZ CLR 23/21 A2997 RMK AO2 SLP146 T02330206
KPAM 201256Z AUTO 01003KT 10SM CLR 27/25 A3003 RMK AO2 SLP172 T02730247
KPAN 201255Z AUTO 00000KT 10SM 11/M02 A3008 RMK AO2
KPBF 201253Z AUTO 20005KT 9SM CLR 24/22 A2996 RMK AO2 SLP143 T02390222
KPBG 201253Z AUTO 35004KT 10SM CLR 18/16 A3004 RMK AO2 SLP173 T01830156
KPBH 201255Z AUTO 14009G15KT 10SM BKN030 OVC035 17/17 A2977 RMK AO2 LTG DSNT E THRU S P0001 T01690169
KPBI 201253Z 00000KT 10SM SCT023 SCT250 27/24 A2999 RMK AO2 SLP155 T02720239
KPBX 201255Z AUTO 00000KT 1 1/4SM BR SCT001 OVC020 18/18 A3009 RMK AO2 VIS 1/4V5 T01810181
KPCD 201255Z AUTO 13003KT 10SM CLR 22/20 A2993 RMK AO2 T02170204
KPCM 201255Z AUTO 01005KT 10SM CLR 25/24 A3005 RMK AO2
KPCZ 201255Z AUTO 12007KT 4SM BR CLR 18/18 A2984 RMK AO2 T01820178
KPDC 201255Z AUTO 10005KT 10SM BKN050 21/17 A2979 RMK AO2 T02060168
KPDK 201253Z 00000KT 6SM HZ CLR 23/19 A3006 RMK AO2 SLP165 T02280194
KPDT 201253Z 18004KT 6SM RA BR FEW041 OVC048 07/07 A2962 RMK AO2 SLP023 P0006 T00720067
KPDX 201253Z 14004KT 10SM SCT015 BKN023 OVC043 11/11 A2963 RMK AO2 SLP033 T01060106 $
KPEA 201255Z AUTO 17007KT 10SM CLR 23/19 A2976 RMK AO2 T02320193
KPEO 201253Z AUTO 24003KT 6SM BR BKN001 17/16 A3006 RMK AO2 SLP176 T01670156
KPEQ 201255Z AUTO 24005KT 10SM CLR 21/11 A2991 RMK AO2 T02130112
KPEX 201253Z AUTO 28012G18KT 10SM BKN011 15/15 A2970 RMK AO2 T01530146
KPEZ 201300Z AUTO 13003KT 10SM SCT014 25/23 A2991 RMK AO2 T02520232
KPGA 201253Z AUTO 16005KT 10SM CLR 17/02 A2992 RMK AO2 SLP070 T01670017 TSNO
KPGD 201253Z 07005KT 10SM CLR 26/23 A3001 RMK AO2 SLP162 T02560233
KPGV 201255Z AUTO 00000KT 7SM CLR 22/20 A3002 RMK AO2
KPHD 201253Z AUTO 00000KT 5SM BR FEW095 21/19 A3005 RMK AO2 SLP171 T02060189
KPHF 201254Z 32007KT 10SM OVC090 23/18 A2996 RMK AO2 SLP145 T02280183
KPHL 201254Z 35011KT 10SM FEW080 FEW160 BKN250 22/17 A2991 RMK AO2 SLP126 T02220167
KPHN 201255Z AUTO 14003KT 1SM BR OVC002 20/19 A3003 RMK AO2
KPHP 201255Z AUTO 07004KT 10SM CLR 03/03 A2983 RMK AO2 SLP100 T00330033
KPHT 201255Z AUTO 17006KT 9SM CLR 22/21 A3000 RMK A01
KPHX 201251Z 10005KT 10SM FEW200 22/06 A2982 RMK AO2 SLP080 T02220056
KPIA 201254Z 16003KT 9SM CLR 21/20 A2989 RMK AO2 SLP116 T02110200
KPIB 201256Z AUTO 00000KT 3SM BR BKN002 23/22 A3003 RMK AO2 SLP167 T02280222
KPIE 201253Z 03007KT 10SM CLR 27/23 A3002 RMK AO2 SLP164 T02670233
KPIH 201253Z 07004KT 10SM BKN090 06/02 A2988 RMK AO2 SLP108 T00610017
KPIL 201253Z AUTO 17007KT 8SM FEW024 SCT035 28/25 A2988 RMK AO2 SLP118 T02780250 $
KPIM 201255Z AUTO 00000KT 10SM CLR 23/22 A3005 RMK AO2 T02260215 PWINO
KPIR 201253Z AUTO 21005KT 10SM CLR 07/05 A2981 RMK AO2 SLP092 T00720050
KPIT 201251Z 00000KT 10SM SCT048 SCT120 BKN250 19/18 A3005 RMK AO2 SLP177 T01940178
KPKB 201253Z 00000KT 2SM BR SCT002 OVC060 20/19 A3007 RMK AO2 SLP176 T02000194
KPKD 201253Z AUTO 29007KT 10SM SCT011 14/13 A2963 RMK AO2 SLP032 T01440128
KPKV 201050Z AUTO 15005KT 5SM BR CLR 25/24 A2989 RMK AO2 T02510236
KPLN 201254Z AUTO 14005KT 7SM OVC004 18/17 A3001 RMK AO2 SLP161 T01830172
KPLR 201255Z AUTO 00000KT M1/4SM FG OVC001 19/19 A3006 RMK A01
KPLU 201255Z AUTO 00000KT 10SM OVC038 09/09 A2962 RMK AO2
KPMD 201253Z AUTO 00000KT 10SM CLR 13/07 A2990 RMK AO2 SLP106 T01280067 $
KPMP 201253Z 00000KT 7SM CLR 28/24 A2999 RMK AO2 SLP156 T02830244
KPMU 201255Z AUTO 00000KT 5SM BR CLR 22/21 A3000 RMK AO2 T02160208
KPMV 201255Z AUTO 36005KT 10SM SCT012 BKN019 BKN024 21/19 A2973 RMK AO2 T02100185
KPNA 201255Z AUTO 00000KT 10SM OVC070 M02/M03 A2999 RMK AO2
KPNC 201253Z AUTO VRB04KT 10SM CLR 24/18 A2978 RMK AO2 SLP069 T02390183
KPNE 201254Z 35010KT 10SM CLR 22/17 A2992 RMK AO2 SLP129 T02220172
KPNM 201254Z AUTO 24008KT 7SM SCT008 19/18 A2966 RMK AO2
KPNS 201253Z 30004KT 10SM CLR 27/24 A3002 RMK AO2 SLP165 T02720239
KPNT 201255Z AUTO 00000KT 5SM BR CLR 19/19 A2993 RMK AO2 T01900187
KPOB 201258Z AUTO 28003KT 10SM CLR 22/19 A3003 RMK AO2 SLP170 T02240187 $
KPOE 201258Z AUTO 15003KT 7SM OVC002 25/24 A2998 RMK AO2 SLP151 T02450240
KPOF 201253Z AUTO 16004KT 5SM BR CLR 22/22 A2994 RMK AO2 SLP135 T02220217
KPOU 201253Z 35009KT 10SM OVC029 21/17 A2992 RMK AO2 SLP127 T02060167
KPOV 201300Z AUTO 00000KT 7SM SCT060 SCT070 BKN100 20/18 A3006 RMK AO2 T01950177
KPOY 201255Z AUTO 22005KT 10SM CLR 04/M04 A2978 RMK AO2
KPPA 201235Z AUTO 34008KT 10SM CLR 13/06 A2989 RMK AO2 T01300062
KPPO 201255Z AUTO 00000KT 1 1/4SM BR OVC001 17/17 A2999 RMK AO2 T01660165
KPPQ 201255Z AUTO 14003KT 10SM CLR 22/21 A2989 RMK AO2 T02170205
KPQI 201256Z AUTO 01004KT 1 3/4SM BR OVC002 15/15 A3011 RMK AO2 SLP238 T01500150
KPQL 201253Z 00000KT 10SM FEW017 26/23 A3001 RMK AO2 SLP164 T02560228
KPQN 201254Z AUTO 30008KT 10SM CLR 12/11 A2977 RMK AO2
KPRB 201253Z AUTO 10003KT 10SM CLR 09/07 A2996 RMK AO2 SLP142 T00940067 TSNO
KPRC 201253Z 00000KT 10SM CLR 11/03 A3003 RMK AO2 SLP104 T01110028
KPRG 201255Z AUTO 15004KT 3/4SM BR VV005 21/21 A2998 RMK AO2 T02100210
KPRN 201256Z AUTO 00000KT 7SM CLR 22/20 A3003 RMK AO2 SLP165 T02220200
KPRO 201255Z AUTO 00000KT 10SM BKN035 BKN041 22/21 A2972 RMK AO2 T02200210
KPRS 201255Z AUTO 00000KT 10SM BKN090 BKN120 25/15 A2999 RMK AO2 T02470152
KPRX 201256Z AUTO 18008KT 10SM BKN016 25/23 A2993 RMK AO2 SLP139 T02500228
KPSC 201253Z 18007KT 10SM SCT080 11/07 A2961 RMK AO2 SLP026 T01110072
KPSF 201254Z AUTO 04006KT 10SM OVC018 20/16 A2997 RMK AO2 SLP125 T02000161
KPSK 201255Z AUTO 00000KT 10SM BKN110 19/18 A3012 RMK AO2 T01880177
KPSM 201258Z 03015G20KT 4SM BR OVC005 20/20 A2994 RMK AO2A SLP141 T01980195 CHINO RWY16 $
KPSN 201255Z AUTO 17008KT 10SM BKN010 OVC015 25/24 A2994 RMK AO2 T02540245
KPSO 201255Z AUTO 04003KT 10SM TS CLR 05/M05 A3016 RMK AO2 T00541054
KPSP 201253Z 28006KT 10SM CLR 23/12 A2976 RMK AO2 SLP073 T02330122
KPSX 201253Z AUTO 18006KT 7SM SCT016 27/25 A2992 RMK AO2 SLP131 T02720250
KPTB 201255Z AUTO 00000KT 10SM CLR 21/18 A3000 RMK AO2 T02130176
KPTK 201253Z 00000KT 1/4SM R09R/2000V2600FT FG VV002 19/19 A3001 RMK AO2 SLP159 T01890189
KPTN 201256Z AUTO 00000KT 10SM CLR 26/24 A3000 RMK AO2 SLP159 T02560244
KPTS 201255Z AUTO 18011G16KT 10SM CLR 25/23 A2982 RMK AO2 T02450230
KPTT 201255Z AUTO 34009KT 10SM CLR 15/07 A2982 RMK AO2 T01500065
KPTV 201256Z AUTO 15006KT 10SM 11/07 A2995 RMK AO2 SLP150 T01110067 $
KPTW 201154Z AUTO 00000KT 9SM CLR 19/18 A2995 RMK AO2 SLP136 70009 T01890178 10211 20183 51020 $
KPUB 201253Z 00000KT 10SM CLR 05/M02 A3005 RMK AO2 SLP130 T00501022
KPUC 201253Z AUTO 34006KT 10SM OVC070 08/01 A2996 RMK AO2 SLP108 T00830006
KPUJ 201255Z AUTO 00000KT 7SM CLR 22/ A3008 RMK AO2
KPUW 201253Z AUTO 12006KT 10SM BKN034 OVC048 07/04 A2965 RMK AO2 SLP045 T00720039
KPVB 201255Z AUTO 15011KT 10SM SCT060 20/19 A2982 RMK AO1 T01970194
KPVC 201256Z AUTO 05014G21KT 1/4SM -RA FG OVC002 17/17 A2984 RMK AO2 SLP106 P0000 T01720172
KPVD 201251Z 03017G25KT 7SM OVC008 20/20 A2984 RMK AO2 PK WND 03027/1158 RAB31E50 SLP103 P0000 T02000200
KPVE 201235Z AUTO 00000KT 8SM CLR 21/20 A3001 RMK A01
KPVG 201256Z AUTO VRB04KT 10SM BKN095 22/19 A2998 RMK AO2 SLP154 T02220194
KPVJ 201255Z AUTO 17005KT 10SM CLR 23/23 A2983 RMK AO2 LTG DSNT SW T02260226
KPVU 201256Z 18003KT 10SM CLR 06/02 A2997 RMK AO2 SLP130 T00560017
KPVW 201255Z AUTO 25006KT 10SM CLR 16/13 A2989 RMK AO2 T01600131
KPWA 201253Z 18015KT 10SM CLR 24/21 A2979 RMK AO2 SLP070 T02390211
KPWC 201253Z AUTO 26003KT 10SM SCT005 BKN013 OVC020 14/13 A2968 RMK AO2
KPWG 201256Z AUTO 16010KT 10SM BKN014 OVC020 26/23 A2992 RMK AO2 SLP133 T02560228
KPWK 201252Z 15006KT 4SM BR CLR 20/19 A2993 RMK AO2 SLP131 T02000194
KPWM 201251Z 03007KT 10SM OVC007 21/19 A2998 RMK AO2 DZE49 SLP152 P0000 T02060189
KPWT 201256Z AUTO 00000KT 7SM -RA OVC017 08/08 A2962 RMK AO2 RAB47 SLP051 P0000 T00830083
KPXE 201255Z AUTO 00000KT 10SM SCT110 23/21 A3004 RMK AO2 T02320209
KPYM 201252Z AUTO 03018G27KT 1/2SM FG OVC002 18/17 A2984 RMK AO2 PK WND 03032/1157 RAB27E46 SLP103 P0001 T01830172
KPYX 201255Z AUTO 34007KT 10SM CLR 13/05 A2987 RMK AO2 T01270045
KPZQ 201255Z AUTO 14004KT M1/4SM FG OVC003 18/18 A3003 RMK AO2 T01800177
KRAC 201253Z AUTO 15009KT 1 3/4SM BR OVC004 20/20 A2994 RMK AO2 SLP136 T02000200
KRAL 201253Z AUTO 27005KT 8SM OVC018 18/16 A2987 RMK AO2 SLP100 T01830156
KRAP 201252Z 05004KT 10SM CLR 02/M01 A2980
KRBD 201253Z AUTO 16010G17KT 10SM SCT013 26/23 A2988 RMK AO2 SLP110 T02560228
KRBG 201253Z AUTO VRB03KT 10SM FEW036 BKN045 BKN060 14/10 A2978 RMK AO2 RAB28E41 SLP085 P0000 T01440100
KRBL 201254Z AUTO 17004KT 10SM CLR 16/08 A2986 RMK AO2 SLP108 T01560083
KRBO 201255Z AUTO 14004KT 7SM CLR 26/24 A2990 RMK AO2 T02560242
KRBW 201255Z AUTO 00000KT 10SM CLR 23/21 A3005 RMK AO2
KRCA 201256Z AUTO 00000KT 10SM CLR 06/00 A2979 RMK AO2 SLP097 T00610000 $
KRCM 201255Z AUTO 17009G15KT 10SM CLR 22/20 A2981 RMK AO2
KRCR 201034Z AUTO 00000KT 4SM BR OVC001 16/16 A2997 RMK AO2
KRCV 201255Z AUTO 30007KT 10SM CLR 05/M07 A3014 RMK AO2 T00541066
KRCX 201255Z AUTO 13008KT 7SM OVC027 18/17 A2976 RMK AO2 LTG DSNT E AND SE T01810169
KRCZ 201240Z AUTO 00000KT 10SM CLR 21/20 A3004 RMK AO2 T02110199
KRDD 201253Z AUTO 00000KT 10SM FEW050 BKN070 OVC095 17/09 A2984 RMK AO2 SLP101 T01720089
KRDG 201254Z 35004KT 10SM BKN120 22/18 A2995 RMK AO2 SLP144 T02220178
KRDK 201255Z AUTO 20004KT 10SM CLR 22/21 A2972 RMK AO2
KRDM 201256Z 18004KT 9SM -RA BKN048 OVC060 08/06 A2964 RMK AO2 SLP031 P0003 T00780056
KRDR 201256Z AUTO 26006KT 10SM CLR 10/09 A2962 RMK AO2 SLP036 T01010093
KRDU 201251Z 23006KT 10SM FEW150 22/19 A3003 RMK AO2 SLP164 T02170194
KREG 201255Z AUTO 00000KT 5SM BR CLR 24/24 A3000 RMK AO2 T02410237
KREO 201252Z AUTO 20016G23KT 13/03 A2976 RMK AO1 SLP056 T01330028
KRFD 201254Z 16007KT 8SM SCT140 BKN250 20/18 A2988 RMK AO2 SLP115 T02000178
KRFI 201255Z AUTO 16005KT 7SM OVC007 25/24 A2995 RMK AO2 T02450236
KRGA 201255Z AUTO 00000KT 5SM SCT034 19/18 A3008 RMK AO2
KRGK 201255Z AUTO 14008KT 10SM OVC029 23/17 A2965 RMK AO2
KRHI 201258Z AUTO 11006KT 1 3/4SM +TSRA BR BKN009 BKN013 OVC055 16/16 A2988 RMK AO2 LTG DSNT S-NW P0012 T01610161
KRHP 201240Z AUTO 00000KT 7SM CLR 15/15 A3011 RMK AO2 T01470147
KRIC 201254Z 33005KT 10SM FEW110 FEW300 23/18 A2998 RMK AO2 SLP155 T02330178
KRID 201255Z AUTO 00000KT 3SM BR CLR 18/18 A3006 RMK AO2
KRIL 201253Z AUTO 19003KT 10SM CLR 07/02 A3001 RMK AO2 SLP124 T00670022
KRIV 201258Z AUTO 14005KT 10SM BKN023 OVC030 17/15 A2988 RMK AO2 SLP108 T01700147
KRIW 201253Z AUTO 15004KT 10SM CLR 03/M04 A2989 RMK AO2 SLP112 T00281039
KRKD 201256Z AUTO VRB05KT 4SM BR OVC001 18/18 A2999 RMK AO2 RAB18E39 SLP156 P0000 T01830183
KRKP 201253Z AUTO 18006KT 6SM HZ FEW017 28/25 A2989 RMK AO2 SLP123 T02830250
KRKR 201255Z AUTO 00000KT 10SM CLR 25/22 A2989 RMK AO2
KRKS 201254Z AUTO 28004KT 10SM CLR 01/M03 A3001 RMK AO2 SLP154 T00061028
KRLD 201255Z AUTO 17003KT 10SM BKN100 BKN110 11/08 A2960 RMK AO2 T01100078
KRME 201253Z 12004KT 10SM CLR 17/15 A3005 RMK AO2 SLP172 T01670150 $
KRMG 201253Z AUTO 00000KT 1/4SM FG VV002 20/20 A3006 RMK AO2 SLP170 T02000200
KRMN 201255Z AUTO 31005KT 10SM CLR 21/19 A3002 RMK AO2 T02100194
KRMY 201253Z AUTO 17003KT 7SM CLR 19/19 A3001 RMK AO2 T01920190
KRNC 201255Z AUTO 00000KT 10SM CLR 18/18 A3008 RMK
KRND 201256Z 17007KT 10SM BKN013 BKN023 25/25 A2993 RMK AO2A SLP126 T02540254
KRNH 201255Z AUTO 17009KT 10SM BKN032 21/17 A2966 RMK AO2 T02070172
KRNM 201253Z AUTO 00000KT 10SM OVC021 16/13 A2989 RMK AO2 SLP110 T01560128
KRNO 201255Z 20004KT 10SM BKN065 11/00 A2994 RMK AO2 SLP101 T01060000
KRNP 201255Z AUTO 19003KT 1 3/4SM BR OVC003 20/20 A3001 RMK AO2 T02030199
KRNT 201253Z AUTO 00000KT 10SM -RA BKN026 OVC055 11/11 A2962 RMK AO2 SLP035 P0000 T01110106
KRNV 201255Z AUTO 20005KT 10SM CLR 25/25 A2998 RMK AO2 T02450245
KROA 201254Z 04004KT 10SM FEW120 21/18 A3008 RMK AO2 SLP176 T02110183
KROC 201254Z 23003KT 7SM OVC005 17/16 A3005 RMK AO2 SLP177 VIS LWR NW-NE T01670161
KROG 201258Z 17009KT 10SM CLR 24/22 A2992 RMK AO2 SLP117 T02390217 $
KROS 201254Z AUTO 16005KT 5SM BKN018 OVC026 20/18 A2963 RMK AO2 T01980183
KROW 201251Z 00000KT 10SM CLR 16/07 A2994 RMK AO2 SLP073 T01610067
KROX 201255Z AUTO 26006KT 10SM SCT043 SCT050 13/11 A2955 RMK AO2
KRPD 201255Z AUTO 12015G18KT 7SM SCT013 OVC031 19/17 A2971 RMK AO2 LTG DSNT E T01850171
KRPH 201230Z AUTO 15007KT 10SM SCT021 25/22 A2983 RMK AO2 T02450215
KRPJ 201255Z AUTO 15008KT 7SM CLR 19/18 A2988 RMK AO2 T01940180
KRPX 201155Z AUTO 19014KT 10SM 04/M01 A2961
KRQB 201255Z AUTO 15004KT 2SM BR OVC003 18/18 A2999 RMK AO2 T01800175
KRQE 201253Z AUTO 00000KT 10SM CLR 07/M01 A3014 RMK AO2 SLP113 T00671011 TSNO
KRQO 201255Z AUTO 18016G22KT 10SM CLR 24/21 A2981 RMK AO2 T02350212
KRRL 201200Z AUTO 14005KT 7SM 16/16 A2983 RMK AO2 LTG DSNT SW THRU N
KRRT 201254Z AUTO 26012G17KT 10SM SCT010 BKN070 13/11 A2954 RMK AO2
KRSL 201253Z AUTO 33011KT 10SM CLR 14/07 A2982 RMK AO2 SLP083 T01440072
KRSN 201255Z AUTO 00000KT 2 1/2SM BR OVC004 24/23 A3001 RMK AO2 T02380230
KRSP 201154Z AUTO 35004KT 10SM CLR 17/15 A3003 RMK AO2 SLP165 T01720150 10194 20161 53010 $
KRST 201254Z 17012KT 10SM BKN023 21/18 A2971 RMK AO2 SLP057 T02060183
KRSV 201255Z AUTO 00000KT 2 1/2SM BR CLR 20/20 A2999 RMK AO2 T02020202
KRSW 201253Z 10004KT 10SM CLR 26/24 A2999 RMK AO2 SLP151 T02610239
KRTN 201253Z AUTO 04011KT 10SM CLR 08/M01 A3004 RMK AO2 SLP102 T00831006
KRTS 201255Z AUTO 31007KT 10SM BKN042 OVC060 10/02 A2997 RMK AO2
KRUE 201253Z AUTO 00000KT 10SM CLR 24/23 A2993 RMK AO2 SLP125 T02440228
KRUG 201255Z AUTO 22009KT 10SM CLR 07/07 A2960 RMK AO2
KRUQ 201245Z AUTO 00000KT 10SM CLR 21/20 A3005 RMK AO2 T02060204
KRUT 201256Z AUTO 03003KT 10SM CLR 19/16 A3003 RMK AO2 SLP182 T01890161 $
KRVS 201253Z 17007KT 10SM CLR 25/22 A2982 RMK AO2 SLP098 T02500217
KRWF 201253Z AUTO 28009KT 10SM CLR 15/13 A2971 RMK AO2 SLP057 T01500128
KRWI 201253Z AUTO 00000KT 10SM CLR 22/20 A3002 RMK AO2 SLP163 T02170200 $
KRWL 201253Z AUTO 22005KT 10SM CLR 02/M02 A2999 RMK AO2 SLP144 T00171017
KRWV 201255Z AUTO 17004KT 7SM BR SCT008 BKN014 OVC024 25/24 A2994 RMK AO2 T02510243
KRXE 201253Z AUTO 22003KT 10SM BKN095 04/M01 A2987 RMK AO2 SLP110 T00391006
KRYN 201245Z 12008KT 10SM CLR 23/16 A2994
KRYT 201153Z AUTO 00000KT 10SM CLR 19/17 A2999 RMK AO2 SLP149 70001 T01890172 10189 20161 53014 TSNO $
KRYV 201255Z AUTO 12007KT 5SM BR CLR 19/19 A2987 RMK AO2 T01880188
KRYW 201255Z AUTO 19008KT 10SM SCT011 SCT023 25/23 A2994 RMK AO2 T02460232
KRYY 201251Z 00000KT 1 1/2SM BR BKN002 20/19 A3008 RMK AO2 SLP186 T02000194
KRZL 201255Z AUTO 13004KT 2 1/2SM BR CLR 16/13 A2996 RMK AO2
KRZN 201255Z AUTO 16007KT 10SM BKN025 OVC038 20/18 A2966 RMK AO2 T01950180
KRZR 201255Z AUTO 00000KT 1/4SM FG OVC002 17/17 A3006 RMK A01
KRZT 201254Z AUTO 00000KT 7SM CLR 19/19 A3005 RMK AO2
KS25 201255Z AUTO 21008KT 10SM CLR 06/04 A2961 RMK AO2
KS32 201315Z AUTO 25011KT 10SM CLR 09/07 A2967 RMK AO2
KS33 201255Z AUTO 00000KT 10SM -RA SCT034 BKN041 OVC047 A2964 RMK AO2
KS39 201235Z AUTO 25011KT 10SM SCT039 BKN045 OVC050 08/06 A2965 RMK AO2
KS52 201255Z AUTO 00000KT 10SM BKN100 OVC120 01/00 A2963 RMK AO2 T00080001
KSAA 201255Z AUTO 15007KT 10SM BKN100 02/00 A3002 RMK AO2
KSAC 201253Z AUTO 00000KT 10SM FEW100 14/11 A2991 RMK AO2 SLP128 T01440106
KSAD 201251Z AUTO 13003KT 10SM CLR 16/03 A2997 RMK AO2 SLP101 T01560028
KSAF 201253Z AUTO VRB04KT 10SM CLR 11/00 A3010 RMK AO2 SLP104 T01060000
KSAN 201251Z 19007KT 10SM BKN034 21/14 A2988 RMK AO2 SLP118 T02060144
KSAR 201255Z AUTO 16006KT 10SM CLR 21/21 A2995 RMK AO2 T02120205
KSAT 201251Z 16010KT 10SM BKN014 BKN027 OVC250 26/23 A2993 RMK AO2 SLP115 T02560228
KSAV 201253Z VRB03KT 10SM BKN170 BKN250 26/21 A3004 RMK AO2 SLP171 T02610211
KSAW 201147Z 18010G18KT 1 3/4SM BR OVC003 16/15 A2992
KSAZ 201253Z AUTO 27008KT 10SM SCT011 SCT021 OVC027 14/14 A2968 RMK AO2
KSBA 201253Z 03003KT 10SM CLR 12/11 A2984 RMK AO2 SLP106 T01220111
KSBD 201239Z AUTO 26004KT 10SM BKN016 OVC027 19/14 A2988 RMK AO2 T01910142
KSBM 201253Z AUTO 15008KT 2 1/2SM BR OVC004 19/19 A2992 RMK AO2 SLP130 T01890189
KSBN 201254Z 11007KT 1/2SM R27L/2000V3500FT FG VV001 18/18 A2999 RMK AO2 SLP152 T01780178
KSBO 201255Z AUTO 17003KT 10SM CLR 23/23 A3005 RMK AO2
KSBP 201256Z 32011KT 10SM CLR 18/08 A2990 RMK AO2 SLP124 T01830078
KSBS 201254Z AUTO 00000KT 10SM OVC004 01/01 A3007 RMK AO1 T00130011
KSBY 201254Z 31008KT 10SM CLR 23/19 A2991 RMK AO2 SLP129 T02330189
KSCD 201255Z AUTO 00000KT 10SM SCT110 19/19 A3005 RMK AO2 T01900190
KSCF 201255Z AUTO 16014KT 10SM SCT021 SCT027 SCT035 28/24 A3000 RMK A01
KSCH 201252Z 30003KT 15SM FEW030 SCT250 20/17 A3001
KSCK 201255Z AUTO 26008KT 10SM CLR 16/11 A2993 RMK AO2 SLP133 T01560111
KSCR 201240Z AUTO 00000KT 10SM CLR 20/18 A3004 RMK AO2 T02000182
KSDA 201255Z AUTO VRB04KT 10SM CLR 23/21 A2972 RMK AO2
KSDB 201253Z AUTO 34021G27KT 10SM CLR 11/03 A2999 RMK AO2 PK WND 32028/1238 SLP121 T01060028 $
KSDF 201256Z 14005KT 7SM FEW005 FEW250 21/19 A3003 RMK AO2 SLP165 T02110194
KSDL 201253Z 10003KT 10SM CLR 23/02 A2986 RMK AO2 SLP086 T02280022
KSDM 201253Z AUTO 13004KT 10SM CLR 17/13 A2988 RMK AO2 SLP113 T01720133
KSDY 201256Z AUTO 20005KT 10SM CLR 04/03 A2962 RMK AO2 SLP041 T00390033
KSEA 201253Z 00000KT 5SM -RA BR FEW006 BKN027 OVC033 11/09 A2962 RMK AO2 RAB42 SLP037 P0001 T01060094 $
KSEE 201255Z AUTO 11006KT 10SM BKN029 18/14 A2988 RMK AO2
KSEF 201235Z AUTO 04004KT 10SM CLR 26/22 A3000 RMK AO2 T02550222
KSEG 201253Z AUTO 00000KT 8SM CLR 18/17 A3001 RMK AO2 SLP162 T01830172
KSEM 201255Z AUTO 13004KT 10SM SCT016 22/20 A3003 RMK AO2
KSEP 201255Z AUTO 18007KT 10SM SCT013 23/21 A2992 RMK AO2 T02300207
KSET 201254Z AUTO 00000KT 5SM BR CLR 22/21 A2989 RMK AO2 SLP118 T02170211 $
KSEZ 201255Z AUTO 00000KT 10SM CLR 17/00 A3004 RMK AO2
KSFB 201253Z 01006KT 10SM CLR 26/23 A3003 RMK AO2 SLP168 T02610228
KSFF 201253Z 20003KT 10SM OVC016 08/06 A2964 RMK AO2 SLP040 T00780056
KSFM 201256Z AUTO 03009KT 6SM BR OVC003 19/19 A2998 RMK AO2 SLP160 T01940189
KSFO 201256Z 28007KT 10SM FEW008 BKN011 OVC014 17/13 A2997 RMK AO2 SLP148 T01670133
KSFQ 201255Z AUTO 33004KT 10SM CLR 23/19 A2998 RMK AO2 T02270188
KSFY 201255Z AUTO 17008KT 10SM CLR 21/18 A2984 RMK AO2 T02080182
KSFZ 201256Z AUTO 03016G20KT 2SM -RA BR OVC005 19/19 A2988 RMK AO2 SLP062 P0000 T01890189
KSGF 201252Z 17010KT 8SM CLR 22/22 A2989 RMK AO2 SLP109 T02220217
KSGH 201256Z AUTO 00000KT 4SM BR BKN002 OVC075 17/17 A3005 RMK AO2 SLP175 T01720172
KSGJ 201256Z 29004KT 10SM CLR 25/23 A3006 RMK AO2 SLP177 T02500228
KSGR 201253Z 15004KT 10SM FEW020 26/25 A2993 RMK AO2 SLP137 T02610250
KSGS 201253Z AUTO 19008KT 10SM OVC023 21/20 A2965 RMK AO2 T02130203
KSGT 201256Z AUTO 18007KT 10SM CLR 24/22 A2996 RMK AO2 SLP145 T02440222
KSGU 201256Z AUTO 11005KT 10SM CLR 18/03 A2985 RMK AO2 SLP076 T01830033
KSHD 201255Z AUTO 00000KT 10SM CLR 16/16 A3007 RMK AO2 T01630156
KSHL 201255Z AUTO VRB03KT 10SM CLR 14/13 A2975 RMK AO2
KSHM 201258Z AUTO M 10SM CLR 03/M02 A3008 RMK AO2 SLP148 T00271019 $
KSHN 201253Z AUTO 36003KT 10SM SCT004 OVC011 09/09 A2960 RMK AO2 RAB1157E06 SLP024 P0000 T00940089
KSHR 201253Z AUTO 25007KT 10SM CLR 09/M04 A2975 RMK AO2 SLP072 T00891039
KSHV 201256Z 18006KT 9SM OVC014 26/24 A2995 RMK AO2 SLP138 T02560244
KSIF 201245Z AUTO 00000KT 7SM CLR 19/19 A3004 RMK AO2 T01860186
KSIK 201255Z AUTO 00000KT 10SM CLR 23/22 A2996 RMK AO2
KSIY 201253Z AUTO 31004KT 10SM BKN045 OVC065 11/07 A2981 RMK AO2 SLP099 T01060067
KSJC 201253Z 20003KT 10SM CLR 14/10 A2998 RMK AO2 SLP150 T01440100
KSJN 201254Z AUTO 00000KT 10SM CLR 06/M01 A3008 RMK AO2 SLP116 T00611011 TSNO
KSJS 201255Z AUTO 00000KT 1 1/4SM BR BKN001 OVC020 19/19 A3008 RMK AO2 VIS 3/4V2 1/2 T01900190
KSJT 201251Z 19009KT 10SM CLR 23/19 A2989 RMK AO2 SLP100 T02280194
KSJX 201256Z AUTO 11007KT 4SM BR OVC006 18/17 A2998 RMK AO2 T01780174
KSKA 201158Z 19011KT 10SM BKN007 OVC046 05/05 A2961 RMK AO2A SLP036 70041 T00530053 10065 20045 57010
KSKF 201258Z AUTO 16008KT 10SM BKN017 26/23 A2990 RMK AO2 BKN V OVC SLP117 T02550230 $
KSKX 201256Z AUTO 13007KT 10SM CLR 06/M04 A3018 RMK AO2 SLP166 T00611039 TSNO $
KSLB 201255Z AUTO 31011KT 10SM CLR 15/13 A2976 RMK AO2
KSLC 201254Z 12008KT 10SM FEW110 09/02 A2993 RMK AO2 SLP109 T00890022
KSLE 201256Z AUTO 21005KT 10SM SCT090 SCT110 12/08 A2967 RMK AO2 RAE06 SLP046 P0000 T01220083
KSLG 201256Z AUTO 18010KT 10SM CLR 24/22 A2991 RMK AO2 SLP115 T02440222 $
KSLH 201255Z AUTO 00000KT 2SM BR OVC003 17/17 A2999 RMK AO2 T01780178
KSLI 201258Z 00000KT 10SM OVC037 18/15 A2985 RMK AO2A SLP111 T01790152
KSLK 201251Z AUTO 00000KT 3/4SM BR OVC001 13/13 A3007 RMK AO2 SLP181 T01280128
KSLN 201253Z AUTO 32008KT 10SM CLR 18/12 A2976 RMK AO2 SLP065 T01830117
KSLO 201255Z AUTO 14003KT 5SM BR CLR 22/21 A2996 RMK AO2 T02240205
KSLR 201255Z AUTO 20008KT 10SM SCT015 26/23 A2994 RMK AO2 T02560227
KSME 201255Z AUTO 00000KT 10SM CLR 17/17 A3009 RMK AO2
KSMF 201253Z 15006KT 10SM FEW100 15/11 A2989 RMK AO2 SLP121 T01500106
KSMN 201256Z AUTO 00000KT 10SM SCT080 03/02 A2971 RMK AO2 SLP069 T00280022
KSMO 201251Z AUTO 03003KT 10SM OVC023 17/15 A2986 RMK AO2 SLP110 T01720150 $
KSMP 201239Z AUTO 00000KT 1/2SM FG BKN001 OVC110 02/02 A2958 RMK AO2 T00220017
KSMS 201255Z AUTO 00000KT 7SM CLR 23/21 A3004 RMK AO2
KSMX 201251Z 33008KT 8SM CLR 13/11 A2989 RMK AO2 SLP123 T01280111
KSNA 201253Z COR 12003KT 10SM SCT036 20/14 A2986 RMK AO2 SLP109 T02000144
KSNC 201255Z AUTO 02008G20KT 10SM OVC014 22/19 A2984 RMK AO2
KSNH 201235Z AUTO 00000KT 10SM CLR 21/20 A3001 RMK A01
KSNK 201255Z AUTO 15006KT 10SM SCT120 21/17 A2990 RMK AO2 T02120174
KSNL 201255Z AUTO 19012G17KT 10SM CLR 24/21 A2982 RMK AO2 T02440210
KSNS 201253Z 31003KT 10SM CLR 13/11 A2998 RMK AO2 SLP159 T01330111
KSNT 201251Z AUTO 16009G17KT 02/M01 A2975 RMK AO1 SLP044 T00171006
KSNY 201253Z AUTO 00000KT 10SM SCT110 11/M02 A2996 RMK AO2 SLP121 T01061017
KSOA 201255Z AUTO 18006KT 10SM CLR 23/21 A2997 RMK AO2
KSOP 201256Z AUTO 25005KT 10SM CLR 24/19 A3005 RMK AO2 SLP187 T02390194
KSOW 201255Z AUTO 18018G26KT 10SM CLR 14/00 A3010 RMK AO2
KSPA 201255Z AUTO 00000KT 10SM CLR 21/19 A3005 RMK AO2
KSPB 201253Z AUTO 19004KT 10SM -RA FEW010 SCT030 BKN043 14/09 A2961 RMK AO2 RAB13E22B47 SLP026 P0000 T01440094 $
KSPD 200756Z AUTO 02014KT 11/02 A2990 RMK AO1 SLP064 T01110022
KSPF 201255Z AUTO 23010G16KT 10SM CLR 08/M01 A2980 RMK AO2
KSPG 201253Z 07009KT 10SM CLR 27/23 A3000 RMK AO2 SLP158 T02670228
KSPI 201252Z 18007KT 10SM CLR 24/21 A2991 RMK AO2 SLP122 T02390206
KSPR 201255Z AUTO 18012KT 10SM SCT024 28/23 A3000 RMK A01
KSPS 201252Z 18013KT 10SM SCT100 23/22 A2980 RMK AO2 SLP078 T02330217
KSPW 201253Z AUTO 29010KT 10SM CLR 15/13 A2975 RMK AO2 SLP067 T01500133
KSQI 201256Z 14007KT 10SM 21/18 A2986 RMK AO2 SLP125 T02060183 $
KSQL 201255Z AUTO 32005KT 10SM OVC014 17/13 A2998 RMK AO2
KSRB 201235Z AUTO 00000KT 10SM CLR 17/17 A3006 RMK A01
KSRC 201256Z AUTO 19005KT 5SM BR CLR 23/23 A2996 RMK AO2 SLP148 T02280228
KSRQ 201253Z 05007KT 10SM CLR 26/23 A2999 RMK AO2 SLP155 T02560228
KSRR 201255Z AUTO 22004KT 10SM CLR 14/04 A3018 RMK AO2
KSSC 201258Z AUTO 00000KT 10SM CLR 24/21 A3001 RMK AO2 SLP162 T02410211 $
KSSF 201253Z 16005KT 10SM OVC020 27/24 A2990 RMK AO2 SLP111 T02670239
KSSI 201253Z AUTO 22007KT 10SM CLR 26/22 A3004 RMK AO2 SLP174 T02610217
KSTC 201253Z 26010KT 8SM BKN008 OVC018 17/17 A2966 RMK AO2 SLP048 T01670167
KSTE 201255Z AUTO 14011G15KT 5SM BR OVC060 17/17 A2982 RMK AO2 LTG DSNT N AND NW T01700167
KSTF 201255Z AUTO 00000KT 4SM BR CLR 21/20 A3002 RMK AO2
KSTJ 201253Z 18007KT 8SM CLR 23/22 A2975 RMK AO2 SLP066 T02330217
KSTK 201250Z AUTO 00000KT 10SM CLR 03/02 A2996 RMK AO2
KSTL 201251Z 17007KT 10SM SCT130 SCT250 24/21 A2991 RMK AO2 SLP115 T02390206
KSTP 201253Z 15007KT 10SM BKN022 OVC026 21/20 A2965 RMK AO2 SLP035 T02110200
KSTS 201253Z AUTO 00000KT 10SM OVC022 16/11 A2994 RMK AO2 SLP131 T01610106
KSUA 201250Z 00000KT 7SM BKN110 28/25 A3000
KSUE 201256Z AUTO 15011KT 2 1/2SM BR OVC003 18/17 A2992 RMK AO2 SLP151 T01830172
KSUN 201253Z 30003KT 10SM BKN044 BKN055 02/00 A2986
KSUS 201254Z 07003KT 10SM FEW150 22/21 A2989 RMK AO2 SLP115 T02220211
KSUT 201250Z AUTO 30004KT 10SM CLR 23/20 A3003 RMK AO2 T02330200
KSUU 201258Z AUTO 24013KT 10SM CLR 15/09 A2989 RMK AO2 SLP128 T01510093 $
KSUW 201255Z AUTO 00000KT 10SM OVC025 17/16 A2965 RMK AO2 T01680162
KSUX 201252Z 31006KT 10SM CLR 14/14 A2977 RMK AO2 SLP076 T01440139
KSVC 201255Z AUTO 34007KT 10SM CLR 11/04 A3011 RMK AO2 T01070040
KSVE 201255Z AUTO 27005KT 10SM CLR 10/04 A2992 RMK AO2
KSVH 201240Z AUTO 00000KT 7SM SCT060 19/17 A3005 RMK AO2 T01900174
KSVN 201258Z AUTO 22003KT 10SM CLR 26/20 A3002 RMK AO2 SLP168 T02600203
KSWF 201245Z 03010G20KT 15SM BKN025 21/18 A2994
KSWO 201253Z 17012KT 9SM CLR 24/19 A2978 RMK AO2 SLP068 T02390194
KSWW 201255Z AUTO 17011KT 10SM CLR 22/18 A2991 RMK AO2 T02230181
KSXS 201258Z AUTO 00000KT 1 1/4SM BR OVC002 21/21 A3004 RMK AO2 SLP171 T02110207 TSNO
KSXT 201256Z AUTO VRB05KT 5SM BR FEW002 SCT013 OVC022 07/07 A2981 RMK AO2 SLP088 T00720067
KSXU 201255Z AUTO 23006KT 10SM CLR 15/03 A2998 RMK AO2 T01520025
KSYF 201255Z AUTO 24007KT 10SM CLR 04/00 A2997 RMK AO2 T00360002
KSYI 201255Z AUTO 10003KT 10SM CLR 20/19 A3005 RMK A01
KSYM 201250Z AUTO 00000KT M1/4SM FG OVC003 19/18 A3009 RMK AO2
KSYN 201236Z AUTO 17009KT 10SM BKN024 22/19 A2964 RMK AO2 T02150185
KSYR 201254Z 00000KT 10SM FEW200 18/16 A3003 RMK AO2 SLP164 T01780161 CHINO NW $
KSZL 201258Z 20014KT 10SM FEW250 24/20 A2981 RMK AO2A SLP090 T02390200
KSZT 201255Z AUTO 24003KT 7SM DZ SCT017 BKN023 OVC032 06/05 A2963 RMK AO2
KT20 201255Z AUTO 13003KT 3SM BR OVC003 25/25 A2992 RMK AO2 T02500250
KT35 201255Z AUTO 17006KT 10SM SCT026 25/24 A2992 RMK AO2 T02500236
KT65 201255Z AUTO 15004KT 7SM CLR 26/24 A2987 RMK AO2 T02620238
KT70 201258Z AUTO 15007KT 10SM CLR 24/21 A2984 RMK AO2 SLP093 T02360211
KT82 201235Z AUTO 18006KT 10SM BKN014 23/20 A2994 RMK AO2 T02280201
KTAD 201254Z AUTO 27004KT 10SM CLR 04/02 A3008 RMK AO2 SLP130 T00390017
KTAN 201252Z AUTO 03008G18KT 360V080 8SM -RA OVC004 18/17 A2984 RMK AO2 SLP105 P0001 T01830172
KTAZ 201255Z AUTO 17006KT 10SM CLR 22/20 A2993 RMK AO2 T02190202
KTBN 201256Z AUTO 14008KT 10SM CLR 22/21 A2990 RMK AO2 SLP118 T02150205
KTBR 201255Z AUTO 00000KT 10SM CLR 25/19 A3003 RMK AO2 T02450194
KTBX 201255Z AUTO 14010KT 10SM CLR 00/M05 A2997 RMK AO2 PWINO
KTCC 201253Z AUTO 02007KT 10SM CLR 12/03 A2997 RMK AO2 SLP092 T01220028
KTCL 201153Z 04003KT 7SM CLR 21/21 A3001 RMK AO2 SLP159 T02060206 10217 20200 53012
KTCM 201258Z AUTO 17003KT 10SM BKN032 OVC041 11/10 A2962 RMK AO2 SLP034 T01050103 $
KTCS 201253Z AUTO 31008KT 10SM CLR 18/05 A3003 RMK AO2 SLP083 T01780050
KTDF 201240Z AUTO 00000KT 10SM CLR 20/18 A3004 RMK AO2
KTDR 201256Z AUTO 36003KT 10SM SCT015 SCT027 27/25 A3002 RMK AO2 SLP169 T02690247 $
KTDZ 201253Z AUTO 00000KT 3SM BR CLR 19/18 A3002 RMK AO2 SLP164 T01940183
KTEB 201251Z 01011G17KT 10SM CLR 23/18 A2987 RMK AO2 SLP114 T02330178
KTEW 201253Z AUTO 11005KT 2SM BR BKN003 BKN021 21/20 A3001 RMK AO2 T02060195
KTEX 201255Z AUTO 00000KT 10SM CLR 08/M02 A3020 RMK AO2 T00831022
KTFP 201057Z AUTO 10SM SCT018 SCT024 SCT029 28/25 A2987 RMK AO2
KTHA 201255Z AUTO 00000KT 10SM CLR 19/18 A3008 RMK
KTHV 201253Z AUTO 00000KT 10SM BKN120 22/17 A2998 RMK AO2 SLP152 T02170172
KTIF 201255Z AUTO 00000KT 10SM CLR 09/06 A2989 RMK AO2 T00930060
KTIK 201256Z AUTO 17017G21KT 10SM FEW130 24/21 A2981 RMK AO2 SLP087 T02360205 $
KTIP 201255Z AUTO 16004KT 3SM BR CLR 20/20 A2995 RMK AO2 T01970195
KTIW 201253Z AUTO 00000KT 10SM OVC017 10/09 A2962 RMK AO2 RAB25E42 SLP029 P0000 T01000094
KTIX 201247Z 00000KT 7SM FEW030 25/24 A3002
KTKC 201253Z AUTO 29003KT 10SM CLR 14/13 A2973 RMK AO2 T01390131
KTKI 201253Z 17011KT 10SM CLR 25/23 A2989 RMK AO2 SLP116 T02500233
KTKV 201255Z AUTO 11003KT 4SM -RA 16/15 A2985 RMK AO2 T01570148
KTKX 201255Z AUTO 16003KT 3SM BR CLR 23/23 A2995 RMK AO2
KTLH 201253Z 00000KT 10SM FEW080 OVC095 24/23 A3003 RMK AO2 SLP168 T02390233
KTMA 201255Z AUTO 21005KT 7SM SCT004 SCT065 23/23 A3004 RMK AO2 T02330233
KTMB 201253Z 00000KT 10SM CLR 29/24 A2999 RMK AO2 SLP155 T02890239 $
KTME 201255Z AUTO 14004KT 1 1/2SM BR CLR 25/25 A2995 RMK AO2
KTMK 201255Z AUTO 16006KT 10SM SCT032 BKN065 OVC080 11/09 A2968 RMK AO2 P0002
KTMT 201255Z AUTO 00000KT 10SM CLR M01/M09 A2999 RMK AO2 T10101087
KTNB 201255Z AUTO 29007KT 10SM SCT090 18/14 A3016 RMK AO2 T01750136
KTNU 201255Z AUTO 17006KT 10SM CLR 21/19 A2975 RMK AO2 PWINO
KTOB 201253Z AUTO 17011G17KT 10SM SCT024 21/18 A2970 RMK AO2
KTOC 201255Z AUTO 00000KT 10SM CLR 24/20 A3006 RMK AO2 T02380202
KTOI 201253Z AUTO 00000KT 1/4SM FG VV002 20/20 A3005 RMK AO2 SLP171 T02000200
KTOL 201252Z 25005KT 1/4SM FG OVC003 18/ A3002 RMK AO2 SLP161 T0183 RVRNO $
KTOP 201253Z 17007KT 9SM CLR 24/22 A2975 RMK AO2 SLP066 T02390217
KTOR 201253Z AUTO 18007KT 10SM CLR 08/M01 A2991 RMK AO2 SLP115 T00831011 $
KTPA 201253Z 02005KT 10SM CLR 26/23 A3003 RMK AO2 SLP167 T02610228 $
KTPF 201255Z AUTO 04005KT 10SM OVC110 27/26 A3002 RMK AO2
KTPH 201256Z AUTO 08003KT 10SM CLR 08/ A2997 RMK AO2 SLP097 T0078 $
KTPL 201251Z AUTO 17014KT 10SM OVC007 24/23 A2991 RMK AO2 SLP130 T02440233
KTQE 201254Z AUTO 33007KT 10SM CLR 16/12 A2976 RMK AO2 SLP066 T01610122
KTQH 201255Z AUTO 15006KT 10SM CLR 23/22 A2989 RMK AO2
KTRI 201253Z 00000KT 10SM FEW043 SCT055 18/17 A3011 RMK AO2 SLP173 T01830172
KTRK 201255Z AUTO 00000KT 10SM BKN036 OVC050 02/M01 A3001 RMK AO2
KTRL 201253Z AUTO 17009KT 9SM OVC014 26/23 A2991 RMK AO2 SLP121 T02560228
KTRM 201252Z AUTO 33009KT 10SM CLR 23/13 A2971 RMK AO2 SLP064 T02330133
KTSP 201255Z AUTO 29008KT 10SM CLR 09/04 A3002 RMK AO2
KTTA 201245Z AUTO 24003KT 10SM CLR 20/18 A3002 RMK AO2 T02040183
KTTD 201253Z AUTO 11004KT 10SM BKN014 OVC019 11/09 A2963 RMK AO2 RAE02 SLP034 P0000 T01110094
KTTF 201252Z AUTO 28003KT 1 1/4SM BR OVC007 19/18 A3002 RMK AO2 T01920181
KTTN 201253Z 34008KT 10SM CLR 22/18 A2989 RMK AO2 SLP115 T02220178
KTTS 201258Z AUTO 00000KT 10SM BKN095 27/26 A3001 RMK AO2 SLP167 T02680261 VISNO RWY15 CHINO RWY15 $
KTUL 201253Z 17014G21KT 10SM SCT150 BKN250 26/22 A2980 RMK AO2 SLP081 T02560222
KTUP 201253Z 00000KT 10SM CLR 23/21 A3001 RMK AO2 SLP158 T02280206 $
KTUS 201253Z 12007KT 10SM CLR 22/13 A2996 RMK AO2 SLP099 T02170128
KTVC 201253Z 13004KT 7SM SCT010 SCT045 BKN250 19/17 A2996 RMK AO2 SLP143 T01940172
KTVF 201201Z AUTO 25009KT 10SM OVC044 13/12 A2958 RMK AO2 SLP017 60055 70149 T01330122 10161 20133 53014
KTVI 201255Z AUTO 00000KT 7SM BKN060 24/24 A3005 RMK AO2
KTVK 201235Z AUTO 17010G15KT 10SM CLR 23/20 A2980 RMK AO2
KTVL 201253Z AUTO 17008KT 10SM OVC047 09/M03 A3002 RMK AO2 SLP125 T00941028
KTVR 201253Z AUTO 18004KT 6SM BR CLR 24/23 A2999 RMK AO2 SLP161 T02390233
KTVY 201315Z AUTO 19011KT 10SM CLR 06/01 A2993 RMK AO2
KTWF 201253Z 19011KT 10SM BKN100 07/M02 A2983 RMK AO2 SLP077 T00721017
KTWM 201255Z AUTO 10006KT 7SM -RA SCT003 SCT024 OVC034 18/15 A2966 RMK AO2
KTXK 201253Z 19006KT 7SM FEW015 OVC090 24/24 A2995 RMK AO2 SLP137 T02440239
KTYQ 201255Z AUTO 15003KT 1 3/4SM BR VV007 19/19 A3002 RMK AO2 T01890189
KTYR 201253Z 18007KT 4SM BR OVC011 24/24 A2993 RMK AO2 SLP128 T02440244
KTYS 201253Z 00000KT 10SM FEW003 18/17 A3007 RMK AO2 SLP176 T01780167
KTZR 201247Z 00000KT 6SM BR SKC 20/20 A3005
KU42 201255Z AUTO 21005KT 10SM CLR 06/03 A2996 RMK AO1 T00560025
KU68 201255Z AUTO 00000KT 10SM CLR 03/02 A2980 RMK AO2
KUAO 201253Z AUTO 19008KT 10SM CLR 12/09 A2965 RMK AO2 SLP040 T01220094
KUBE 201255Z AUTO 14010KT 10SM SCT009 OVC026 18/17 A2969 RMK AO2 LTG DSNT E
KUCP 201256Z AUTO 00000KT 10SM FEW047 BKN100 18/17 A3007 RMK AO2 SLP192 T01780167 TSNO
KUDG 201256Z AUTO 00000KT 8SM CLR 23/21 A3005 RMK AO2 SLP178 T02280206
KUES 201245Z 13008KT 5SM BR SKC 18/18 A2992
KUGN 201255Z 14006KT 1SM BR VV003 20/20 A2991 RMK AO2 SLP122 T02000200
KUIL 201253Z AUTO 00000KT 10SM FEW055 07/07 A2964 RMK AO2 SLP035 T00720067
KUIN 201254Z AUTO 17008KT 10SM CLR 23/20 A2986 RMK AO2 SLP104 T02280200
KUKF 201240Z AUTO 00000KT 10SM CLR 18/18 A3012 RMK AO2
KUKI 201256Z AUTO 02003KT 10SM BKN024 OVC040 13/12 A2995 RMK AO2 RAB00E15 SLP136 P0000 T01330122
KUKT 201255Z AUTO 01007KT 10SM CLR 21/17 A2995 RMK AO1
KULM 201253Z AUTO 28010KT 10SM CLR 16/13 A2971 RMK AO2
KUNI 201255Z AUTO 27003KT 10SM SCT040 BKN085 20/20 A3004 RMK AO2 T01990199
KUNO 201253Z AUTO 20005KT 8SM CLR 23/22 A2996 RMK AO2 SLP130 T02330217
KUNU 201255Z AUTO 12010G14KT 5SM BR CLR 19/18 A2988 RMK AO2 T01850175
KUNV 201253Z 00000KT 1/8SM FG OVC001 14/14 A3005
KUOX 201255Z AUTO VRB04KT 9SM SCT043 23/21 A3002 RMK AO2
KUSE 201255Z AUTO 00000KT M1/4SM FG OVC002 19/19 A3002 RMK AO2
KUTA 201255Z AUTO 16003KT 7SM 22/22 A2999 RMK AO2 TSNO
KUTS 201253Z AUTO 17005KT 5SM BR CLR 26/24 A2994 RMK AO2 SLP134 T02560239
KUUU 201253Z AUTO 02018G28KT 7SM OVC005 19/19 A2980 RMK AO2 PK WND 02029/1237 RAB01E21 SLP088 P0000 T01890189
KUVA 201255Z AUTO 09006KT 4SM BR OVC005 23/22 A2991 RMK AO2 T02300222
KUXL 201255Z AUTO 00000KT 10SM CLR 26/25 A2998 RMK AO2 T02630247
KUYF 201255Z AUTO 25003KT 2 1/2SM BR SCT060 OVC075 20/18 A3005 RMK AO2
KUZA 201254Z AUTO A3005 RMK AO2 SLPNO PWINO
KVAD 201258Z AUTO 00000KT 10SM CLR 23/22 A3003 RMK AO2 SLP170 T02310219 $
KVAF 201255Z AUTO 19014KT 8SM FEW021 29/25 A2995 RMK A01
KVAY 201254Z AUTO 34009KT 10SM OVC024 22/19 A2988 RMK AO2 SLP119 T02170189
KVBG 201258Z AUTO 35010KT 9SM CLR 13/12 A2989 RMK AO2 SLP124 T01310123
KVBS 201255Z AUTO VRB04G10KT 10SM CLR 28/25 A2995 RMK A01
KVBT 201256Z AUTO 18008G16KT 10SM CLR 24/22 A2993 RMK AO2 SLP123 T02390217
KVBW 201255Z AUTO 00000KT 10SM CLR 17/16 A3005 RMK AO2 T01660162
KVCB 201253Z AUTO 00000KT 10SM CLR 15/09 A2991 RMK AO2 SLP128 T01500094
KVCT 201251Z 00000KT 3SM BR FEW050 24/23 A2992 RMK AO2 SLP129 T02440233
KVCV 201255Z AUTO 16004KT 10SM CLR 13/04 A2989 RMK AO2
KVDF 201255Z AUTO 00000KT 10SM CLR 25/23 A3003 RMK AO2
KVDI 201255Z AUTO 00000KT 10SM CLR 23/22 A3005 RMK AO2
KVEL 201253Z AUTO 36003KT 10SM OVC100 09/04 A2999 RMK AO2 SLP123 T00890039
KVER 201255Z AUTO 15008KT 10SM CLR 22/ A2985 RMK AO2 T0218
KVES 201255Z AUTO 00000KT 3SM BR CLR 18/18 A3004 RMK AO2
KVGT 201253Z AUTO 31005KT 10SM CLR 20/05 A2978 RMK AO2 SLP079 T02000050
KVIH 201253Z AUTO 19010KT 7SM CLR 23/21 A2992 RMK AO2 PK WND 21029/1236 SLP118 T02330211
KVIS 201256Z AUTO 00000KT 10SM CLR 12/08 A2993 RMK AO2 SLP143 T01170083
KVJI 201255Z AUTO 00000KT 10SM CLR 19/19 A3012 RMK AO2 T01880186
KVKS 201235Z AUTO 00000KT 7SM CLR 24/24 A3000 RMK A01
KVKY 201255Z AUTO 24008KT 10SM FEW025 28/22 A3003 RMK A01
KVLD 201253Z 00000KT 7SM CLR 24/23 A3004 RMK AO2 SLP178 T02390228
KVLL 201255Z AUTO 00000KT 1SM BR OVC002 20/19 A3004 RMK AO2 T01960194
KVNC 201255Z AUTO 06007KT 10SM CLR 26/23 A3000 RMK AO2
KVNY 201251Z 36003KT 6SM BR BKN019 15/14 A2987 RMK AO2 SLP109 T01500139
KVOA 201255Z AUTO 25007KT 10SM CLR 28/22 A3001 RMK A01
KVOK 201254Z 16005KT 7SM -TSRA SCT040CB BKN055 OVC140 19/18 A2980 RMK AO2A TS OHD MOV NE
KVPC 201253Z AUTO 00000KT 1/4SM FG VV002 19/19 A3007 RMK AO2 SLP173 T01890189
KVPS 201255Z 32003KT 10SM FEW020 FEW180 26/24 A3002 RMK AO2A SLP171 T02630235 $
KVPZ 201256Z AUTO 10004KT 3SM BR CLR 18/18 A2997 RMK AO2 SLP147 T01780178 TSNO
KVQQ 201250Z 00000KT 10SM CLR 23/23 A3004
KVQT 201255Z AUTO 00000KT 10SM FEW023 A3000 RMK A01
KVRB 201253Z AUTO 32003KT 10SM CLR 28/24 A3000 RMK AO2 SLP159 T02780239
KVSF 201254Z AUTO 36006KT 10SM FEW014 19/16 A3002 RMK AO2 SLP163 T01940156
KVTA 201254Z AUTO 00000KT 5SM BR OVC070 20/19 A3004 RMK AO2 SLP169 T02000189
KVTI 201255Z AUTO 15008KT 10SM CLR 22/18 A2976 RMK AO2 T02160183
KVTN 201252Z AUTO 21005KT 10SM CLR 08/07 A2987 RMK AO2 SLP107 T00830072
KVTP 201306Z AUTO 20014G22KT 160V220 10SM CLR 06/M08 A3033 RMK AO2
KVUJ 201240Z AUTO 00000KT 10SM CLR 21/19 A3008 RMK AO2 T02060191
KVUO 201253Z AUTO 11004KT 10SM SCT020 SCT025 BKN040 11/11 A2962 RMK AO2 SLP031 T01110106
KVVG 201230Z AUTO 00000KT 10SM 24/23 A2995 RMK A01
KVVV 201253Z AUTO 29009KT 10SM CLR 13/11 A2971 RMK AO2
KVWU 201254Z AUTO 23010G19KT 3SM DZ SCT006 BKN013 OVC030 16/16 A2958 RMK AO2
KVYS 201255Z AUTO 15007KT 10SM CLR 20/17 A2989 RMK AO2 T01950172
KW13 201255Z AUTO 00000KT 10SM CLR 18/18 A3006 RMK AO1 T01790175
KW22 201255Z AUTO 00000KT 10SM BKN070 OVC090 18/18 A3007 RMK AO2
KW29 201240Z AUTO 33007KT 10SM OVC110 23/19 A2994 RMK AO2
KW31 201255Z AUTO 00000KT 10SM CLR 22/21 A3001 RMK AO1 T02150210
KW43 201235Z AUTO 21008KT 10SM CLR 05/00 A2980 RMK AO2
KW63 201255Z AUTO 00000KT 10SM CLR 21/20 A3001 RMK AO1
KW75 201255Z AUTO 30004KT 10SM OVC095 22/20 A2995 RMK AO1 T02180201
KW78 201230Z AUTO 00000KT 10SM CLR 19/18 A3002 RMK AO1 T01890180
KW81 201255Z AUTO 00000KT 10SM CLR 21/21 A3000 RMK AO1 T02110211
KW96 201255Z AUTO 30004KT 10SM CLR 22/19 A2997 RMK AO1 T02150187
KW99 201230Z AUTO 00000KT M1/4SM FG OVC002 16/16 A3005 RMK AO2 T01590159
KWAL 201254Z 32009G17KT 10SM SCT055 SCT080 23/19 A2991 RMK AO2 SLP125 T02330194
KWDG 201250Z 20009KT 10SM FEW130 SCT200 24/21 A2976
KWDR 201255Z AUTO 00000KT 10SM CLR 23/21 A3008 RMK AO1
KWJF 201256Z AUTO 26018KT 10SM CLR 16/02 A2988 RMK AO2 PK WND 28026/1213 SLP107 T01560022 $
KWLD 201254Z AUTO 18004KT 10SM CLR 22/20 A2980 RMK AO2 SLP076 T02220200
KWMC 201256Z AUTO 16012KT 10SM FEW070 10/M02 A2987 RMK AO2 SLP088 T01001017 TSNO
KWRB 201258Z 32005KT 10SM SCT060 23/21 A3003 RMK AO2A SLP169 T02280213
KWRI 201258Z AUTO 33012KT 10SM OVC025 22/18 A2985 RMK AO2 SLP107 T02200181
KWRL 201253Z AUTO 14006KT 10SM CLR 01/00 A2982 RMK AO2 SLP109 T00060000
KWST 201253Z AUTO 36011G27KT 10SM OVC011 22/19 A2980 RMK AO2 PK WND 04027/1244 SLP089 T02220194
KWVI 201253Z AUTO 32005KT 10SM CLR 12/11 A2998 RMK AO2 SLP152 T01170106
KWVL 201256Z AUTO 03007KT 10SM OVC003 19/19 A3001 RMK AO2 RAE08 SLP186 P0000 T01940189
KWWD 201255Z AUTO 34010KT 10SM CLR 22/18 A2987 RMK AO2 SLP118 T02170183
KWWR 201255Z AUTO 30006KT 10SM CLR 16/11 A2985 RMK AO2
KWYS 201255Z AUTO 23005G11KT 10SM BKN011 BKN016 OVC024 M00/M01 A2985 RMK AO2
KX60 201255Z AUTO 00000KT 6SM BR CLR 24/24 A3005 RMK A01
KXBP 201255Z AUTO 16006KT 10SM CLR 24/21 A2988 RMK AO2 T02360213
KXIH 201255Z AUTO 4SM HZ FEW021 FEW026 SCT100 A2994 RMK A01
KXLL 201255Z AUTO 36004KT 10SM CLR 21/17 A2996 RMK AO2
KXMR 201258Z AUTO 06005KT 4SM HZ CLR 28/22 A3000 RMK AO2 SLP162 T02830224 $
KXNA 201253Z 18011KT 9SM CLR 24/23 A2991 RMK AO2 SLP112 T02390228
KXPY 201255Z AUTO 20005KT 10SM FEW024 29/23 A3001 RMK A01
KXSA 201255Z AUTO 28005KT 10SM SCT100 22/17 A2997 RMK AO2 T02230171
KXVG 201256Z AUTO 22006KT 7SM OVC005 16/16 A2963 RMK AO2
KY19 201255Z AUTO 22008KT 10SM CLR 06/04 A2970 RMK AO2
KY23 201255Z AUTO 13012G19KT 10SM BKN009 OVC031 18/18 A2971 RMK AO2 T01800175
KY31 201254Z AUTO 00000KT 3/4SM BR OVC002 18/18 A3001 RMK AO2 T01800175
KY49 201255Z AUTO 24004KT 10SM SCT014 BKN026 OVC047 15/14 A2962 RMK AO2 T01450135
KY50 201256Z AUTO 13003KT 4SM BR OVC005 17/17 A2984 RMK AO2 LTG DSNT W AND NW SLP123 T01720167
KY51 201255Z AUTO 16009KT 10SM BKN042 19/18 A2980 RMK AO1 T01910183
KY63 201259Z AUTO 32006KT 10SM CLR 13/11 A2971 RMK AO2 T01250112
KY70 201256Z AUTO 13004KT 2SM BR OVC007 20/19 A2999 RMK AO2 T01960193
KYIP 201253Z 00000KT 1/4SM R05R/1200V1600FT FG VV002 21/21 A3002 RMK AO2 SLP161 T02060206
KYKM 201253Z 26003KT 10SM -RA BKN065 OVC080 08/04 A2960 RMK AO2 RAB44 SLP025 T00780039 PNO $
KYKN 201256Z AUTO 32009KT 10SM CLR 12/10 A2981 RMK AO2 SLP102 T01170100
KYNG 201251Z 14003KT 10SM FEW055 FEW130 OVC250 21/17 A3005 RMK AO2 SLP170 T02110172
KZPH 201315Z AUTO 01005KT 10SM CLR 24/23 A3004 RMK AO2 T02410230
KZZV 201253Z AUTO 00000KT 6SM -RA BR OVC060 19/18 A3005 RMK AO2 RAB48 SLP169 P0000 T01940178